Darstellungsparameter: Aktuell verwendete Einstellungen:
Skalierung der Graphiken ... ?
xyx+y,   Skalierungsfaktor:      Skalierung: Modus: x, Faktor: 1
Darstellungszeitraum ... ?
Vom - - bis: - -   Zeitraum: 19.03.2007 - 08.04.2007
Min/Max/Avg-Anzeige ... ?
Zeige MMA aktuell
Zeige MMA Monat
Zeige MMA alles
Zeige --A aktuell
Zeige --A Monat
Zeige --A alles
Keine MMA-Anzeige
MMA:
Average (ber die Originaldaten)
MMA-Basis: 19.03.2007 - 08.04.2007
Quicknavigation für Darstellung... ?
Tage:      1T, 2T, 3T, 5T -1T -2T -3T -5T +1T +2T +3T +5T
Wochen: 1W, 2W, 3W -1W -2W -3W +1W +2W +3W
Monate: 1M, 3M, 6M -1M -3M -6M +1M +3M +6M
Jahre:    1J, 3J, 5J, 10J -1J -3J -5J -10J +1J +3J +5J +10J
Nutze für die Darstellung ... ?
Originaldaten oder Mittelwerte auf ...
Stundenbasis Tagesbasis Wochenbasis
Monatsbasis Jahresbasis      Datenbasis: Original-Daten
Darstellen als:
Statistik (Auto) Statistik J:M      Darstellung:
Zur Graphik,    zurück zur Übersicht aller Sensoren.
 
Tabellarische Datenbersicht: ?
 
Sensor: Nr:Datum:Temp:Abs-Feuchte:Windchill:Wind:
Aussen-T/F 1 19-03-2007 00:09:03 3.1 C 4.13 g/m*3 3.1 C 0 km/h
2 19-03-2007 00:21:03 3 C 4.16 g/m*3 3 C 0 km/h
3 19-03-2007 00:33:02 2.8 C 4.16 g/m*3 2.8 C 0 km/h
4 19-03-2007 00:45:02 2.7 C 4.2 g/m*3 2.7 C 0 km/h
5 19-03-2007 00:57:02 2.4 C 4.23 g/m*3 2.4 C 0 km/h
6 19-03-2007 01:09:02 2.4 C 4.28 g/m*3 2.4 C 0 km/h
7 19-03-2007 01:21:02 2.2 C 4.22 g/m*3 2.2 C 0 km/h
8 19-03-2007 01:33:02 1.9 C 4.25 g/m*3 1.9 C 0 km/h
9 19-03-2007 01:45:02 2.1 C 4.31 g/m*3 2.1 C 0 km/h
10 19-03-2007 01:57:02 2.1 C 4.25 g/m*3 2.1 C 0 km/h
11 19-03-2007 02:09:02 1.7 C 4.19 g/m*3 1.7 C 0 km/h
12 19-03-2007 02:21:03 1.8 C 4.33 g/m*3 1.8 C 0 km/h
13 19-03-2007 02:33:02 1.9 C 4.36 g/m*3 1.9 C 0 km/h
14 19-03-2007 02:46:03 2 C 4.33 g/m*3 2 C 0 km/h
15 19-03-2007 02:58:03 2.6 C 4.28 g/m*3 2.6 C 0 km/h
16 19-03-2007 03:10:03 2.9 C 4.19 g/m*3 2.9 C 0 km/h
17 19-03-2007 03:22:03 3 C 4.16 g/m*3 3 C 0 km/h
18 19-03-2007 03:34:03 3.1 C 4.25 g/m*3 3.1 C 0 km/h
19 19-03-2007 03:46:03 2.9 C 4.25 g/m*3 2.9 C 0 km/h
20 19-03-2007 03:58:03 2.9 C 4.31 g/m*3 2.9 C 0 km/h
21 19-03-2007 04:10:02 3.1 C 4.25 g/m*3 3.1 C 0 km/h
22 19-03-2007 04:22:03 3.1 C 4.25 g/m*3 3.1 C 0 km/h
23 19-03-2007 04:34:03 3 C 4.22 g/m*3 3 C 0 km/h
24 19-03-2007 04:46:02 2.9 C 4.25 g/m*3 2.9 C 0 km/h
25 19-03-2007 04:58:02 2.8 C 4.22 g/m*3 2.8 C 0 km/h
Sensor: Nr:Datum:Temp:Abs-Feuchte:Windchill:Wind:
Aussen-T/F 26 19-03-2007 05:10:02 2.8 C 4.22 g/m*3 2.8 C 0 km/h
27 19-03-2007 05:22:02 2.8 C 4.28 g/m*3 2.8 C 0 km/h
28 19-03-2007 05:34:01 2.8 C 4.34 g/m*3 2.8 C 0 km/h
29 19-03-2007 05:46:02 2.8 C 4.34 g/m*3 2.8 C 0 km/h
30 19-03-2007 05:58:03 2.9 C 4.37 g/m*3 2.9 C 0 km/h
31 19-03-2007 06:10:02 2.8 C 4.34 g/m*3 2.8 C 0 km/h
32 19-03-2007 06:22:03 2.9 C 4.37 g/m*3 2.9 C 0 km/h
33 19-03-2007 06:34:02 2.9 C 4.37 g/m*3 2.9 C 0 km/h
34 19-03-2007 06:46:02 2.8 C 4.34 g/m*3 2.8 C 0 km/h
35 19-03-2007 06:58:02 2.7 C 4.37 g/m*3 2.7 C 0 km/h
36 19-03-2007 07:10:02 2.7 C 4.31 g/m*3 2.7 C 0 km/h
37 19-03-2007 07:22:01 2.9 C 4.31 g/m*3 2.9 C 0 km/h
38 19-03-2007 07:34:02 3 C 4.22 g/m*3 3 C 0 km/h
39 19-03-2007 07:46:02 3 C 4.28 g/m*3 3 C 0 km/h
40 19-03-2007 07:58:02 3 C 4.28 g/m*3 3 C 0 km/h
41 19-03-2007 08:10:02 3 C 4.28 g/m*3 3 C 0 km/h
42 19-03-2007 08:22:03 3.3 C 4.31 g/m*3 3.3 C 0 km/h
43 19-03-2007 08:34:02 3.4 C 4.15 g/m*3 3.4 C 0 km/h
44 19-03-2007 08:46:02 3.5 C 4.24 g/m*3 3.5 C 0 km/h
45 19-03-2007 08:58:02 3.5 C 4.24 g/m*3 3.5 C 0 km/h
46 19-03-2007 09:10:02 3.6 C 4.15 g/m*3 3.6 C 0 km/h
47 19-03-2007 09:22:01 3.7 C 4.18 g/m*3 3.7 C 0 km/h
48 19-03-2007 09:34:02 4 C 4.13 g/m*3 4 C 0 km/h
49 19-03-2007 09:46:02 3.7 C 4.11 g/m*3 3.7 C 0 km/h
50 19-03-2007 09:58:02 3.9 C 4.17 g/m*3 3.9 C 0 km/h
Sensor: Nr:Datum:Temp:Abs-Feuchte:Windchill:Wind:
Aussen-T/F 51 19-03-2007 10:10:02 4.2 C 4.06 g/m*3 4.2 C 0 km/h
52 19-03-2007 10:22:03 4.3 C 3.96 g/m*3 4.3 C 0 km/h
53 19-03-2007 10:34:02 4.5 C 3.88 g/m*3 4.5 C 0 km/h
54 19-03-2007 10:46:02 5 C 3.74 g/m*3 5 C 0 km/h
55 19-03-2007 10:58:02 5.1 C 3.69 g/m*3 5.1 C 0 km/h
56 19-03-2007 11:10:01 5.2 C 3.79 g/m*3 5.2 C 0 km/h
57 19-03-2007 11:22:01 5.1 C 3.63 g/m*3 5.1 C 0 km/h
58 19-03-2007 11:34:02 5.4 C 3.7 g/m*3 5.4 C 0 km/h
59 19-03-2007 11:46:01 5.6 C 3.61 g/m*3 5.6 C 0 km/h
60 19-03-2007 11:58:01 5.9 C 3.61 g/m*3 5.9 C 0 km/h
61 19-03-2007 12:10:02 6.3 C 3.55 g/m*3 6.3 C 0 km/h
62 19-03-2007 12:22:02 7.1 C 3.28 g/m*3 7.1 C 0 km/h
63 19-03-2007 12:34:01 7.2 C 3.3 g/m*3 7.2 C 0 km/h
64 19-03-2007 12:46:02 8.2 C 3.43 g/m*3 8.2 C 0 km/h
65 19-03-2007 12:58:03 8.7 C 3.11 g/m*3 8.7 C 0 km/h
66 19-03-2007 13:10:02 8.6 C 3.27 g/m*3 8.6 C 0 km/h
67 19-03-2007 13:22:02 8.4 C 3.48 g/m*3 8.4 C 0 km/h
68 19-03-2007 13:34:02 8.1 C 3.41 g/m*3 8.1 C 0 km/h
69 19-03-2007 13:46:02 8.4 C 3.31 g/m*3 8.4 C 0 km/h
70 19-03-2007 13:58:02 9 C 3.35 g/m*3 9 C 0 km/h
71 19-03-2007 14:10:03 9.8 C 3.25 g/m*3 9.8 C 0 km/h
72 19-03-2007 14:22:02 9.3 C 2.97 g/m*3 9.3 C 0 km/h
73 19-03-2007 14:34:02 8.9 C 2.98 g/m*3 8.9 C 0 km/h
74 19-03-2007 14:46:02 9 C 3.17 g/m*3 9 C 0 km/h
75 19-03-2007 14:58:02 8.9 C 3.42 g/m*3 8.9 C 0 km/h
Sensor: Nr:Datum:Temp:Abs-Feuchte:Windchill:Wind:
Aussen-T/F 76 19-03-2007 15:10:02 8.7 C 3.37 g/m*3 8.7 C 0 km/h
77 19-03-2007 15:22:02 8.6 C 3.18 g/m*3 8.6 C 0 km/h
78 19-03-2007 15:34:02 8.7 C 3.46 g/m*3 8.7 C 0 km/h
79 19-03-2007 15:46:02 8.8 C 2.79 g/m*3 8.8 C 0 km/h
80 19-03-2007 15:58:02 8.3 C 2.87 g/m*3 8.3 C 0 km/h
81 19-03-2007 16:10:02 8.1 C 2.91 g/m*3 8.1 C 0 km/h
82 19-03-2007 16:22:56 7.9 C 3.12 g/m*3 7.9 C 0 km/h
83 19-03-2007 16:27:01 7.5 C 3.12 g/m*3 7.5 C 0 km/h
84 19-03-2007 16:39:01 7 C 3.33 g/m*3 7 C 0 km/h
85 19-03-2007 16:51:01 6.5 C 3.9 g/m*3 6.5 C 0 km/h
86 19-03-2007 17:03:02 6.3 C 3.85 g/m*3 6.3 C 0 km/h
87 19-03-2007 17:15:02 6.5 C 3.9 g/m*3 6.5 C 0 km/h
88 19-03-2007 17:27:02 6.9 C 3.7 g/m*3 6.9 C 0 km/h
89 19-03-2007 17:39:01 7 C 3.64 g/m*3 7 C 0 km/h
90 19-03-2007 17:51:02 7.1 C 3.51 g/m*3 7.1 C 0 km/h
91 19-03-2007 18:03:03 6.9 C 3.46 g/m*3 6.9 C 0 km/h
92 19-03-2007 18:15:01 6.5 C 3.22 g/m*3 6.5 C 0 km/h
93 19-03-2007 18:27:01 6.1 C 3.43 g/m*3 6.1 C 0 km/h
94 19-03-2007 18:39:02 5.7 C 3.63 g/m*3 5.7 C 0 km/h
95 19-03-2007 18:51:02 5.3 C 3.6 g/m*3 5.3 C 0 km/h
96 19-03-2007 19:03:02 4.9 C 3.65 g/m*3 4.9 C 0 km/h
97 19-03-2007 19:15:02 4.5 C 3.62 g/m*3 4.5 C 0 km/h
98 19-03-2007 19:27:02 4.4 C 3.59 g/m*3 4.4 C 0 km/h
99 19-03-2007 19:39:02 4.4 C 3.72 g/m*3 4.4 C 0 km/h
100 19-03-2007 19:51:02 4.3 C 3.63 g/m*3 4.3 C 0 km/h
Sensor: Nr:Datum:Temp:Abs-Feuchte:Windchill:Wind:
Aussen-T/F 101 19-03-2007 20:03:03 4.3 C 3.44 g/m*3 4.3 C 0 km/h
102 19-03-2007 20:15:02 4.5 C 3.22 g/m*3 4.5 C 0 km/h
103 19-03-2007 20:27:02 4.4 C 3.4 g/m*3 4.4 C 0 km/h
104 19-03-2007 20:39:02 4.1 C 3.65 g/m*3 4.1 C 0 km/h
105 19-03-2007 20:51:02 3.8 C 3.83 g/m*3 3.8 C 0 km/h
106 19-03-2007 21:03:02 3.6 C 4.02 g/m*3 3.6 C 0 km/h
107 19-03-2007 21:15:03 3.4 C 4.15 g/m*3 3.4 C 0 km/h
108 19-03-2007 21:27:03 3.2 C 4.22 g/m*3 3.2 C 0 km/h
109 19-03-2007 21:39:02 3 C 4.22 g/m*3 3 C 0 km/h
110 19-03-2007 21:51:02 2.8 C 4.28 g/m*3 2.8 C 0 km/h
111 19-03-2007 22:03:02 2.6 C 4.28 g/m*3 2.6 C 0 km/h
112 19-03-2007 22:15:01 2.6 C 4.34 g/m*3 2.6 C 0 km/h
113 19-03-2007 22:27:01 2.6 C 4.34 g/m*3 2.6 C 0 km/h
114 19-03-2007 22:39:02 2.2 C 4.22 g/m*3 2.2 C 0 km/h
115 19-03-2007 22:51:02 2.1 C 4.31 g/m*3 2.1 C 0 km/h
116 19-03-2007 23:03:03 2.5 C 4.43 g/m*3 2.5 C 0 km/h
117 19-03-2007 23:15:02 2.4 C 4.34 g/m*3 2.4 C 0 km/h
118 19-03-2007 23:27:02 2.7 C 4.49 g/m*3 2.7 C 0 km/h
119 19-03-2007 23:39:02 2.6 C 4.4 g/m*3 2.6 C 0 km/h
120 19-03-2007 23:51:02 2.3 C 4.25 g/m*3 2.3 C 0 km/h
121 20-03-2007 00:03:02 2 C 4.28 g/m*3 2 C 0 km/h
122 20-03-2007 00:15:02 1.7 C 4.3 g/m*3 1.7 C 0 km/h
123 20-03-2007 00:27:03 1.5 C 4.24 g/m*3 1.5 C 0 km/h
124 20-03-2007 00:39:03 1.4 C 4.32 g/m*3 1.4 C 0 km/h
125 20-03-2007 00:51:03 1.3 C 4.34 g/m*3 1.3 C 0 km/h
Sensor: Nr:Datum:Temp:Abs-Feuchte:Windchill:Wind:
Aussen-T/F 126 20-03-2007 01:03:03 1.1 C 4.34 g/m*3 1.1 C 0 km/h
127 20-03-2007 01:15:03 1.2 C 4.42 g/m*3 1.2 C 0 km/h
128 20-03-2007 01:27:03 1.3 C 4.45 g/m*3 1.3 C 0 km/h
129 20-03-2007 01:39:03 1.5 C 4.51 g/m*3 1.5 C 0 km/h
130 20-03-2007 01:51:02 1.6 C 4.54 g/m*3 1.6 C 0 km/h
131 20-03-2007 02:03:02 1.4 C 4.48 g/m*3 1.4 C 0 km/h
132 20-03-2007 02:15:02 1.3 C 4.45 g/m*3 1.3 C 0 km/h
133 20-03-2007 02:27:02 1.2 C 4.47 g/m*3 1.2 C 0 km/h
134 20-03-2007 02:39:02 1 C 4.46 g/m*3 1 C 0 km/h
135 20-03-2007 02:51:01 1.1 C 4.49 g/m*3 1.1 C 0 km/h
136 20-03-2007 03:03:01 1 C 4.52 g/m*3 1 C 0 km/h
137 20-03-2007 03:15:02 1.3 C 4.61 g/m*3 1.3 C 0 km/h
138 20-03-2007 03:27:02 1.2 C 4.53 g/m*3 1.2 C 0 km/h
139 20-03-2007 03:39:02 1.5 C 4.57 g/m*3 1.5 C 0 km/h
140 20-03-2007 03:51:02 1.4 C 4.48 g/m*3 1.4 C 0 km/h
141 20-03-2007 04:03:01 1.4 C 4.43 g/m*3 1.4 C 0 km/h
142 20-03-2007 04:15:02 1.5 C 4.46 g/m*3 1.5 C 0 km/h
143 20-03-2007 04:27:02 1.6 C 4.43 g/m*3 1.6 C 0 km/h
144 20-03-2007 04:39:02 1.6 C 4.38 g/m*3 1.6 C 0 km/h
145 20-03-2007 04:51:01 1.6 C 4.38 g/m*3 1.6 C 0 km/h
146 20-03-2007 05:03:01 1.6 C 4.38 g/m*3 1.6 C 0 km/h
147 20-03-2007 05:15:02 1.6 C 4.33 g/m*3 1.6 C 0 km/h
148 20-03-2007 05:27:02 1.6 C 4.33 g/m*3 1.6 C 0 km/h
149 20-03-2007 05:39:02 1.6 C 4.33 g/m*3 1.6 C 0 km/h
150 20-03-2007 05:51:01 1.6 C 4.33 g/m*3 1.6 C 0 km/h
Sensor: Nr:Datum:Temp:Abs-Feuchte:Windchill:Wind:
Aussen-T/F 151 20-03-2007 06:03:01 1.6 C 4.27 g/m*3 1.6 C 0 km/h
152 20-03-2007 06:15:02 1.6 C 4.33 g/m*3 1.6 C 0 km/h
153 20-03-2007 06:27:02 1.6 C 4.33 g/m*3 1.6 C 0 km/h
154 20-03-2007 06:39:01 1.6 C 4.33 g/m*3 1.6 C 0 km/h
155 20-03-2007 06:51:02 1.7 C 4.36 g/m*3 1.7 C 0 km/h
156 20-03-2007 07:03:02 1.7 C 4.3 g/m*3 1.7 C 0 km/h
157 20-03-2007 07:15:01 1.6 C 4.33 g/m*3 1.6 C 0 km/h
158 20-03-2007 07:27:01 1.6 C 4.33 g/m*3 1.6 C 0 km/h
159 20-03-2007 07:39:02 1.7 C 4.36 g/m*3 1.7 C 0 km/h
160 20-03-2007 07:51:01 1.9 C 4.42 g/m*3 1.9 C 0 km/h
161 20-03-2007 08:03:02 2 C 4.28 g/m*3 2 C 0 km/h
162 20-03-2007 08:15:02 2.1 C 4.31 g/m*3 2.1 C 0 km/h
163 20-03-2007 08:27:02 2.6 C 4.46 g/m*3 2.6 C 0 km/h
164 20-03-2007 08:39:01 3 C 4.46 g/m*3 3 C 0 km/h
165 20-03-2007 08:51:02 3.1 C 4.31 g/m*3 3.1 C 0 km/h
166 20-03-2007 09:03:01 3.3 C 4.31 g/m*3 3.3 C 0 km/h
167 20-03-2007 09:15:01 3.3 C 4.31 g/m*3 3.3 C 0 km/h
168 20-03-2007 09:27:01 3.5 C 4.37 g/m*3 3.5 C 0 km/h
169 20-03-2007 09:39:02 4 C 4.26 g/m*3 4 C 0 km/h
170 20-03-2007 09:51:01 3.5 C 4.24 g/m*3 3.5 C 0 km/h
171 20-03-2007 10:03:02 3.3 C 4.25 g/m*3 3.3 C 0 km/h
172 20-03-2007 10:15:01 3.3 C 4.37 g/m*3 3.3 C 0 km/h
173 20-03-2007 10:27:01 3.4 C 4.4 g/m*3 3.4 C 0 km/h
174 20-03-2007 10:39:01 3.5 C 4.37 g/m*3 3.5 C 0 km/h
175 20-03-2007 10:51:01 3.8 C 4.45 g/m*3 3.8 C 0 km/h
Sensor: Nr:Datum:Temp:Abs-Feuchte:Windchill:Wind:
Aussen-T/F 176 20-03-2007 11:03:01 4 C 4.45 g/m*3 4 C 0 km/h
177 20-03-2007 11:15:02 3.9 C 4.42 g/m*3 3.9 C 0 km/h
178 20-03-2007 11:27:02 4 C 4.45 g/m*3 4 C 0 km/h
179 20-03-2007 11:39:01 4.1 C 4.42 g/m*3 4.1 C 0 km/h
180 20-03-2007 11:51:02 4.2 C 4.45 g/m*3 4.2 C 0 km/h
181 20-03-2007 12:03:01 4.5 C 4.47 g/m*3 4.5 C 0 km/h
182 20-03-2007 12:15:01 5.3 C 4.51 g/m*3 5.3 C 0 km/h
183 20-03-2007 12:27:01 5.6 C 4.31 g/m*3 5.6 C 0 km/h
184 20-03-2007 12:39:02 6.3 C 4.37 g/m*3 6.3 C 0 km/h
185 20-03-2007 12:51:01 6.4 C 4.32 g/m*3 6.4 C 0 km/h
186 20-03-2007 13:03:02 7.1 C 4.13 g/m*3 7.1 C 0 km/h
187 20-03-2007 13:15:01 7.6 C 3.95 g/m*3 7.6 C 0 km/h
188 20-03-2007 13:27:02 7.1 C 3.82 g/m*3 7.1 C 0 km/h
189 20-03-2007 13:39:01 6.5 C 3.82 g/m*3 6.5 C 0 km/h
190 20-03-2007 13:51:02 7.3 C 3.95 g/m*3 7.3 C 0 km/h
191 20-03-2007 14:03:01 8.2 C 3.85 g/m*3 8.2 C 0 km/h
192 20-03-2007 14:15:02 8.6 C 3.61 g/m*3 8.6 C 0 km/h
193 20-03-2007 14:27:02 9.7 C 3.69 g/m*3 9.7 C 0 km/h
194 20-03-2007 14:39:02 10.4 C 3.66 g/m*3 10.4 C 0 km/h
195 20-03-2007 14:51:01 10.3 C 3.16 g/m*3 10.3 C 0 km/h
196 20-03-2007 15:03:02 10.8 C 3.46 g/m*3 10.8 C 0 km/h
197 20-03-2007 15:15:01 10.1 C 3.22 g/m*3 10.1 C 0 km/h
198 20-03-2007 15:27:01 10.3 C 3.26 g/m*3 10.3 C 0 km/h
199 20-03-2007 15:39:01 11.1 C 3.12 g/m*3 11.1 C 0 km/h
200 20-03-2007 15:51:01 8.9 C 3.15 g/m*3 8.9 C 0 km/h
Sensor: Nr:Datum:Temp:Abs-Feuchte:Windchill:Wind:
Aussen-T/F 201 20-03-2007 16:03:01 8.9 C 3.5 g/m*3 8.9 C 0 km/h
202 20-03-2007 16:15:02 9.1 C 3.73 g/m*3 9.1 C 0 km/h
203 20-03-2007 16:27:02 8.7 C 3.63 g/m*3 8.7 C 0 km/h
204 20-03-2007 16:39:01 8.6 C 3.69 g/m*3 8.6 C 0 km/h
205 20-03-2007 16:51:02 9 C 3.79 g/m*3 9 C 0 km/h
206 20-03-2007 17:03:01 9.1 C 3.73 g/m*3 9.1 C 0 km/h
207 20-03-2007 17:15:01 9.2 C 3.66 g/m*3 9.2 C 0 km/h
208 20-03-2007 17:27:01 6.7 C 4.1 g/m*3 6.7 C 0 km/h
209 20-03-2007 17:39:02 6.2 C 4.41 g/m*3 6.2 C 0 km/h
210 20-03-2007 17:51:02 5.4 C 4.4 g/m*3 5.4 C 0 km/h
211 20-03-2007 18:03:02 5 C 4.55 g/m*3 5 C 0 km/h
212 20-03-2007 18:15:02 4.9 C 4.59 g/m*3 4.9 C 0 km/h
213 20-03-2007 18:27:02 4.8 C 4.63 g/m*3 4.8 C 0 km/h
214 20-03-2007 18:39:01 4.9 C 4.66 g/m*3 4.9 C 0 km/h
215 20-03-2007 18:51:02 4.6 C 4.57 g/m*3 4.6 C 0 km/h
216 20-03-2007 19:03:01 4.3 C 4.54 g/m*3 4.3 C 0 km/h
217 20-03-2007 19:15:01 4.1 C 4.61 g/m*3 4.1 C 0 km/h
218 20-03-2007 19:27:01 4 C 4.64 g/m*3 4 C 0 km/h
219 20-03-2007 19:39:02 4.2 C 4.7 g/m*3 4.2 C 0 km/h
220 20-03-2007 19:51:01 4.1 C 4.67 g/m*3 4.1 C 0 km/h
221 20-03-2007 20:03:02 4.1 C 4.67 g/m*3 4.1 C 0 km/h
222 20-03-2007 20:15:02 4.3 C 4.8 g/m*3 4.3 C 0 km/h
223 20-03-2007 20:27:02 4.6 C 4.9 g/m*3 4.6 C 0 km/h
224 20-03-2007 20:39:01 4.3 C 4.86 g/m*3 4.3 C 0 km/h
225 20-03-2007 20:51:02 4 C 4.83 g/m*3 4 C 0 km/h
Sensor: Nr:Datum:Temp:Abs-Feuchte:Windchill:Wind:
Aussen-T/F 226 20-03-2007 21:03:01 3.9 C 4.86 g/m*3 3.9 C 0 km/h
227 20-03-2007 21:15:01 4.2 C 4.9 g/m*3 4.2 C 0 km/h
228 20-03-2007 21:27:01 4.3 C 4.86 g/m*3 4.3 C 0 km/h
229 20-03-2007 21:39:02 4.2 C 4.9 g/m*3 4.2 C 0 km/h
230 20-03-2007 21:51:01 4 C 4.9 g/m*3 4 C 0 km/h
231 20-03-2007 22:03:02 3.9 C 4.93 g/m*3 3.9 C 0 km/h
232 20-03-2007 22:15:01 3.9 C 4.99 g/m*3 3.9 C 0 km/h
233 20-03-2007 22:27:01 4 C 5.02 g/m*3 4 C 0 km/h
234 20-03-2007 22:39:01 4.1 C 5.06 g/m*3 4.1 C 0 km/h
235 20-03-2007 22:51:01 4.1 C 5.06 g/m*3 4.1 C 0 km/h
236 20-03-2007 23:03:01 4.1 C 4.99 g/m*3 4.1 C 0 km/h
237 20-03-2007 23:15:02 3.9 C 4.99 g/m*3 3.9 C 0 km/h
238 20-03-2007 23:27:02 3.6 C 4.89 g/m*3 3.6 C 0 km/h
239 20-03-2007 23:39:01 3.6 C 4.89 g/m*3 3.6 C 0 km/h
240 20-03-2007 23:51:02 3.7 C 4.92 g/m*3 3.7 C 0 km/h
241 21-03-2007 00:03:01 3.6 C 4.83 g/m*3 3.6 C 0 km/h
242 21-03-2007 00:15:02 3.5 C 4.8 g/m*3 3.5 C 0 km/h
243 21-03-2007 00:27:02 3.6 C 4.83 g/m*3 3.6 C 0 km/h
244 21-03-2007 00:39:02 3.8 C 4.77 g/m*3 3.8 C 0 km/h
245 21-03-2007 00:51:02 3.6 C 4.7 g/m*3 3.6 C 0 km/h
246 21-03-2007 01:03:02 3.5 C 4.67 g/m*3 3.5 C 0 km/h
247 21-03-2007 01:15:02 3.4 C 4.7 g/m*3 3.4 C 0 km/h
248 21-03-2007 01:27:02 3.3 C 4.67 g/m*3 3.3 C 0 km/h
249 21-03-2007 01:39:02 3.3 C 4.67 g/m*3 3.3 C 0 km/h
250 21-03-2007 01:51:01 3.3 C 4.73 g/m*3 3.3 C 0 km/h
Sensor: Nr:Datum:Temp:Abs-Feuchte:Windchill:Wind:
Aussen-T/F 251 21-03-2007 02:03:01 3.4 C 4.76 g/m*3 3.4 C 0 km/h
252 21-03-2007 02:15:02 3.4 C 4.76 g/m*3 3.4 C 0 km/h
253 21-03-2007 02:27:02 3.6 C 4.83 g/m*3 3.6 C 0 km/h
254 21-03-2007 02:39:02 3.8 C 4.83 g/m*3 3.8 C 0 km/h
255 21-03-2007 02:51:01 3.9 C 4.86 g/m*3 3.9 C 0 km/h
256 21-03-2007 03:03:01 3.8 C 4.83 g/m*3 3.8 C 0 km/h
257 21-03-2007 03:15:02 3.8 C 4.89 g/m*3 3.8 C 0 km/h
258 21-03-2007 03:27:02 3.8 C 4.89 g/m*3 3.8 C 0 km/h
259 21-03-2007 03:39:01 3.7 C 4.86 g/m*3 3.7 C 0 km/h
260 21-03-2007 03:51:01 3.7 C 4.86 g/m*3 3.7 C 0 km/h
261 21-03-2007 04:03:01 3.6 C 4.77 g/m*3 3.6 C 0 km/h
262 21-03-2007 04:15:02 3.5 C 4.73 g/m*3 3.5 C 0 km/h
263 21-03-2007 04:27:02 3.5 C 4.73 g/m*3 3.5 C 0 km/h
264 21-03-2007 04:39:02 3.5 C 4.8 g/m*3 3.5 C 0 km/h
265 21-03-2007 04:51:01 3.4 C 4.76 g/m*3 3.4 C 0 km/h
266 21-03-2007 05:03:02 3.4 C 4.76 g/m*3 3.4 C 0 km/h
267 21-03-2007 05:15:02 3.3 C 4.73 g/m*3 3.3 C 0 km/h
268 21-03-2007 05:27:02 3.4 C 4.76 g/m*3 3.4 C 0 km/h
269 21-03-2007 05:39:02 3.3 C 4.73 g/m*3 3.3 C 0 km/h
270 21-03-2007 05:51:01 3.3 C 4.73 g/m*3 3.3 C 0 km/h
271 21-03-2007 06:03:01 3.3 C 4.73 g/m*3 3.3 C 0 km/h
272 21-03-2007 06:15:02 3.1 C 4.73 g/m*3 3.1 C 0 km/h
273 21-03-2007 06:27:02 3 C 4.76 g/m*3 3 C 0 km/h
274 21-03-2007 06:39:01 3.1 C 4.79 g/m*3 3.1 C 0 km/h
275 21-03-2007 06:51:02 3.1 C 4.79 g/m*3 3.1 C 0 km/h
Sensor: Nr:Datum:Temp:Abs-Feuchte:Windchill:Wind:
Aussen-T/F 276 21-03-2007 07:03:01 3.1 C 4.73 g/m*3 3.1 C 0 km/h
277 21-03-2007 07:15:01 3.2 C 4.7 g/m*3 3.2 C 0 km/h
278 21-03-2007 07:27:01 3.3 C 4.73 g/m*3 3.3 C 0 km/h
279 21-03-2007 07:39:02 3.2 C 4.58 g/m*3 3.2 C 0 km/h
280 21-03-2007 07:51:01 3.3 C 4.61 g/m*3 3.3 C 0 km/h
281 21-03-2007 08:03:02 3.3 C 4.55 g/m*3 3.3 C 0 km/h
282 21-03-2007 08:15:02 2.7 C 4.6 g/m*3 2.7 C 0 km/h
283 21-03-2007 08:27:02 2.5 C 4.77 g/m*3 2.5 C 0 km/h
284 21-03-2007 08:39:01 2.7 C 4.95 g/m*3 2.7 C 0 km/h
285 21-03-2007 08:51:02 2.9 C 5.02 g/m*3 2.9 C 0 km/h
286 21-03-2007 09:03:01 2.9 C 5.02 g/m*3 2.9 C 0 km/h
287 21-03-2007 09:15:02 3.1 C 4.91 g/m*3 3.1 C 0 km/h
288 21-03-2007 09:27:02 3.4 C 4.95 g/m*3 3.4 C 0 km/h
289 21-03-2007 09:39:02 3.8 C 4.71 g/m*3 3.8 C 0 km/h
290 21-03-2007 09:51:01 3.9 C 4.55 g/m*3 3.9 C 0 km/h
291 21-03-2007 10:03:02 4.3 C 4.41 g/m*3 4.3 C 0 km/h
292 21-03-2007 10:15:01 4.4 C 4.18 g/m*3 4.4 C 0 km/h
293 21-03-2007 10:27:01 5 C 4.14 g/m*3 5 C 0 km/h
294 21-03-2007 10:39:01 4.8 C 3.96 g/m*3 4.8 C 0 km/h
295 21-03-2007 10:51:01 4.2 C 4.06 g/m*3 4.2 C 0 km/h
296 21-03-2007 11:03:01 3.8 C 4.2 g/m*3 3.8 C 0 km/h
297 21-03-2007 11:15:02 4 C 4.07 g/m*3 4 C 0 km/h
298 21-03-2007 11:27:02 4 C 4.2 g/m*3 4 C 0 km/h
299 21-03-2007 11:39:01 4.5 C 4.54 g/m*3 4.5 C 0 km/h
300 21-03-2007 11:51:02 5.6 C 4.6 g/m*3 5.6 C 0 km/h
Sensor: Nr:Datum:Temp:Abs-Feuchte:Windchill:Wind:
Aussen-T/F 301 21-03-2007 12:03:01 5.7 C 4.2 g/m*3 5.7 C 0 km/h
302 21-03-2007 12:15:01 6.4 C 3.87 g/m*3 6.4 C 0 km/h
303 21-03-2007 12:27:01 7.2 C 3.61 g/m*3 7.2 C 0 km/h
304 21-03-2007 12:39:02 4.1 C 4.42 g/m*3 4.1 C 0 km/h
305 21-03-2007 12:51:01 4.7 C 4.8 g/m*3 4.7 C 0 km/h
306 21-03-2007 13:03:02 6.4 C 4.84 g/m*3 6.4 C 0 km/h
307 21-03-2007 13:15:01 8.3 C 4.38 g/m*3 8.3 C 0 km/h
308 21-03-2007 13:27:01 8.2 C 3.77 g/m*3 8.2 C 0 km/h
309 21-03-2007 13:39:01 8 C 3.72 g/m*3 8 C 0 km/h
310 21-03-2007 13:51:01 7.1 C 3.43 g/m*3 7.1 C 0 km/h
311 21-03-2007 14:03:01 7.1 C 3.51 g/m*3 7.1 C 0 km/h
312 21-03-2007 14:15:02 7.4 C 3.58 g/m*3 7.4 C 0 km/h
313 21-03-2007 14:27:02 7.8 C 3.59 g/m*3 7.8 C 0 km/h
314 21-03-2007 14:39:01 7.9 C 3.53 g/m*3 7.9 C 0 km/h
315 21-03-2007 14:51:02 7.7 C 2.92 g/m*3 7.7 C 0 km/h
316 21-03-2007 15:03:01 7.7 C 2.84 g/m*3 7.7 C 0 km/h
317 21-03-2007 15:15:01 8 C 2.89 g/m*3 8 C 0 km/h
318 21-03-2007 15:27:01 8.1 C 2.91 g/m*3 8.1 C 0 km/h
319 21-03-2007 15:39:02 7.3 C 2.84 g/m*3 7.3 C 0 km/h
320 21-03-2007 15:51:01 7.4 C 3.1 g/m*3 7.4 C 0 km/h
321 21-03-2007 16:03:02 7.1 C 3.04 g/m*3 7.1 C 0 km/h
322 21-03-2007 16:15:01 7.2 C 3.22 g/m*3 7.2 C 0 km/h
323 21-03-2007 16:27:02 7.4 C 3.18 g/m*3 7.4 C 0 km/h
324 21-03-2007 16:39:01 7.5 C 3.2 g/m*3 7.5 C 0 km/h
325 21-03-2007 16:51:01 7.3 C 3.32 g/m*3 7.3 C 0 km/h
Sensor: Nr:Datum:Temp:Abs-Feuchte:Windchill:Wind:
Aussen-T/F 326 21-03-2007 17:03:01 7.2 C 3.3 g/m*3 7.2 C 0 km/h
327 21-03-2007 17:15:02 7.7 C 3.32 g/m*3 7.7 C 0 km/h
328 21-03-2007 17:27:02 7.7 C 3.32 g/m*3 7.7 C 0 km/h
329 21-03-2007 17:39:01 7 C 3.18 g/m*3 7 C 0 km/h
330 21-03-2007 17:51:02 6.8 C 3.37 g/m*3 6.8 C 0 km/h
331 21-03-2007 18:03:01 6.6 C 3.47 g/m*3 6.6 C 0 km/h
332 21-03-2007 18:15:01 6.4 C 3.5 g/m*3 6.4 C 0 km/h
333 21-03-2007 18:27:01 5.7 C 3.91 g/m*3 5.7 C 0 km/h
334 21-03-2007 18:39:02 4.5 C 4.67 g/m*3 4.5 C 0 km/h
335 21-03-2007 18:51:01 4.2 C 4.96 g/m*3 4.2 C 0 km/h
336 21-03-2007 19:03:02 4.1 C 5.12 g/m*3 4.1 C 0 km/h
337 21-03-2007 19:15:02 4 C 5.15 g/m*3 4 C 0 km/h
338 21-03-2007 19:27:02 3.9 C 5.12 g/m*3 3.9 C 0 km/h
339 21-03-2007 19:39:02 3.7 C 5.11 g/m*3 3.7 C 0 km/h
340 21-03-2007 19:51:01 3.5 C 5.16 g/m*3 3.5 C 0 km/h
341 21-03-2007 20:03:02 3.5 C 5.23 g/m*3 3.5 C 0 km/h
342 21-03-2007 20:15:01 3.4 C 5.25 g/m*3 3.4 C 0 km/h
343 21-03-2007 20:27:01 3.4 C 5.31 g/m*3 3.4 C 0 km/h
344 21-03-2007 20:39:01 3.4 C 5.31 g/m*3 3.4 C 0 km/h
345 21-03-2007 20:51:02 3.4 C 5.25 g/m*3 3.4 C 0 km/h
346 21-03-2007 21:03:01 3.4 C 5.25 g/m*3 3.4 C 0 km/h
347 21-03-2007 21:15:01 3.3 C 5.16 g/m*3 3.3 C 0 km/h
348 21-03-2007 21:27:01 3.2 C 5.06 g/m*3 3.2 C 0 km/h
349 21-03-2007 21:39:02 3.1 C 5.03 g/m*3 3.1 C 0 km/h
350 21-03-2007 21:51:02 3.2 C 5 g/m*3 3.2 C 0 km/h
Sensor: Nr:Datum:Temp:Abs-Feuchte:Windchill:Wind:
Aussen-T/F 351 21-03-2007 22:03:02 3.1 C 4.91 g/m*3 3.1 C 0 km/h
352 21-03-2007 22:15:01 3.1 C 4.91 g/m*3 3.1 C 0 km/h
353 21-03-2007 22:27:01 2.8 C 4.81 g/m*3 2.8 C 0 km/h
354 21-03-2007 22:39:01 2.8 C 4.75 g/m*3 2.8 C 0 km/h
355 21-03-2007 22:51:01 2.8 C 4.75 g/m*3 2.8 C 0 km/h
356 21-03-2007 23:03:02 2.6 C 4.75 g/m*3 2.6 C 0 km/h
357 21-03-2007 23:15:02 2.6 C 4.75 g/m*3 2.6 C 0 km/h
358 21-03-2007 23:27:02 2.7 C 4.78 g/m*3 2.7 C 0 km/h
359 21-03-2007 23:39:01 2.8 C 4.75 g/m*3 2.8 C 0 km/h
360 21-03-2007 23:51:02 2.8 C 4.75 g/m*3 2.8 C 0 km/h
361 22-03-2007 00:03:01 2.6 C 4.69 g/m*3 2.6 C 0 km/h
362 22-03-2007 00:15:02 2.7 C 4.78 g/m*3 2.7 C 0 km/h
363 22-03-2007 00:27:02 2.8 C 4.75 g/m*3 2.8 C 0 km/h
364 22-03-2007 00:39:02 2.8 C 4.63 g/m*3 2.8 C 0 km/h
365 22-03-2007 00:51:02 2.9 C 4.67 g/m*3 2.9 C 0 km/h
366 22-03-2007 01:03:02 2.8 C 4.63 g/m*3 2.8 C 0 km/h
367 22-03-2007 01:15:01 2.8 C 4.58 g/m*3 2.8 C 0 km/h
368 22-03-2007 01:27:02 2.8 C 4.52 g/m*3 2.8 C 0 km/h
369 22-03-2007 01:39:01 2.9 C 4.49 g/m*3 2.9 C 0 km/h
370 22-03-2007 01:51:02 2.8 C 4.4 g/m*3 2.8 C 0 km/h
371 22-03-2007 02:03:02 2.8 C 4.4 g/m*3 2.8 C 0 km/h
372 22-03-2007 02:15:02 2.7 C 4.49 g/m*3 2.7 C 0 km/h
373 22-03-2007 02:27:02 2.6 C 4.57 g/m*3 2.6 C 0 km/h
374 22-03-2007 02:39:02 2.6 C 4.63 g/m*3 2.6 C 0 km/h
375 22-03-2007 02:52:07 2.3 C 4.76 g/m*3 2.3 C 0 km/h
Sensor: Nr:Datum:Temp:Abs-Feuchte:Windchill:Wind:
Aussen-T/F 376 22-03-2007 03:04:07 2.1 C 4.81 g/m*3 2.1 C 0 km/h
377 22-03-2007 03:16:07 2 C 4.89 g/m*3 2 C 0 km/h
378 22-03-2007 03:28:07 1.9 C 4.91 g/m*3 1.9 C 0 km/h
379 22-03-2007 03:40:02 1.8 C 4.93 g/m*3 1.8 C 0 km/h
380 22-03-2007 03:52:02 1.4 C 4.85 g/m*3 1.4 C 0 km/h
381 22-03-2007 04:04:02 1.2 C 4.79 g/m*3 1.2 C 0 km/h
382 22-03-2007 04:16:02 1 C 4.78 g/m*3 1 C 0 km/h
383 22-03-2007 04:28:02 0.9 C 4.79 g/m*3 0.9 C 0 km/h
384 22-03-2007 04:40:02 1 C 4.83 g/m*3 1 C 0 km/h
385 22-03-2007 04:52:02 1 C 4.88 g/m*3 1 C 0 km/h
386 22-03-2007 05:04:01 1 C 4.88 g/m*3 1 C 0 km/h
387 22-03-2007 05:16:02 1.1 C 4.91 g/m*3 1.1 C 0 km/h
388 22-03-2007 05:28:02 1 C 4.88 g/m*3 1 C 0 km/h
389 22-03-2007 05:40:02 0.8 C 4.86 g/m*3 0.8 C 0 km/h
390 22-03-2007 05:52:02 0.7 C 4.83 g/m*3 0.7 C 0 km/h
391 22-03-2007 06:04:02 0.6 C 4.8 g/m*3 0.6 C 0 km/h
392 22-03-2007 06:16:02 0.6 C 4.8 g/m*3 0.6 C 0 km/h
393 22-03-2007 06:28:02 0.6 C 4.8 g/m*3 0.6 C 0 km/h
394 22-03-2007 06:40:02 0.6 C 4.8 g/m*3 0.6 C 0 km/h
395 22-03-2007 06:52:02 0.5 C 4.76 g/m*3 0.5 C 0 km/h
396 22-03-2007 07:04:01 0.6 C 4.8 g/m*3 0.6 C 0 km/h
397 22-03-2007 07:16:01 0.5 C 4.76 g/m*3 0.5 C 0 km/h
398 22-03-2007 07:28:01 0.6 C 4.8 g/m*3 0.6 C 0 km/h
399 22-03-2007 07:40:02 0.8 C 4.86 g/m*3 0.8 C 0 km/h
400 22-03-2007 07:52:02 1 C 4.93 g/m*3 1 C 0 km/h
Sensor: Nr:Datum:Temp:Abs-Feuchte:Windchill:Wind:
Aussen-T/F 401 22-03-2007 08:04:03 1.1 C 4.96 g/m*3 1.1 C 0 km/h
402 22-03-2007 08:16:02 1.3 C 5.03 g/m*3 1.3 C 0 km/h
403 22-03-2007 08:28:03 1.3 C 5.03 g/m*3 1.3 C 0 km/h
404 22-03-2007 08:40:02 1.4 C 5.07 g/m*3 1.4 C 0 km/h
405 22-03-2007 08:52:02 1.5 C 5.1 g/m*3 1.5 C 0 km/h
406 22-03-2007 09:04:02 1.5 C 5.1 g/m*3 1.5 C 0 km/h
407 22-03-2007 09:16:03 1.5 C 5.1 g/m*3 1.5 C 0 km/h
408 22-03-2007 09:28:03 1.6 C 5.14 g/m*3 1.6 C 0 km/h
409 22-03-2007 09:40:02 1.6 C 5.14 g/m*3 1.6 C 0 km/h
410 22-03-2007 09:52:02 1.7 C 5.17 g/m*3 1.7 C 0 km/h
411 22-03-2007 10:04:02 1.7 C 5.17 g/m*3 1.7 C 0 km/h
412 22-03-2007 10:16:02 1.9 C 5.24 g/m*3 1.9 C 0 km/h
413 22-03-2007 10:28:02 1.9 C 5.24 g/m*3 1.9 C 0 km/h
414 22-03-2007 10:40:01 2 C 5.22 g/m*3 2 C 0 km/h
415 22-03-2007 10:52:02 2 C 5.22 g/m*3 2 C 0 km/h
416 22-03-2007 11:04:02 2 C 5.22 g/m*3 2 C 0 km/h
417 22-03-2007 11:16:02 2.1 C 5.26 g/m*3 2.1 C 0 km/h
418 22-03-2007 11:28:02 2.2 C 5.29 g/m*3 2.2 C 0 km/h
419 22-03-2007 11:40:01 2 C 5.17 g/m*3 2 C 0 km/h
420 22-03-2007 11:52:02 1.7 C 5.06 g/m*3 1.7 C 0 km/h
421 22-03-2007 12:04:02 2 C 5.17 g/m*3 2 C 0 km/h
422 22-03-2007 12:16:01 1.8 C 5.15 g/m*3 1.8 C 0 km/h
423 22-03-2007 12:28:01 1.9 C 5.19 g/m*3 1.9 C 0 km/h
424 22-03-2007 12:40:02 1.8 C 5.15 g/m*3 1.8 C 0 km/h
425 22-03-2007 12:52:01 1.9 C 5.19 g/m*3 1.9 C 0 km/h
Sensor: Nr:Datum:Temp:Abs-Feuchte:Windchill:Wind:
Aussen-T/F 426 22-03-2007 13:04:02 2 C 5.22 g/m*3 2 C 0 km/h
427 22-03-2007 13:16:01 2 C 5.22 g/m*3 2 C 0 km/h
428 22-03-2007 13:28:01 2.1 C 5.26 g/m*3 2.1 C 0 km/h
429 22-03-2007 13:40:01 2 C 5.17 g/m*3 2 C 0 km/h
430 22-03-2007 13:52:01 2 C 5.17 g/m*3 2 C 0 km/h
431 22-03-2007 14:04:01 2.1 C 5.2 g/m*3 2.1 C 0 km/h
432 22-03-2007 14:16:02 2 C 5.17 g/m*3 2 C 0 km/h
433 22-03-2007 14:28:02 2 C 5.17 g/m*3 2 C 0 km/h
434 22-03-2007 14:40:01 2.1 C 5.2 g/m*3 2.1 C 0 km/h
435 22-03-2007 14:52:02 2 C 5.17 g/m*3 2 C 0 km/h
436 22-03-2007 15:04:02 2 C 5.17 g/m*3 2 C 0 km/h
437 22-03-2007 15:16:02 2 C 5.17 g/m*3 2 C 0 km/h
438 22-03-2007 15:28:02 2 C 5.22 g/m*3 2 C 0 km/h
439 22-03-2007 15:40:02 2.1 C 5.26 g/m*3 2.1 C 0 km/h
440 22-03-2007 15:52:01 2.1 C 5.26 g/m*3 2.1 C 0 km/h
441 22-03-2007 16:04:02 2.3 C 5.33 g/m*3 2.3 C 0 km/h
442 22-03-2007 16:16:02 2.4 C 5.42 g/m*3 2.4 C 0 km/h
443 22-03-2007 16:28:02 2.7 C 5.54 g/m*3 2.7 C 0 km/h
444 22-03-2007 16:40:01 2.7 C 5.54 g/m*3 2.7 C 0 km/h
445 22-03-2007 16:52:02 2.7 C 5.54 g/m*3 2.7 C 0 km/h
446 22-03-2007 17:04:02 2.8 C 5.57 g/m*3 2.8 C 0 km/h
447 22-03-2007 17:16:02 2.9 C 5.61 g/m*3 2.9 C 0 km/h
448 22-03-2007 17:28:02 2.9 C 5.61 g/m*3 2.9 C 0 km/h
449 22-03-2007 17:40:02 3 C 5.65 g/m*3 3 C 0 km/h
450 22-03-2007 17:52:01 3.1 C 5.69 g/m*3 3.1 C 0 km/h
Sensor: Nr:Datum:Temp:Abs-Feuchte:Windchill:Wind:
Aussen-T/F 451 22-03-2007 18:04:02 3.3 C 5.76 g/m*3 3.3 C 0 km/h
452 22-03-2007 18:16:02 3.4 C 5.8 g/m*3 3.4 C 0 km/h
453 22-03-2007 18:28:02 3.5 C 5.84 g/m*3 3.5 C 0 km/h
454 22-03-2007 18:40:01 3.5 C 5.84 g/m*3 3.5 C 0 km/h
455 22-03-2007 18:52:02 3.5 C 5.84 g/m*3 3.5 C 0 km/h
456 22-03-2007 19:04:02 3.5 C 5.84 g/m*3 3.5 C 0 km/h
457 22-03-2007 19:16:02 3.4 C 5.8 g/m*3 3.4 C 0 km/h
458 22-03-2007 19:28:02 3.4 C 5.8 g/m*3 3.4 C 0 km/h
459 22-03-2007 19:40:02 3.3 C 5.7 g/m*3 3.3 C 0 km/h
460 22-03-2007 19:52:01 3.4 C 5.74 g/m*3 3.4 C 0 km/h
461 22-03-2007 20:04:02 3.4 C 5.74 g/m*3 3.4 C 0 km/h
462 22-03-2007 20:16:02 3.4 C 5.68 g/m*3 3.4 C 0 km/h
463 22-03-2007 20:28:02 3.3 C 5.64 g/m*3 3.3 C 0 km/h
464 22-03-2007 20:40:01 3.3 C 5.64 g/m*3 3.3 C 0 km/h
465 22-03-2007 20:52:02 3.3 C 5.64 g/m*3 3.3 C 0 km/h
466 22-03-2007 21:04:01 3.3 C 5.64 g/m*3 3.3 C 0 km/h
467 22-03-2007 21:16:02 3.3 C 5.64 g/m*3 3.3 C 0 km/h
468 22-03-2007 21:28:02 3.4 C 5.68 g/m*3 3.4 C 0 km/h
469 22-03-2007 21:40:02 3.4 C 5.74 g/m*3 3.4 C 0 km/h
470 22-03-2007 21:52:02 3.4 C 5.68 g/m*3 3.4 C 0 km/h
471 22-03-2007 22:04:02 3.5 C 5.66 g/m*3 3.5 C 0 km/h
472 22-03-2007 22:16:02 3.6 C 5.63 g/m*3 3.6 C 0 km/h
473 22-03-2007 22:28:02 3.6 C 5.51 g/m*3 3.6 C 0 km/h
474 22-03-2007 22:40:03 3.5 C 5.41 g/m*3 3.5 C 0 km/h
475 22-03-2007 22:52:02 3.6 C 5.32 g/m*3 3.6 C 0 km/h
Sensor: Nr:Datum:Temp:Abs-Feuchte:Windchill:Wind:
Aussen-T/F 476 22-03-2007 23:04:02 3.6 C 5.32 g/m*3 3.6 C 0 km/h
477 22-03-2007 23:16:02 3.4 C 5.25 g/m*3 3.4 C 0 km/h
478 22-03-2007 23:28:03 3.5 C 5.23 g/m*3 3.5 C 0 km/h
479 22-03-2007 23:40:02 3.6 C 5.2 g/m*3 3.6 C 0 km/h
480 22-03-2007 23:52:02 3.6 C 5.2 g/m*3 3.6 C 0 km/h
481 23-03-2007 00:04:02 3.3 C 5.16 g/m*3 3.3 C 0 km/h
482 23-03-2007 00:16:02 3.2 C 5.12 g/m*3 3.2 C 0 km/h
483 23-03-2007 00:28:03 3.1 C 5.15 g/m*3 3.1 C 0 km/h
484 23-03-2007 00:40:03 3 C 5.17 g/m*3 3 C 0 km/h
485 23-03-2007 00:52:02 3 C 5.23 g/m*3 3 C 0 km/h
486 23-03-2007 01:04:02 2.8 C 5.22 g/m*3 2.8 C 0 km/h
487 23-03-2007 01:16:02 2.7 C 5.24 g/m*3 2.7 C 0 km/h
488 23-03-2007 01:28:02 2.6 C 5.21 g/m*3 2.6 C 0 km/h
489 23-03-2007 01:40:02 2.5 C 5.17 g/m*3 2.5 C 0 km/h
490 23-03-2007 01:52:02 2.5 C 5.23 g/m*3 2.5 C 0 km/h
491 23-03-2007 02:04:02 2.5 C 5.23 g/m*3 2.5 C 0 km/h
492 23-03-2007 02:16:03 2.5 C 5.23 g/m*3 2.5 C 0 km/h
493 23-03-2007 02:28:03 2.5 C 5.29 g/m*3 2.5 C 0 km/h
494 23-03-2007 02:40:03 2.3 C 5.16 g/m*3 2.3 C 0 km/h
495 23-03-2007 02:52:02 2.3 C 5.22 g/m*3 2.3 C 0 km/h
496 23-03-2007 03:04:02 2.3 C 5.16 g/m*3 2.3 C 0 km/h
497 23-03-2007 03:16:01 2.2 C 5.13 g/m*3 2.2 C 0 km/h
498 23-03-2007 03:28:01 2.2 C 5.13 g/m*3 2.2 C 0 km/h
499 23-03-2007 03:40:01 2.2 C 5.18 g/m*3 2.2 C 0 km/h
500 23-03-2007 03:52:01 2.2 C 5.18 g/m*3 2.2 C 0 km/h
Sensor: Nr:Datum:Temp:Abs-Feuchte:Windchill:Wind:
Aussen-T/F 501 23-03-2007 04:04:02 2.2 C 5.24 g/m*3 2.2 C 0 km/h
502 23-03-2007 04:16:02 2.3 C 5.27 g/m*3 2.3 C 0 km/h
503 23-03-2007 04:28:02 2.3 C 5.27 g/m*3 2.3 C 0 km/h
504 23-03-2007 04:40:02 2.3 C 5.27 g/m*3 2.3 C 0 km/h
505 23-03-2007 04:52:02 2.4 C 5.37 g/m*3 2.4 C 0 km/h
506 23-03-2007 05:04:02 2.5 C 5.4 g/m*3 2.5 C 0 km/h
507 23-03-2007 05:16:02 2.5 C 5.4 g/m*3 2.5 C 0 km/h
508 23-03-2007 05:28:02 2.5 C 5.46 g/m*3 2.5 C 0 km/h
509 23-03-2007 05:40:02 2.6 C 5.5 g/m*3 2.6 C 0 km/h
510 23-03-2007 05:52:01 2.7 C 5.54 g/m*3 2.7 C 0 km/h
511 23-03-2007 06:04:02 2.8 C 5.57 g/m*3 2.8 C 0 km/h
512 23-03-2007 06:16:01 3 C 5.65 g/m*3 3 C 0 km/h
513 23-03-2007 06:28:01 3.1 C 5.69 g/m*3 3.1 C 0 km/h
514 23-03-2007 06:40:02 3.1 C 5.69 g/m*3 3.1 C 0 km/h
515 23-03-2007 06:52:01 3.2 C 5.72 g/m*3 3.2 C 0 km/h
516 23-03-2007 07:04:01 3.2 C 5.72 g/m*3 3.2 C 0 km/h
517 23-03-2007 07:16:02 3.3 C 5.76 g/m*3 3.3 C 0 km/h
518 23-03-2007 07:28:02 3.3 C 5.7 g/m*3 3.3 C 0 km/h
519 23-03-2007 07:40:01 3.2 C 5.66 g/m*3 3.2 C 0 km/h
520 23-03-2007 07:52:02 3.2 C 5.6 g/m*3 3.2 C 0 km/h
521 23-03-2007 08:04:01 3 C 5.47 g/m*3 3 C 0 km/h
522 23-03-2007 08:16:01 2.9 C 5.43 g/m*3 2.9 C 0 km/h
523 23-03-2007 08:28:01 2.9 C 5.37 g/m*3 2.9 C 0 km/h
524 23-03-2007 08:40:02 3 C 5.29 g/m*3 3 C 0 km/h
525 23-03-2007 08:52:01 3 C 5.17 g/m*3 3 C 0 km/h
Sensor: Nr:Datum:Temp:Abs-Feuchte:Windchill:Wind:
Aussen-T/F 526 23-03-2007 09:04:02 3 C 5.17 g/m*3 3 C 0 km/h
527 23-03-2007 09:16:01 3 C 5.11 g/m*3 3 C 0 km/h
528 23-03-2007 09:28:01 3 C 5.11 g/m*3 3 C 0 km/h
529 23-03-2007 09:40:01 3 C 5.11 g/m*3 3 C 0 km/h
530 23-03-2007 09:52:01 2.9 C 5.08 g/m*3 2.9 C 0 km/h
531 23-03-2007 10:04:02 2.8 C 5.04 g/m*3 2.8 C 0 km/h
532 23-03-2007 10:16:02 2.8 C 5.1 g/m*3 2.8 C 0 km/h
533 23-03-2007 10:28:02 2.7 C 5.13 g/m*3 2.7 C 0 km/h
534 23-03-2007 10:40:01 2.7 C 5.13 g/m*3 2.7 C 0 km/h
535 23-03-2007 10:52:02 2.8 C 5.22 g/m*3 2.8 C 0 km/h
536 23-03-2007 11:04:01 2.7 C 5.19 g/m*3 2.7 C 0 km/h
537 23-03-2007 11:16:01 2.8 C 5.22 g/m*3 2.8 C 0 km/h
538 23-03-2007 11:28:01 3 C 5.29 g/m*3 3 C 0 km/h
539 23-03-2007 11:40:02 3.1 C 5.33 g/m*3 3.1 C 0 km/h
540 23-03-2007 11:52:01 3.3 C 5.4 g/m*3 3.3 C 0 km/h
541 23-03-2007 12:04:02 3.6 C 5.51 g/m*3 3.6 C 0 km/h
542 23-03-2007 12:16:01 3.9 C 5.62 g/m*3 3.9 C 0 km/h
543 23-03-2007 12:28:01 3.8 C 5.58 g/m*3 3.8 C 0 km/h
544 23-03-2007 12:40:01 4 C 5.59 g/m*3 4 C 0 km/h
545 23-03-2007 12:52:01 4.1 C 5.57 g/m*3 4.1 C 0 km/h
546 23-03-2007 13:04:01 4.3 C 5.51 g/m*3 4.3 C 0 km/h
547 23-03-2007 13:16:02 4.4 C 5.48 g/m*3 4.4 C 0 km/h
548 23-03-2007 13:28:02 4.2 C 5.41 g/m*3 4.2 C 0 km/h
549 23-03-2007 13:40:01 4.3 C 5.45 g/m*3 4.3 C 0 km/h
550 23-03-2007 13:52:02 4.3 C 5.45 g/m*3 4.3 C 0 km/h
Sensor: Nr:Datum:Temp:Abs-Feuchte:Windchill:Wind:
Aussen-T/F 551 23-03-2007 14:04:01 4.6 C 5.56 g/m*3 4.6 C 0 km/h
552 23-03-2007 14:16:01 4.6 C 5.56 g/m*3 4.6 C 0 km/h
553 23-03-2007 14:28:01 4.6 C 5.49 g/m*3 4.6 C 0 km/h
554 23-03-2007 14:40:02 4.5 C 5.39 g/m*3 4.5 C 0 km/h
555 23-03-2007 14:52:01 4.3 C 5.32 g/m*3 4.3 C 0 km/h
556 23-03-2007 15:04:02 4.2 C 5.35 g/m*3 4.2 C 0 km/h
557 23-03-2007 15:16:02 4.2 C 5.28 g/m*3 4.2 C 0 km/h
558 23-03-2007 15:28:02 4.3 C 5.32 g/m*3 4.3 C 0 km/h
559 23-03-2007 15:40:01 4.3 C 5.25 g/m*3 4.3 C 0 km/h
560 23-03-2007 15:52:02 4.3 C 5.25 g/m*3 4.3 C 0 km/h
561 23-03-2007 16:04:01 4.3 C 5.25 g/m*3 4.3 C 0 km/h
562 23-03-2007 16:16:02 4.3 C 5.19 g/m*3 4.3 C 0 km/h
563 23-03-2007 16:28:02 4.7 C 5.33 g/m*3 4.7 C 0 km/h
564 23-03-2007 16:40:02 4.4 C 5.22 g/m*3 4.4 C 0 km/h
565 23-03-2007 16:52:02 4.6 C 5.23 g/m*3 4.6 C 0 km/h
566 23-03-2007 17:04:02 4.6 C 5.23 g/m*3 4.6 C 0 km/h
567 23-03-2007 17:16:01 4.6 C 5.16 g/m*3 4.6 C 0 km/h
568 23-03-2007 17:28:01 4.6 C 5.16 g/m*3 4.6 C 0 km/h
569 23-03-2007 17:40:01 4.6 C 5.23 g/m*3 4.6 C 0 km/h
570 23-03-2007 17:52:01 4.4 C 5.16 g/m*3 4.4 C 0 km/h
571 23-03-2007 18:04:01 4.6 C 5.23 g/m*3 4.6 C 0 km/h
572 23-03-2007 18:16:02 4.4 C 5.22 g/m*3 4.4 C 0 km/h
573 23-03-2007 18:28:02 4.3 C 5.25 g/m*3 4.3 C 0 km/h
574 23-03-2007 18:40:01 4.2 C 5.28 g/m*3 4.2 C 0 km/h
575 23-03-2007 18:52:02 4.1 C 5.31 g/m*3 4.1 C 0 km/h
Sensor: Nr:Datum:Temp:Abs-Feuchte:Windchill:Wind:
Aussen-T/F 576 23-03-2007 19:04:01 4.1 C 5.31 g/m*3 4.1 C 0 km/h
577 23-03-2007 19:16:01 4 C 5.34 g/m*3 4 C 0 km/h
578 23-03-2007 19:28:01 3.9 C 5.37 g/m*3 3.9 C 0 km/h
579 23-03-2007 19:40:02 3.8 C 5.33 g/m*3 3.8 C 0 km/h
580 23-03-2007 19:52:01 3.6 C 5.26 g/m*3 3.6 C 0 km/h
581 23-03-2007 20:04:02 3.2 C 5.06 g/m*3 3.2 C 0 km/h
582 23-03-2007 20:16:02 3.1 C 5.09 g/m*3 3.1 C 0 km/h
583 23-03-2007 20:28:02 3.3 C 5.16 g/m*3 3.3 C 0 km/h
584 23-03-2007 20:40:01 3.4 C 5.19 g/m*3 3.4 C 0 km/h
585 23-03-2007 20:52:02 3.1 C 5.03 g/m*3 3.1 C 0 km/h
586 23-03-2007 21:04:01 3.2 C 5.12 g/m*3 3.2 C 0 km/h
587 23-03-2007 21:16:01 3.3 C 5.16 g/m*3 3.3 C 0 km/h
588 23-03-2007 21:28:01 3.3 C 5.16 g/m*3 3.3 C 0 km/h
589 23-03-2007 21:40:02 3.4 C 5.19 g/m*3 3.4 C 0 km/h
590 23-03-2007 21:52:01 3.5 C 5.23 g/m*3 3.5 C 0 km/h
591 23-03-2007 22:04:02 3.5 C 5.23 g/m*3 3.5 C 0 km/h
592 23-03-2007 22:16:01 3.5 C 5.23 g/m*3 3.5 C 0 km/h
593 23-03-2007 22:28:01 3.5 C 5.23 g/m*3 3.5 C 0 km/h
594 23-03-2007 22:40:01 3.5 C 5.23 g/m*3 3.5 C 0 km/h
595 23-03-2007 22:52:01 3.5 C 5.23 g/m*3 3.5 C 0 km/h
596 23-03-2007 23:04:01 3.6 C 5.26 g/m*3 3.6 C 0 km/h
597 23-03-2007 23:16:02 3.5 C 5.23 g/m*3 3.5 C 0 km/h
598 23-03-2007 23:28:02 3.5 C 5.23 g/m*3 3.5 C 0 km/h
599 23-03-2007 23:40:02 3.5 C 5.23 g/m*3 3.5 C 0 km/h
600 23-03-2007 23:52:02 3.5 C 5.23 g/m*3 3.5 C 0 km/h
Sensor: Nr:Datum:Temp:Abs-Feuchte:Windchill:Wind:
Aussen-T/F 601 24-03-2007 00:04:02 3.5 C 5.29 g/m*3 3.5 C 0 km/h
602 24-03-2007 00:16:02 3.5 C 5.29 g/m*3 3.5 C 0 km/h
603 24-03-2007 00:28:02 3.5 C 5.29 g/m*3 3.5 C 0 km/h
604 24-03-2007 00:40:02 3.5 C 5.29 g/m*3 3.5 C 0 km/h
605 24-03-2007 00:52:02 3.5 C 5.29 g/m*3 3.5 C 0 km/h
606 24-03-2007 01:04:01 3.4 C 5.25 g/m*3 3.4 C 0 km/h
607 24-03-2007 01:16:01 3.5 C 5.29 g/m*3 3.5 C 0 km/h
608 24-03-2007 01:28:01 3.5 C 5.29 g/m*3 3.5 C 0 km/h
609 24-03-2007 01:40:01 3.4 C 5.25 g/m*3 3.4 C 0 km/h
610 24-03-2007 01:52:01 3.4 C 5.25 g/m*3 3.4 C 0 km/h
611 24-03-2007 02:04:01 3.5 C 5.35 g/m*3 3.5 C 0 km/h
612 24-03-2007 02:16:02 3.5 C 5.35 g/m*3 3.5 C 0 km/h
613 24-03-2007 02:28:02 3.4 C 5.31 g/m*3 3.4 C 0 km/h
614 24-03-2007 02:40:02 3.4 C 5.37 g/m*3 3.4 C 0 km/h
615 24-03-2007 02:53:06 3.4 C 5.37 g/m*3 3.4 C 0 km/h
616 24-03-2007 03:05:06 3.4 C 5.44 g/m*3 3.4 C 0 km/h
617 24-03-2007 03:17:07 3.4 C 5.44 g/m*3 3.4 C 0 km/h
618 24-03-2007 03:29:07 3.4 C 5.5 g/m*3 3.4 C 0 km/h
619 24-03-2007 03:41:02 3.4 C 5.44 g/m*3 3.4 C 0 km/h
620 24-03-2007 03:53:02 3.5 C 5.47 g/m*3 3.5 C 0 km/h
621 24-03-2007 04:05:02 3.6 C 5.51 g/m*3 3.6 C 0 km/h
622 24-03-2007 04:17:02 3.6 C 5.51 g/m*3 3.6 C 0 km/h
623 24-03-2007 04:29:02 3.7 C 5.55 g/m*3 3.7 C 0 km/h
624 24-03-2007 04:41:02 3.8 C 5.58 g/m*3 3.8 C 0 km/h
625 24-03-2007 04:53:02 3.9 C 5.62 g/m*3 3.9 C 0 km/h
Sensor: Nr:Datum:Temp:Abs-Feuchte:Windchill:Wind:
Aussen-T/F 626 24-03-2007 05:05:02 4 C 5.59 g/m*3 4 C 0 km/h
627 24-03-2007 05:17:02 4.1 C 5.63 g/m*3 4.1 C 0 km/h
628 24-03-2007 05:29:02 4.2 C 5.67 g/m*3 4.2 C 0 km/h
629 24-03-2007 05:41:02 4.2 C 5.67 g/m*3 4.2 C 0 km/h
630 24-03-2007 05:53:02 4.3 C 5.71 g/m*3 4.3 C 0 km/h
631 24-03-2007 06:05:01 4.5 C 5.72 g/m*3 4.5 C 0 km/h
632 24-03-2007 06:17:02 4.5 C 5.65 g/m*3 4.5 C 0 km/h
633 24-03-2007 06:29:02 4.5 C 5.65 g/m*3 4.5 C 0 km/h
634 24-03-2007 06:41:02 4.4 C 5.62 g/m*3 4.4 C 0 km/h
635 24-03-2007 06:53:02 4.5 C 5.65 g/m*3 4.5 C 0 km/h
636 24-03-2007 07:05:02 4.4 C 5.62 g/m*3 4.4 C 0 km/h
637 24-03-2007 07:17:02 4.4 C 5.62 g/m*3 4.4 C 0 km/h
638 24-03-2007 07:29:02 4.2 C 5.61 g/m*3 4.2 C 0 km/h
639 24-03-2007 07:41:01 4.1 C 5.63 g/m*3 4.1 C 0 km/h
640 24-03-2007 07:53:02 4.1 C 5.7 g/m*3 4.1 C 0 km/h
641 24-03-2007 08:05:02 4.2 C 5.73 g/m*3 4.2 C 0 km/h
642 24-03-2007 08:17:02 4.2 C 5.73 g/m*3 4.2 C 0 km/h
643 24-03-2007 08:29:02 4.2 C 5.8 g/m*3 4.2 C 0 km/h
644 24-03-2007 08:41:02 4.3 C 5.84 g/m*3 4.3 C 0 km/h
645 24-03-2007 08:53:02 4.2 C 5.86 g/m*3 4.2 C 0 km/h
646 24-03-2007 09:05:01 4.3 C 5.9 g/m*3 4.3 C 0 km/h
647 24-03-2007 09:17:02 4.4 C 6.01 g/m*3 4.4 C 0 km/h
648 24-03-2007 09:29:02 4.5 C 6.05 g/m*3 4.5 C 0 km/h
649 24-03-2007 09:41:02 4.4 C 6.01 g/m*3 4.4 C 0 km/h
650 24-03-2007 09:53:02 4.5 C 6.11 g/m*3 4.5 C 0 km/h
Sensor: Nr:Datum:Temp:Abs-Feuchte:Windchill:Wind:
Aussen-T/F 651 24-03-2007 10:05:02 4.5 C 6.11 g/m*3 4.5 C 0 km/h
652 24-03-2007 10:17:02 4.6 C 6.15 g/m*3 4.6 C 0 km/h
653 24-03-2007 10:29:02 4.7 C 6.19 g/m*3 4.7 C 0 km/h
654 24-03-2007 10:41:02 4.7 C 6.19 g/m*3 4.7 C 0 km/h
655 24-03-2007 10:53:02 4.8 C 6.24 g/m*3 4.8 C 0 km/h
656 24-03-2007 11:05:02 5 C 6.32 g/m*3 5 C 0 km/h
657 24-03-2007 11:17:02 5 C 6.32 g/m*3 5 C 0 km/h
658 24-03-2007 11:29:03 5.1 C 6.36 g/m*3 5.1 C 0 km/h
659 24-03-2007 11:41:02 5.2 C 6.4 g/m*3 5.2 C 0 km/h
660 24-03-2007 11:53:02 5.3 C 6.45 g/m*3 5.3 C 0 km/h
661 24-03-2007 12:05:02 5.3 C 6.45 g/m*3 5.3 C 0 km/h
662 24-03-2007 12:17:01 5.4 C 6.49 g/m*3 5.4 C 0 km/h
663 24-03-2007 12:29:01 5.5 C 6.53 g/m*3 5.5 C 0 km/h
664 24-03-2007 12:41:02 5.6 C 6.57 g/m*3 5.6 C 0 km/h
665 24-03-2007 12:53:01 5.7 C 6.62 g/m*3 5.7 C 0 km/h
666 24-03-2007 13:05:02 5.8 C 6.66 g/m*3 5.8 C 0 km/h
667 24-03-2007 13:17:01 5.9 C 6.71 g/m*3 5.9 C 0 km/h
668 24-03-2007 13:29:01 6 C 6.6 g/m*3 6 C 0 km/h
669 24-03-2007 13:41:01 6.1 C 6.65 g/m*3 6.1 C 0 km/h
670 24-03-2007 13:53:02 6.4 C 6.78 g/m*3 6.4 C 0 km/h
671 24-03-2007 14:05:01 6.9 C 7.08 g/m*3 6.9 C 0 km/h
672 24-03-2007 14:17:02 7 C 6.97 g/m*3 7 C 0 km/h
673 24-03-2007 14:29:02 7.3 C 7.11 g/m*3 7.3 C 0 km/h
674 24-03-2007 14:41:02 7.4 C 7.08 g/m*3 7.4 C 0 km/h
675 24-03-2007 14:53:03 7.4 C 7 g/m*3 7.4 C 0 km/h
Sensor: Nr:Datum:Temp:Abs-Feuchte:Windchill:Wind:
Aussen-T/F 676 24-03-2007 15:05:02 7.5 C 6.96 g/m*3 7.5 C 0 km/h
677 24-03-2007 15:17:02 7.4 C 6.84 g/m*3 7.4 C 0 km/h
678 24-03-2007 15:29:02 7.4 C 6.92 g/m*3 7.4 C 0 km/h
679 24-03-2007 15:41:02 7.4 C 6.92 g/m*3 7.4 C 0 km/h
680 24-03-2007 15:53:02 7.4 C 6.92 g/m*3 7.4 C 0 km/h
681 24-03-2007 16:05:02 7.4 C 6.92 g/m*3 7.4 C 0 km/h
682 24-03-2007 16:17:02 7.2 C 6.83 g/m*3 7.2 C 0 km/h
683 24-03-2007 16:29:02 7.1 C 6.79 g/m*3 7.1 C 0 km/h
684 24-03-2007 16:41:02 7.1 C 6.86 g/m*3 7.1 C 0 km/h
685 24-03-2007 16:53:01 7.2 C 6.91 g/m*3 7.2 C 0 km/h
686 24-03-2007 17:05:02 7.3 C 6.95 g/m*3 7.3 C 0 km/h
687 24-03-2007 17:17:01 7.4 C 6.92 g/m*3 7.4 C 0 km/h
688 24-03-2007 17:29:01 7.5 C 6.96 g/m*3 7.5 C 0 km/h
689 24-03-2007 17:41:01 7.4 C 6.84 g/m*3 7.4 C 0 km/h
690 24-03-2007 17:53:01 7.3 C 6.72 g/m*3 7.3 C 0 km/h
691 24-03-2007 18:05:01 7.1 C 6.71 g/m*3 7.1 C 0 km/h
692 24-03-2007 18:17:02 6.9 C 6.77 g/m*3 6.9 C 0 km/h
693 24-03-2007 18:29:02 6.8 C 6.81 g/m*3 6.8 C 0 km/h
694 24-03-2007 18:41:01 6.8 C 6.88 g/m*3 6.8 C 0 km/h
695 24-03-2007 18:53:02 6.7 C 6.91 g/m*3 6.7 C 0 km/h
696 24-03-2007 19:05:02 6.8 C 6.96 g/m*3 6.8 C 0 km/h
697 24-03-2007 19:17:01 6.6 C 6.95 g/m*3 6.6 C 0 km/h
698 24-03-2007 19:29:01 6.6 C 6.95 g/m*3 6.6 C 0 km/h
699 24-03-2007 19:41:02 6.6 C 6.95 g/m*3 6.6 C 0 km/h
700 24-03-2007 19:53:01 6.6 C 7.02 g/m*3 6.6 C 0 km/h
Sensor: Nr:Datum:Temp:Abs-Feuchte:Windchill:Wind:
Aussen-T/F 701 24-03-2007 20:05:02 6.5 C 6.97 g/m*3 6.5 C 0 km/h
702 24-03-2007 20:17:02 6.6 C 7.02 g/m*3 6.6 C 0 km/h
703 24-03-2007 20:29:02 6.5 C 7.05 g/m*3 6.5 C 0 km/h
704 24-03-2007 20:41:01 6.5 C 7.05 g/m*3 6.5 C 0 km/h
705 24-03-2007 20:53:02 6.4 C 7 g/m*3 6.4 C 0 km/h
706 24-03-2007 21:05:01 6.5 C 7.05 g/m*3 6.5 C 0 km/h
707 24-03-2007 21:17:02 6.5 C 7.05 g/m*3 6.5 C 0 km/h
708 24-03-2007 21:29:02 6.5 C 7.12 g/m*3 6.5 C 0 km/h
709 24-03-2007 21:41:02 6.8 C 7.27 g/m*3 6.8 C 0 km/h
710 24-03-2007 21:53:03 6.8 C 7.27 g/m*3 6.8 C 0 km/h
711 24-03-2007 22:05:02 6.8 C 7.27 g/m*3 6.8 C 0 km/h
712 24-03-2007 22:17:02 6.6 C 7.17 g/m*3 6.6 C 0 km/h
713 24-03-2007 22:29:02 6.5 C 7.05 g/m*3 6.5 C 0 km/h
714 24-03-2007 22:41:03 6.6 C 7.1 g/m*3 6.6 C 0 km/h
715 24-03-2007 22:53:02 6.6 C 7.1 g/m*3 6.6 C 0 km/h
716 24-03-2007 23:05:02 6.5 C 7.05 g/m*3 6.5 C 0 km/h
717 24-03-2007 23:17:02 6.4 C 7 g/m*3 6.4 C 0 km/h
718 24-03-2007 23:29:02 6.2 C 6.91 g/m*3 6.2 C 0 km/h
719 24-03-2007 23:41:02 6 C 6.75 g/m*3 6 C 0 km/h
720 24-03-2007 23:53:02 5.7 C 6.69 g/m*3 5.7 C 0 km/h
721 25-03-2007 00:05:02 5.6 C 6.65 g/m*3 5.6 C 0 km/h
722 25-03-2007 00:17:02 5.7 C 6.69 g/m*3 5.7 C 0 km/h
723 25-03-2007 00:29:02 5.7 C 6.76 g/m*3 5.7 C 0 km/h
724 25-03-2007 00:41:02 5.7 C 6.76 g/m*3 5.7 C 0 km/h
725 25-03-2007 00:53:02 5.5 C 6.6 g/m*3 5.5 C 0 km/h
Sensor: Nr:Datum:Temp:Abs-Feuchte:Windchill:Wind:
Aussen-T/F 726 25-03-2007 01:05:03 5.4 C 6.56 g/m*3 5.4 C 0 km/h
727 25-03-2007 01:17:02 5.6 C 6.72 g/m*3 5.6 C 0 km/h
728 25-03-2007 01:29:02 5.9 C 6.85 g/m*3 5.9 C 0 km/h
729 25-03-2007 01:41:02 5.6 C 6.65 g/m*3 5.6 C 0 km/h
730 25-03-2007 01:53:02 5.7 C 6.69 g/m*3 5.7 C 0 km/h
731 25-03-2007 02:05:02 5.7 C 6.62 g/m*3 5.7 C 0 km/h
732 25-03-2007 02:17:02 6.1 C 6.58 g/m*3 6.1 C 0 km/h
733 25-03-2007 02:29:02 6.2 C 6.47 g/m*3 6.2 C 0 km/h
734 25-03-2007 02:41:01 6.4 C 6.41 g/m*3 6.4 C 0 km/h
735 25-03-2007 02:53:01 6.5 C 6.22 g/m*3 6.5 C 0 km/h
736 25-03-2007 04:05:01 6.6 C 6.11 g/m*3 6.6 C 0 km/h
737 25-03-2007 04:17:02 6.7 C 6.08 g/m*3 6.7 C 0 km/h
738 25-03-2007 04:29:02 6.5 C 5.92 g/m*3 6.5 C 0 km/h
739 25-03-2007 04:41:02 6.4 C 5.89 g/m*3 6.4 C 0 km/h
740 25-03-2007 04:53:02 6.4 C 5.89 g/m*3 6.4 C 0 km/h
741 25-03-2007 05:05:02 6.5 C 5.85 g/m*3 6.5 C 0 km/h
742 25-03-2007 05:17:01 6.5 C 5.92 g/m*3 6.5 C 0 km/h
743 25-03-2007 05:29:01 6.5 C 5.92 g/m*3 6.5 C 0 km/h
744 25-03-2007 05:41:01 6.4 C 5.96 g/m*3 6.4 C 0 km/h
745 25-03-2007 05:53:01 6.4 C 5.89 g/m*3 6.4 C 0 km/h
746 25-03-2007 06:05:01 6.4 C 5.89 g/m*3 6.4 C 0 km/h
747 25-03-2007 06:17:02 6.4 C 5.89 g/m*3 6.4 C 0 km/h
748 25-03-2007 06:29:02 6.3 C 5.85 g/m*3 6.3 C 0 km/h
749 25-03-2007 06:41:02 6.4 C 5.81 g/m*3 6.4 C 0 km/h
750 25-03-2007 06:53:02 6.3 C 5.63 g/m*3 6.3 C 0 km/h
Sensor: Nr:Datum:Temp:Abs-Feuchte:Windchill:Wind:
Aussen-T/F 751 25-03-2007 07:05:02 6.1 C 5.55 g/m*3 6.1 C 0 km/h
752 25-03-2007 07:17:01 5.8 C 5.52 g/m*3 5.8 C 0 km/h
753 25-03-2007 07:29:01 5.7 C 5.55 g/m*3 5.7 C 0 km/h
754 25-03-2007 07:41:01 5.6 C 5.51 g/m*3 5.6 C 0 km/h
755 25-03-2007 07:53:01 5.4 C 5.51 g/m*3 5.4 C 0 km/h
756 25-03-2007 08:05:02 5.4 C 5.44 g/m*3 5.4 C 0 km/h
757 25-03-2007 08:17:02 5.5 C 5.48 g/m*3 5.5 C 0 km/h
758 25-03-2007 08:29:02 5.9 C 5.55 g/m*3 5.9 C 0 km/h
759 25-03-2007 08:41:01 5.7 C 5.48 g/m*3 5.7 C 0 km/h
760 25-03-2007 08:53:02 5.6 C 5.51 g/m*3 5.6 C 0 km/h
761 25-03-2007 09:05:01 5.7 C 5.55 g/m*3 5.7 C 0 km/h
762 25-03-2007 09:17:01 5.9 C 5.62 g/m*3 5.9 C 0 km/h
763 25-03-2007 09:29:01 6.5 C 5.62 g/m*3 6.5 C 0 km/h
764 25-03-2007 09:41:02 7.4 C 5.41 g/m*3 7.4 C 0 km/h
765 25-03-2007 09:53:01 7.9 C 5.42 g/m*3 7.9 C 0 km/h
766 25-03-2007 10:05:02 7.8 C 5.14 g/m*3 7.8 C 0 km/h
767 25-03-2007 10:17:01 7.8 C 5.22 g/m*3 7.8 C 0 km/h
768 25-03-2007 10:29:02 8 C 5.21 g/m*3 8 C 0 km/h
769 25-03-2007 10:41:01 8.3 C 5.14 g/m*3 8.3 C 0 km/h
770 25-03-2007 10:53:02 8.8 C 5.14 g/m*3 8.8 C 0 km/h
771 25-03-2007 11:05:01 8.9 C 5.08 g/m*3 8.9 C 0 km/h
772 25-03-2007 11:17:01 8.6 C 4.98 g/m*3 8.6 C 0 km/h
773 25-03-2007 11:29:01 8.9 C 5.08 g/m*3 8.9 C 0 km/h
774 25-03-2007 11:41:02 9.2 C 5 g/m*3 9.2 C 0 km/h
775 25-03-2007 11:53:01 9.2 C 4.91 g/m*3 9.2 C 0 km/h
Sensor: Nr:Datum:Temp:Abs-Feuchte:Windchill:Wind:
Aussen-T/F 776 25-03-2007 12:05:01 9.7 C 5.16 g/m*3 9.7 C 0 km/h
777 25-03-2007 12:17:02 10.5 C 5.04 g/m*3 10.5 C 0 km/h
778 25-03-2007 12:29:02 10.6 C 5.08 g/m*3 10.6 C 0 km/h
779 25-03-2007 12:41:02 10.5 C 4.95 g/m*3 10.5 C 0 km/h
780 25-03-2007 12:53:02 11.1 C 4.94 g/m*3 11.1 C 0 km/h
781 25-03-2007 13:05:02 11.2 C 4.66 g/m*3 11.2 C 0 km/h
782 25-03-2007 13:17:01 11.3 C 4.59 g/m*3 11.3 C 0 km/h
783 25-03-2007 13:29:01 11.7 C 4.6 g/m*3 11.7 C 0 km/h
784 25-03-2007 13:41:01 11.9 C 4.77 g/m*3 11.9 C 0 km/h
785 25-03-2007 13:53:01 12.9 C 4.62 g/m*3 12.9 C 0 km/h
786 25-03-2007 14:05:01 13 C 4.31 g/m*3 13 C 0 km/h
787 25-03-2007 14:17:02 13.1 C 4.22 g/m*3 13.1 C 0 km/h
788 25-03-2007 14:29:02 13.4 C 4.53 g/m*3 13.4 C 0 km/h
789 25-03-2007 14:41:01 14.4 C 4.45 g/m*3 14.4 C 0 km/h
790 25-03-2007 14:53:02 14.3 C 4.3 g/m*3 14.3 C 0 km/h
791 25-03-2007 15:05:01 14.3 C 4.3 g/m*3 14.3 C 0 km/h
792 25-03-2007 15:17:01 14.2 C 4.4 g/m*3 14.2 C 0 km/h
793 25-03-2007 15:29:01 13.7 C 4.38 g/m*3 13.7 C 0 km/h
794 25-03-2007 15:41:02 14.7 C 4.28 g/m*3 14.7 C 0 km/h
795 25-03-2007 15:53:01 15.8 C 4.44 g/m*3 15.8 C 0 km/h
796 25-03-2007 16:05:02 16 C 4.22 g/m*3 16 C 0 km/h
797 25-03-2007 16:17:02 16.3 C 4.3 g/m*3 16.3 C 0 km/h
798 25-03-2007 16:29:02 16.6 C 4.24 g/m*3 16.6 C 0 km/h
799 25-03-2007 16:41:01 17.1 C 4.37 g/m*3 17.1 C 0 km/h
800 26-03-2007 08:31:02 5.3 C 5.27 g/m*3 5.3 C 0 km/h
Sensor: Nr:Datum:Temp:Abs-Feuchte:Windchill:Wind:
Aussen-T/F 801 26-03-2007 08:36:02 5.3 C 5.27 g/m*3 5.3 C 0 km/h
802 26-03-2007 08:41:02 5.4 C 5.3 g/m*3 5.4 C 0 km/h
803 26-03-2007 08:46:02 5.5 C 5.34 g/m*3 5.5 C 0 km/h
804 26-03-2007 08:51:02 5.6 C 5.37 g/m*3 5.6 C 0 km/h
805 26-03-2007 08:56:02 5.6 C 5.37 g/m*3 5.6 C 0 km/h
806 26-03-2007 09:01:01 5.7 C 5.34 g/m*3 5.7 C 0 km/h
807 26-03-2007 09:06:01 5.8 C 5.37 g/m*3 5.8 C 0 km/h
808 26-03-2007 09:11:01 5.8 C 5.3 g/m*3 5.8 C 0 km/h
809 26-03-2007 09:16:01 6 C 5.23 g/m*3 6 C 0 km/h
810 26-03-2007 09:21:01 6.2 C 5.22 g/m*3 6.2 C 0 km/h
811 26-03-2007 09:26:01 6.2 C 5.22 g/m*3 6.2 C 0 km/h
812 26-03-2007 09:31:01 6.3 C 5.26 g/m*3 6.3 C 0 km/h
813 26-03-2007 09:36:01 6.3 C 5.26 g/m*3 6.3 C 0 km/h
814 26-03-2007 09:41:01 6.4 C 5.29 g/m*3 6.4 C 0 km/h
815 26-03-2007 09:46:02 6.5 C 5.25 g/m*3 6.5 C 0 km/h
816 26-03-2007 09:51:02 6.7 C 5.32 g/m*3 6.7 C 0 km/h
817 26-03-2007 09:56:02 7 C 5.35 g/m*3 7 C 0 km/h
818 26-03-2007 10:01:01 7.1 C 5.38 g/m*3 7.1 C 0 km/h
819 26-03-2007 10:06:01 7.4 C 5.41 g/m*3 7.4 C 0 km/h
820 26-03-2007 10:11:01 7.6 C 5.4 g/m*3 7.6 C 0 km/h
821 26-03-2007 10:16:01 7.7 C 5.43 g/m*3 7.7 C 0 km/h
822 26-03-2007 10:21:01 8 C 5.46 g/m*3 8 C 0 km/h
823 26-03-2007 10:26:01 8.3 C 5.48 g/m*3 8.3 C 0 km/h
824 26-03-2007 10:31:02 8.6 C 5.41 g/m*3 8.6 C 0 km/h
825 26-03-2007 10:36:02 9.2 C 5.18 g/m*3 9.2 C 0 km/h
Sensor: Nr:Datum:Temp:Abs-Feuchte:Windchill:Wind:
Aussen-T/F 826 26-03-2007 10:41:02 9.7 C 5.07 g/m*3 9.7 C 0 km/h
827 26-03-2007 10:46:01 9.8 C 5.01 g/m*3 9.8 C 0 km/h
828 26-03-2007 10:51:01 10.3 C 5.08 g/m*3 10.3 C 0 km/h
829 26-03-2007 10:56:02 10.7 C 4.81 g/m*3 10.7 C 0 km/h
830 26-03-2007 11:01:01 11 C 4.8 g/m*3 11 C 0 km/h
831 26-03-2007 11:06:01 11 C 4.8 g/m*3 11 C 0 km/h
832 26-03-2007 11:11:01 11.4 C 4.82 g/m*3 11.4 C 0 km/h
833 26-03-2007 11:16:01 11.7 C 4.81 g/m*3 11.7 C 0 km/h
834 26-03-2007 11:21:01 11.8 C 4.74 g/m*3 11.8 C 0 km/h
835 26-03-2007 11:26:01 12 C 4.69 g/m*3 12 C 0 km/h
836 26-03-2007 11:31:02 12.1 C 4.61 g/m*3 12.1 C 0 km/h
837 26-03-2007 11:36:02 12.1 C 4.61 g/m*3 12.1 C 0 km/h
838 26-03-2007 11:41:02 12.4 C 4.59 g/m*3 12.4 C 0 km/h
839 26-03-2007 11:46:02 12.6 C 4.65 g/m*3 12.6 C 0 km/h
840 26-03-2007 11:51:02 12.6 C 4.54 g/m*3 12.6 C 0 km/h
841 26-03-2007 11:56:02 12.8 C 4.59 g/m*3 12.8 C 0 km/h
842 26-03-2007 12:01:02 13 C 4.65 g/m*3 13 C 0 km/h
843 26-03-2007 12:06:02 13.3 C 4.62 g/m*3 13.3 C 0 km/h
844 26-03-2007 12:11:02 13.4 C 4.65 g/m*3 13.4 C 0 km/h
845 26-03-2007 12:16:03 13.5 C 4.56 g/m*3 13.5 C 0 km/h
846 26-03-2007 12:21:03 13.8 C 4.77 g/m*3 13.8 C 0 km/h
847 26-03-2007 12:26:03 13.9 C 4.8 g/m*3 13.9 C 0 km/h
848 26-03-2007 12:31:02 14.2 C 4.64 g/m*3 14.2 C 0 km/h
849 26-03-2007 12:36:02 14.5 C 4.48 g/m*3 14.5 C 0 km/h
850 26-03-2007 12:41:02 14.6 C 4.63 g/m*3 14.6 C 0 km/h
Sensor: Nr:Datum:Temp:Abs-Feuchte:Windchill:Wind:
Aussen-T/F 851 26-03-2007 12:46:02 14.7 C 4.28 g/m*3 14.7 C 0 km/h
852 26-03-2007 12:51:02 15 C 3.98 g/m*3 15 C 0 km/h
853 26-03-2007 12:56:02 15.1 C 4 g/m*3 15.1 C 0 km/h
854 26-03-2007 13:01:02 15.2 C 3.89 g/m*3 15.2 C 0 km/h
855 26-03-2007 13:06:02 15.5 C 3.97 g/m*3 15.5 C 0 km/h
856 26-03-2007 13:11:02 15.8 C 3.9 g/m*3 15.8 C 0 km/h
857 26-03-2007 13:16:02 15.9 C 4.06 g/m*3 15.9 C 0 km/h
858 26-03-2007 13:21:02 16 C 3.81 g/m*3 16 C 0 km/h
859 26-03-2007 13:26:02 16.3 C 3.75 g/m*3 16.3 C 0 km/h
860 26-03-2007 13:31:02 16.4 C 3.91 g/m*3 16.4 C 0 km/h
861 26-03-2007 13:36:03 16.6 C 3.81 g/m*3 16.6 C 0 km/h
862 26-03-2007 13:41:03 16.9 C 3.88 g/m*3 16.9 C 0 km/h
863 26-03-2007 13:46:02 17 C 3.76 g/m*3 17 C 0 km/h
864 26-03-2007 13:51:02 16.9 C 3.74 g/m*3 16.9 C 0 km/h
865 26-03-2007 13:56:02 17 C 3.62 g/m*3 17 C 0 km/h
866 26-03-2007 14:01:02 17.5 C 3.73 g/m*3 17.5 C 0 km/h
867 26-03-2007 14:06:02 17.6 C 3.75 g/m*3 17.6 C 0 km/h
868 26-03-2007 14:11:02 17.9 C 3.82 g/m*3 17.9 C 0 km/h
869 26-03-2007 14:16:01 18.3 C 3.75 g/m*3 18.3 C 0 km/h
870 26-03-2007 14:21:01 18.3 C 3.75 g/m*3 18.3 C 0 km/h
871 26-03-2007 14:26:02 18.5 C 3.8 g/m*3 18.5 C 0 km/h
872 26-03-2007 14:31:01 18.6 C 3.5 g/m*3 18.6 C 0 km/h
873 26-03-2007 14:36:01 18.7 C 3.68 g/m*3 18.7 C 0 km/h
874 26-03-2007 14:41:01 19.1 C 3.44 g/m*3 19.1 C 0 km/h
875 26-03-2007 14:46:02 19.3 C 3.48 g/m*3 19.3 C 0 km/h
Sensor: Nr:Datum:Temp:Abs-Feuchte:Windchill:Wind:
Aussen-T/F 876 26-03-2007 14:51:02 19.6 C 3.38 g/m*3 19.6 C 0 km/h
877 26-03-2007 14:56:02 19.5 C 3.36 g/m*3 19.5 C 0 km/h
878 26-03-2007 15:01:02 19.5 C 3.36 g/m*3 19.5 C 0 km/h
879 26-03-2007 15:06:03 20 C 3.46 g/m*3 20 C 0 km/h
880 26-03-2007 15:11:03 20.1 C 3.48 g/m*3 20.1 C 0 km/h
881 26-03-2007 15:16:01 20.3 C 3.52 g/m*3 20.3 C 0 km/h
882 26-03-2007 15:21:01 20.4 C 3.54 g/m*3 20.4 C 0 km/h
883 26-03-2007 15:26:01 20.6 C 3.58 g/m*3 20.6 C 0 km/h
884 26-03-2007 15:31:01 20.6 C 3.58 g/m*3 20.6 C 0 km/h
885 26-03-2007 15:36:01 20.9 C 3.64 g/m*3 20.9 C 0 km/h
886 26-03-2007 15:41:01 20.8 C 3.62 g/m*3 20.8 C 0 km/h
887 26-03-2007 15:46:02 20.9 C 3.64 g/m*3 20.9 C 0 km/h
888 26-03-2007 15:51:02 21.1 C 3.69 g/m*3 21.1 C 0 km/h
889 26-03-2007 15:56:02 21.3 C 3.73 g/m*3 21.3 C 0 km/h
890 26-03-2007 16:01:02 21.3 C 3.73 g/m*3 21.3 C 0 km/h
891 26-03-2007 16:06:02 21.4 C 3.75 g/m*3 21.4 C 0 km/h
892 26-03-2007 16:11:02 21.5 C 3.77 g/m*3 21.5 C 0 km/h
893 26-03-2007 16:16:01 21.7 C 3.82 g/m*3 21.7 C 0 km/h
894 26-03-2007 16:21:01 21.7 C 3.82 g/m*3 21.7 C 0 km/h
895 26-03-2007 16:26:01 21.7 C 3.82 g/m*3 21.7 C 0 km/h
896 26-03-2007 16:31:02 21.8 C 3.84 g/m*3 21.8 C 0 km/h
897 26-03-2007 16:36:02 21.9 C 3.86 g/m*3 21.9 C 0 km/h
898 26-03-2007 16:41:02 21.9 C 3.86 g/m*3 21.9 C 0 km/h
899 26-03-2007 16:46:02 22.4 C 3.97 g/m*3 22.4 C 0 km/h
900 26-03-2007 16:51:02 22.4 C 3.97 g/m*3 22.4 C 0 km/h
Sensor: Nr:Datum:Temp:Abs-Feuchte:Windchill:Wind:
Aussen-T/F 901 26-03-2007 16:56:03 22.3 C 3.95 g/m*3 22.3 C 0 km/h
902 26-03-2007 17:01:01 22.3 C 3.95 g/m*3 22.3 C 0 km/h
903 26-03-2007 17:06:01 22.5 C 3.99 g/m*3 22.5 C 0 km/h
904 26-03-2007 17:11:01 22.5 C 3.99 g/m*3 22.5 C 0 km/h
905 26-03-2007 17:16:01 22.8 C 4.06 g/m*3 22.8 C 0 km/h
906 26-03-2007 17:21:01 22.7 C 4.04 g/m*3 22.7 C 0 km/h
907 26-03-2007 17:26:01 22.6 C 4.02 g/m*3 22.6 C 0 km/h
908 26-03-2007 17:31:02 22.5 C 3.99 g/m*3 22.5 C 0 km/h
909 26-03-2007 17:36:02 21.9 C 3.86 g/m*3 21.9 C 0 km/h
910 26-03-2007 17:41:02 22 C 3.88 g/m*3 22 C 0 km/h
911 26-03-2007 17:46:01 21.7 C 3.82 g/m*3 21.7 C 0 km/h
912 26-03-2007 17:51:01 21.8 C 3.84 g/m*3 21.8 C 0 km/h
913 26-03-2007 17:56:01 21.7 C 3.82 g/m*3 21.7 C 0 km/h
914 26-03-2007 18:01:01 21.6 C 3.79 g/m*3 21.6 C 0 km/h
915 26-03-2007 18:06:01 21.7 C 3.82 g/m*3 21.7 C 0 km/h
916 26-03-2007 18:11:01 21.6 C 3.79 g/m*3 21.6 C 0 km/h
917 26-03-2007 18:16:02 21.4 C 3.75 g/m*3 21.4 C 0 km/h
918 26-03-2007 18:21:02 21.1 C 3.69 g/m*3 21.1 C 0 km/h
919 26-03-2007 18:26:02 21.2 C 3.71 g/m*3 21.2 C 0 km/h
920 26-03-2007 18:31:02 21 C 3.66 g/m*3 21 C 0 km/h
921 26-03-2007 18:36:02 20.9 C 3.64 g/m*3 20.9 C 0 km/h
922 26-03-2007 18:41:02 20.6 C 3.58 g/m*3 20.6 C 0 km/h
923 26-03-2007 18:46:02 20.4 C 3.54 g/m*3 20.4 C 0 km/h
924 26-03-2007 18:51:02 20.3 C 3.52 g/m*3 20.3 C 0 km/h
925 26-03-2007 18:56:02 19.9 C 3.44 g/m*3 19.9 C 0 km/h
Sensor: Nr:Datum:Temp:Abs-Feuchte:Windchill:Wind:
Aussen-T/F 926 26-03-2007 19:01:03 19.9 C 3.44 g/m*3 19.9 C 0 km/h
927 26-03-2007 19:06:03 19.6 C 3.38 g/m*3 19.6 C 0 km/h
928 26-03-2007 19:11:03 19.5 C 3.86 g/m*3 19.5 C 0 km/h
929 26-03-2007 19:16:03 19.3 C 4.15 g/m*3 19.3 C 0 km/h
930 26-03-2007 19:21:03 18.7 C 4.32 g/m*3 18.7 C 0 km/h
931 26-03-2007 19:26:03 18.1 C 3.86 g/m*3 18.1 C 0 km/h
932 26-03-2007 19:31:02 18.1 C 3.86 g/m*3 18.1 C 0 km/h
933 26-03-2007 19:36:03 17.5 C 3.73 g/m*3 17.5 C 0 km/h
934 26-03-2007 19:41:03 17 C 3.91 g/m*3 17 C 0 km/h
935 26-03-2007 19:46:01 16.7 C 4.26 g/m*3 16.7 C 0 km/h
936 26-03-2007 19:51:01 16.5 C 4.21 g/m*3 16.5 C 0 km/h
937 26-03-2007 19:56:01 16 C 4.22 g/m*3 16 C 0 km/h
938 26-03-2007 20:01:02 15.6 C 4.26 g/m*3 15.6 C 0 km/h
939 26-03-2007 20:06:02 15.4 C 4.34 g/m*3 15.4 C 0 km/h
940 26-03-2007 20:11:02 15 C 4.23 g/m*3 15 C 0 km/h
941 26-03-2007 20:16:02 14.8 C 4.31 g/m*3 14.8 C 0 km/h
942 26-03-2007 20:21:03 14.8 C 4.43 g/m*3 14.8 C 0 km/h
943 26-03-2007 20:26:03 14.7 C 4.41 g/m*3 14.7 C 0 km/h
944 26-03-2007 20:31:02 14.5 C 4.48 g/m*3 14.5 C 0 km/h
945 26-03-2007 20:36:02 14.4 C 4.33 g/m*3 14.4 C 0 km/h
946 26-03-2007 20:41:02 14.3 C 4.3 g/m*3 14.3 C 0 km/h
947 26-03-2007 20:46:03 14 C 4.46 g/m*3 14 C 0 km/h
948 26-03-2007 20:51:03 13.8 C 4.65 g/m*3 13.8 C 0 km/h
949 26-03-2007 20:56:03 13.8 C 4.65 g/m*3 13.8 C 0 km/h
950 26-03-2007 21:01:03 13.7 C 4.74 g/m*3 13.7 C 0 km/h
Sensor: Nr:Datum:Temp:Abs-Feuchte:Windchill:Wind:
Aussen-T/F 951 26-03-2007 21:06:03 13.4 C 4.77 g/m*3 13.4 C 0 km/h
952 26-03-2007 21:11:03 13.4 C 4.77 g/m*3 13.4 C 0 km/h
953 26-03-2007 21:16:02 13.3 C 4.97 g/m*3 13.3 C 0 km/h
954 26-03-2007 21:21:02 13.1 C 4.91 g/m*3 13.1 C 0 km/h
955 26-03-2007 21:26:03 13 C 4.99 g/m*3 13 C 0 km/h
956 26-03-2007 21:31:02 12.8 C 5.04 g/m*3 12.8 C 0 km/h
957 26-03-2007 21:36:02 12.7 C 5.12 g/m*3 12.7 C 0 km/h
958 26-03-2007 21:41:02 12.6 C 5.2 g/m*3 12.6 C 0 km/h
959 26-03-2007 21:46:01 12.6 C 5.31 g/m*3 12.6 C 0 km/h
960 26-03-2007 21:51:01 12.5 C 5.17 g/m*3 12.5 C 0 km/h
961 26-03-2007 21:56:01 12.3 C 5.32 g/m*3 12.3 C 0 km/h
962 26-03-2007 22:01:02 12.2 C 5.29 g/m*3 12.2 C 0 km/h
963 26-03-2007 22:06:02 12.2 C 5.4 g/m*3 12.2 C 0 km/h
964 26-03-2007 22:11:02 12.1 C 5.36 g/m*3 12.1 C 0 km/h
965 26-03-2007 22:16:02 12.1 C 5.25 g/m*3 12.1 C 0 km/h
966 26-03-2007 22:21:02 12 C 5.33 g/m*3 12 C 0 km/h
967 26-03-2007 22:26:02 11.9 C 5.4 g/m*3 11.9 C 0 km/h
968 26-03-2007 22:31:02 11.9 C 5.4 g/m*3 11.9 C 0 km/h
969 26-03-2007 22:36:02 11.8 C 5.37 g/m*3 11.8 C 0 km/h
970 26-03-2007 22:41:02 11.7 C 5.44 g/m*3 11.7 C 0 km/h
971 26-03-2007 22:46:02 11.5 C 5.37 g/m*3 11.5 C 0 km/h
972 26-03-2007 22:51:02 11.5 C 5.37 g/m*3 11.5 C 0 km/h
973 26-03-2007 22:56:02 11.4 C 5.44 g/m*3 11.4 C 0 km/h
974 26-03-2007 23:01:03 11.3 C 5.51 g/m*3 11.3 C 0 km/h
975 26-03-2007 23:06:03 11.2 C 5.47 g/m*3 11.2 C 0 km/h
Sensor: Nr:Datum:Temp:Abs-Feuchte:Windchill:Wind:
Aussen-T/F 976 26-03-2007 23:11:03 11.1 C 5.44 g/m*3 11.1 C 0 km/h
977 26-03-2007 23:16:03 10.9 C 5.57 g/m*3 10.9 C 0 km/h
978 26-03-2007 23:21:03 10.9 C 5.57 g/m*3 10.9 C 0 km/h
979 26-03-2007 23:26:03 10.8 C 5.54 g/m*3 10.8 C 0 km/h
980 26-03-2007 23:31:02 10.7 C 5.6 g/m*3 10.7 C 0 km/h
981 26-03-2007 23:36:03 10.5 C 5.63 g/m*3 10.5 C 0 km/h
982 26-03-2007 23:41:03 10.5 C 5.63 g/m*3 10.5 C 0 km/h
983 26-03-2007 23:46:01 10.6 C 5.66 g/m*3 10.6 C 0 km/h
984 26-03-2007 23:51:01 10.5 C 5.63 g/m*3 10.5 C 0 km/h
985 26-03-2007 23:56:01 10.4 C 5.59 g/m*3 10.4 C 0 km/h
986 27-03-2007 00:01:02 10.4 C 5.59 g/m*3 10.4 C 0 km/h
987 27-03-2007 00:06:02 10.2 C 5.52 g/m*3 10.2 C 0 km/h
988 27-03-2007 00:11:02 10.2 C 5.61 g/m*3 10.2 C 0 km/h
989 27-03-2007 00:16:02 10.4 C 5.49 g/m*3 10.4 C 0 km/h
990 27-03-2007 00:21:02 10.2 C 5.52 g/m*3 10.2 C 0 km/h
991 27-03-2007 00:26:02 10.1 C 5.48 g/m*3 10.1 C 0 km/h
992 27-03-2007 00:31:02 10.1 C 5.48 g/m*3 10.1 C 0 km/h
993 27-03-2007 00:36:02 10.1 C 5.48 g/m*3 10.1 C 0 km/h
994 27-03-2007 00:41:02 10.1 C 5.48 g/m*3 10.1 C 0 km/h
995 27-03-2007 00:46:02 10.1 C 5.48 g/m*3 10.1 C 0 km/h
996 27-03-2007 00:51:02 10 C 5.45 g/m*3 10 C 0 km/h
997 27-03-2007 00:56:02 9.8 C 5.57 g/m*3 9.8 C 0 km/h
998 27-03-2007 01:01:02 9.8 C 5.57 g/m*3 9.8 C 0 km/h
999 27-03-2007 01:06:02 9.7 C 5.53 g/m*3 9.7 C 0 km/h
1000 27-03-2007 01:11:02 9.6 C 5.5 g/m*3 9.6 C 0 km/h
Sensor: Nr:Datum:Temp:Abs-Feuchte:Windchill:Wind:
Aussen-T/F 1001 27-03-2007 01:16:03 9.5 C 5.46 g/m*3 9.5 C 0 km/h
1002 27-03-2007 01:21:03 9.5 C 5.46 g/m*3 9.5 C 0 km/h
1003 27-03-2007 01:26:03 9.4 C 5.43 g/m*3 9.4 C 0 km/h
1004 27-03-2007 01:31:02 9.5 C 5.46 g/m*3 9.5 C 0 km/h
1005 27-03-2007 01:36:02 9.4 C 5.43 g/m*3 9.4 C 0 km/h
1006 27-03-2007 01:41:02 9.4 C 5.34 g/m*3 9.4 C 0 km/h
1007 27-03-2007 01:46:02 9.3 C 5.39 g/m*3 9.3 C 0 km/h
1008 27-03-2007 01:51:02 9.2 C 5.36 g/m*3 9.2 C 0 km/h
1009 27-03-2007 01:56:02 9.2 C 5.27 g/m*3 9.2 C 0 km/h
1010 27-03-2007 02:01:03 9.4 C 5.34 g/m*3 9.4 C 0 km/h
1011 27-03-2007 02:06:03 9.2 C 5.27 g/m*3 9.2 C 0 km/h
1012 27-03-2007 02:11:03 9.3 C 5.21 g/m*3 9.3 C 0 km/h
1013 27-03-2007 02:16:02 9.3 C 5.21 g/m*3 9.3 C 0 km/h
1014 27-03-2007 02:21:02 9.3 C 5.21 g/m*3 9.3 C 0 km/h
1015 27-03-2007 02:26:02 9.3 C 5.12 g/m*3 9.3 C 0 km/h
1016 27-03-2007 02:31:02 9.3 C 5.12 g/m*3 9.3 C 0 km/h
1017 27-03-2007 02:36:02 9.1 C 5.06 g/m*3 9.1 C 0 km/h
1018 27-03-2007 02:41:02 9.1 C 5.15 g/m*3 9.1 C 0 km/h
1019 27-03-2007 02:47:04 8.8 C 5.22 g/m*3 8.8 C 0 km/h
1020 27-03-2007 02:52:04 8.6 C 5.24 g/m*3 8.6 C 0 km/h
1021 27-03-2007 02:57:04 8.5 C 5.21 g/m*3 8.5 C 0 km/h
1022 27-03-2007 03:02:04 8.2 C 5.19 g/m*3 8.2 C 0 km/h
1023 27-03-2007 03:07:04 8 C 5.21 g/m*3 8 C 0 km/h
1024 27-03-2007 03:12:03 7.9 C 5.34 g/m*3 7.9 C 0 km/h
1025 27-03-2007 03:17:03 7.9 C 5.34 g/m*3 7.9 C 0 km/h
Sensor: Nr:Datum:Temp:Abs-Feuchte:Windchill:Wind:
Aussen-T/F 1026 27-03-2007 03:22:03 7.8 C 5.3 g/m*3 7.8 C 0 km/h
1027 27-03-2007 03:27:03 7.6 C 5.32 g/m*3 7.6 C 0 km/h
1028 27-03-2007 03:32:02 7.6 C 5.32 g/m*3 7.6 C 0 km/h
1029 27-03-2007 03:37:02 7.4 C 5.25 g/m*3 7.4 C 0 km/h
1030 27-03-2007 03:42:02 7.3 C 5.21 g/m*3 7.3 C 0 km/h
1031 27-03-2007 03:47:02 7.3 C 5.21 g/m*3 7.3 C 0 km/h
1032 27-03-2007 03:52:02 7.3 C 5.21 g/m*3 7.3 C 0 km/h
1033 27-03-2007 03:57:02 7.3 C 5.14 g/m*3 7.3 C 0 km/h
1034 27-03-2007 04:02:01 7.3 C 5.21 g/m*3 7.3 C 0 km/h
1035 27-03-2007 04:07:01 7.1 C 5.07 g/m*3 7.1 C 0 km/h
1036 27-03-2007 04:12:01 7 C 5.11 g/m*3 7 C 0 km/h
1037 27-03-2007 04:17:02 7 C 5.11 g/m*3 7 C 0 km/h
1038 27-03-2007 04:22:02 7 C 5.11 g/m*3 7 C 0 km/h
1039 27-03-2007 04:27:02 6.7 C 5.17 g/m*3 6.7 C 0 km/h
1040 27-03-2007 04:32:02 6.7 C 5.17 g/m*3 6.7 C 0 km/h
1041 27-03-2007 04:37:02 6.7 C 5.17 g/m*3 6.7 C 0 km/h
1042 27-03-2007 04:42:02 6.6 C 5.13 g/m*3 6.6 C 0 km/h
1043 27-03-2007 04:47:03 6.5 C 5.1 g/m*3 6.5 C 0 km/h
1044 27-03-2007 04:52:03 6.4 C 5.07 g/m*3 6.4 C 0 km/h
1045 27-03-2007 04:57:03 6.4 C 5.07 g/m*3 6.4 C 0 km/h
1046 27-03-2007 05:02:02 6.3 C 5.11 g/m*3 6.3 C 0 km/h
1047 27-03-2007 05:07:02 6.2 C 5.07 g/m*3 6.2 C 0 km/h
1048 27-03-2007 05:12:02 6.1 C 5.04 g/m*3 6.1 C 0 km/h
1049 27-03-2007 05:17:02 6 C 5.08 g/m*3 6 C 0 km/h
1050 27-03-2007 05:22:02 5.8 C 5.09 g/m*3 5.8 C 0 km/h
Sensor: Nr:Datum:Temp:Abs-Feuchte:Windchill:Wind:
Aussen-T/F 1051 27-03-2007 05:27:02 5.8 C 5.16 g/m*3 5.8 C 0 km/h
1052 27-03-2007 05:32:03 5.7 C 5.12 g/m*3 5.7 C 0 km/h
1053 27-03-2007 05:37:03 5.7 C 5.12 g/m*3 5.7 C 0 km/h
1054 27-03-2007 05:42:03 5.6 C 5.09 g/m*3 5.6 C 0 km/h
1055 27-03-2007 05:47:02 5.5 C 5.06 g/m*3 5.5 C 0 km/h
1056 27-03-2007 05:52:02 5.3 C 4.99 g/m*3 5.3 C 0 km/h
1057 27-03-2007 05:57:02 5.2 C 4.96 g/m*3 5.2 C 0 km/h
1058 27-03-2007 06:02:01 5.3 C 5.06 g/m*3 5.3 C 0 km/h
1059 27-03-2007 06:07:01 5.1 C 4.92 g/m*3 5.1 C 0 km/h
1060 27-03-2007 06:12:01 5.1 C 4.92 g/m*3 5.1 C 0 km/h
1061 27-03-2007 06:17:01 5 C 4.96 g/m*3 5 C 0 km/h
1062 27-03-2007 06:22:01 4.9 C 5 g/m*3 4.9 C 0 km/h
1063 27-03-2007 06:27:01 4.7 C 4.93 g/m*3 4.7 C 0 km/h
1064 27-03-2007 06:32:02 4.5 C 4.86 g/m*3 4.5 C 0 km/h
1065 27-03-2007 06:37:02 4.5 C 4.93 g/m*3 4.5 C 0 km/h
1066 27-03-2007 06:42:02 4.4 C 4.9 g/m*3 4.4 C 0 km/h
1067 27-03-2007 06:47:01 4.4 C 4.9 g/m*3 4.4 C 0 km/h
1068 27-03-2007 06:52:01 4.3 C 4.93 g/m*3 4.3 C 0 km/h
1069 27-03-2007 06:57:01 4.4 C 5.03 g/m*3 4.4 C 0 km/h
1070 27-03-2007 07:02:01 4.3 C 4.99 g/m*3 4.3 C 0 km/h
1071 27-03-2007 07:07:01 4.3 C 4.99 g/m*3 4.3 C 0 km/h
1072 27-03-2007 07:12:01 4.2 C 4.96 g/m*3 4.2 C 0 km/h
1073 27-03-2007 07:17:01 4 C 4.9 g/m*3 4 C 0 km/h
1074 27-03-2007 07:22:01 3.9 C 4.93 g/m*3 3.9 C 0 km/h
1075 27-03-2007 07:27:01 3.9 C 4.93 g/m*3 3.9 C 0 km/h
Sensor: Nr:Datum:Temp:Abs-Feuchte:Windchill:Wind:
Aussen-T/F 1076 27-03-2007 07:32:02 3.8 C 4.89 g/m*3 3.8 C 0 km/h
1077 27-03-2007 07:37:02 3.8 C 4.89 g/m*3 3.8 C 0 km/h
1078 27-03-2007 07:42:02 3.8 C 4.89 g/m*3 3.8 C 0 km/h
1079 27-03-2007 07:47:02 3.9 C 4.93 g/m*3 3.9 C 0 km/h
1080 27-03-2007 07:52:02 3.9 C 4.99 g/m*3 3.9 C 0 km/h
1081 27-03-2007 07:57:02 4 C 4.96 g/m*3 4 C 0 km/h
1082 27-03-2007 08:02:03 4 C 4.96 g/m*3 4 C 0 km/h
1083 27-03-2007 08:07:03 4 C 4.96 g/m*3 4 C 0 km/h
1084 27-03-2007 08:12:03 4 C 4.96 g/m*3 4 C 0 km/h
1085 27-03-2007 08:17:02 4 C 4.96 g/m*3 4 C 0 km/h
1086 27-03-2007 08:22:02 3.9 C 4.93 g/m*3 3.9 C 0 km/h
1087 27-03-2007 08:27:02 3.9 C 4.93 g/m*3 3.9 C 0 km/h
1088 27-03-2007 08:32:02 3.9 C 4.99 g/m*3 3.9 C 0 km/h
1089 27-03-2007 08:37:02 4 C 4.96 g/m*3 4 C 0 km/h
1090 27-03-2007 08:42:03 4 C 4.96 g/m*3 4 C 0 km/h
1091 27-03-2007 08:47:01 4 C 4.96 g/m*3 4 C 0 km/h
1092 27-03-2007 08:52:01 4.1 C 4.99 g/m*3 4.1 C 0 km/h
1093 27-03-2007 08:57:01 4.2 C 5.03 g/m*3 4.2 C 0 km/h
1094 27-03-2007 09:02:02 4.2 C 5.03 g/m*3 4.2 C 0 km/h
1095 27-03-2007 09:07:02 4.3 C 5.06 g/m*3 4.3 C 0 km/h
1096 27-03-2007 09:12:02 4.4 C 5.09 g/m*3 4.4 C 0 km/h
1097 27-03-2007 09:17:02 4.5 C 5.13 g/m*3 4.5 C 0 km/h
1098 27-03-2007 09:22:03 4.8 C 5.23 g/m*3 4.8 C 0 km/h
1099 27-03-2007 09:27:03 5 C 5.23 g/m*3 5 C 0 km/h
1100 27-03-2007 09:32:01 5.2 C 5.23 g/m*3 5.2 C 0 km/h
Sensor: Nr:Datum:Temp:Abs-Feuchte:Windchill:Wind:
Aussen-T/F 1101 27-03-2007 09:37:01 5.4 C 5.3 g/m*3 5.4 C 0 km/h
1102 27-03-2007 09:42:01 5.5 C 5.27 g/m*3 5.5 C 0 km/h
1103 27-03-2007 09:47:02 6 C 5.15 g/m*3 6 C 0 km/h
1104 27-03-2007 09:52:02 6.2 C 5.22 g/m*3 6.2 C 0 km/h
1105 27-03-2007 09:57:02 6.6 C 5.13 g/m*3 6.6 C 0 km/h
1106 27-03-2007 10:02:02 7 C 4.96 g/m*3 7 C 0 km/h
1107 27-03-2007 10:07:02 7.3 C 5.06 g/m*3 7.3 C 0 km/h
1108 27-03-2007 10:12:02 7.8 C 4.9 g/m*3 7.8 C 0 km/h
1109 27-03-2007 10:17:02 8.4 C 4.5 g/m*3 8.4 C 0 km/h
1110 27-03-2007 10:22:02 8.8 C 4.44 g/m*3 8.8 C 0 km/h
1111 27-03-2007 10:27:02 9.1 C 4.17 g/m*3 9.1 C 0 km/h
1112 27-03-2007 10:32:01 9.7 C 4.24 g/m*3 9.7 C 0 km/h
1113 27-03-2007 10:37:01 9.6 C 4.12 g/m*3 9.6 C 0 km/h
1114 27-03-2007 10:42:01 9.9 C 4.2 g/m*3 9.9 C 0 km/h
1115 27-03-2007 10:47:02 10.1 C 4.16 g/m*3 10.1 C 0 km/h
1116 27-03-2007 10:52:02 10.3 C 4.02 g/m*3 10.3 C 0 km/h
1117 27-03-2007 10:57:02 10.4 C 3.95 g/m*3 10.4 C 0 km/h
1118 27-03-2007 11:02:02 10.6 C 4.1 g/m*3 10.6 C 0 km/h
1119 27-03-2007 11:07:02 10.7 C 4.13 g/m*3 10.7 C 0 km/h
1120 27-03-2007 11:12:02 11 C 4 g/m*3 11 C 0 km/h
1121 27-03-2007 11:17:02 11.2 C 3.95 g/m*3 11.2 C 0 km/h
1122 27-03-2007 11:22:02 11.4 C 4 g/m*3 11.4 C 0 km/h
1123 27-03-2007 11:27:02 11.5 C 3.93 g/m*3 11.5 C 0 km/h
1124 27-03-2007 11:32:02 11.7 C 4.08 g/m*3 11.7 C 0 km/h
1125 27-03-2007 11:37:02 11.9 C 4.02 g/m*3 11.9 C 0 km/h
Sensor: Nr:Datum:Temp:Abs-Feuchte:Windchill:Wind:
Aussen-T/F 1126 27-03-2007 11:42:02 12.1 C 3.86 g/m*3 12.1 C 0 km/h
1127 27-03-2007 11:47:02 12.2 C 3.88 g/m*3 12.2 C 0 km/h
1128 27-03-2007 11:52:02 12.6 C 3.98 g/m*3 12.6 C 0 km/h
1129 27-03-2007 11:57:02 12.8 C 3.92 g/m*3 12.8 C 0 km/h
1130 27-03-2007 12:02:01 12.9 C 3.94 g/m*3 12.9 C 0 km/h
1131 27-03-2007 12:07:01 13.1 C 3.77 g/m*3 13.1 C 0 km/h
1132 27-03-2007 12:12:01 13.4 C 3.95 g/m*3 13.4 C 0 km/h
1133 27-03-2007 12:17:01 13.6 C 3.88 g/m*3 13.6 C 0 km/h
1134 27-03-2007 12:22:01 13.8 C 3.81 g/m*3 13.8 C 0 km/h
1135 27-03-2007 12:27:01 14.1 C 3.76 g/m*3 14.1 C 0 km/h
1136 27-03-2007 12:32:02 14.2 C 3.66 g/m*3 14.2 C 0 km/h
1137 27-03-2007 12:37:02 14.3 C 3.69 g/m*3 14.3 C 0 km/h
1138 27-03-2007 12:42:02 14.5 C 3.48 g/m*3 14.5 C 0 km/h
1139 27-03-2007 12:47:01 14.7 C 3.4 g/m*3 14.7 C 0 km/h
1140 27-03-2007 12:52:01 14.8 C 3.29 g/m*3 14.8 C 0 km/h
1141 27-03-2007 12:57:01 15 C 3.08 g/m*3 15 C 0 km/h
1142 27-03-2007 13:02:02 15.2 C 2.73 g/m*3 15.2 C 0 km/h
1143 27-03-2007 13:07:02 15.3 C 2.87 g/m*3 15.3 C 0 km/h
1144 27-03-2007 13:12:02 15.5 C 2.91 g/m*3 15.5 C 0 km/h
1145 27-03-2007 13:17:02 15.6 C 2.79 g/m*3 15.6 C 0 km/h
1146 27-03-2007 13:22:02 15.6 C 2.79 g/m*3 15.6 C 0 km/h
1147 27-03-2007 13:27:02 15.8 C 2.96 g/m*3 15.8 C 0 km/h
1148 27-03-2007 13:32:01 16 C 2.72 g/m*3 16 C 0 km/h
1149 27-03-2007 13:37:01 16.2 C 2.76 g/m*3 16.2 C 0 km/h
1150 27-03-2007 13:42:01 16.3 C 2.77 g/m*3 16.3 C 0 km/h
Sensor: Nr:Datum:Temp:Abs-Feuchte:Windchill:Wind:
Aussen-T/F 1151 27-03-2007 13:47:01 16.5 C 2.81 g/m*3 16.5 C 0 km/h
1152 27-03-2007 13:52:01 16.7 C 2.84 g/m*3 16.7 C 0 km/h
1153 27-03-2007 13:57:01 17.1 C 2.91 g/m*3 17.1 C 0 km/h
1154 27-03-2007 14:02:02 17.2 C 2.93 g/m*3 17.2 C 0 km/h
1155 27-03-2007 14:07:02 17.3 C 2.95 g/m*3 17.3 C 0 km/h
1156 27-03-2007 14:12:02 17.4 C 2.96 g/m*3 17.4 C 0 km/h
1157 27-03-2007 14:17:02 17.5 C 2.98 g/m*3 17.5 C 0 km/h
1158 27-03-2007 14:22:03 17.8 C 3.04 g/m*3 17.8 C 0 km/h
1159 27-03-2007 14:27:03 18.1 C 3.09 g/m*3 18.1 C 0 km/h
1160 27-03-2007 14:32:02 18.3 C 3.13 g/m*3 18.3 C 0 km/h
1161 27-03-2007 14:37:02 18.5 C 3.16 g/m*3 18.5 C 0 km/h
1162 27-03-2007 14:42:02 18.4 C 3.15 g/m*3 18.4 C 0 km/h
1163 27-03-2007 14:47:02 18.3 C 3.13 g/m*3 18.3 C 0 km/h
1164 27-03-2007 14:52:02 18.7 C 3.2 g/m*3 18.7 C 0 km/h
1165 27-03-2007 14:57:02 18.8 C 3.22 g/m*3 18.8 C 0 km/h
1166 27-03-2007 15:02:02 18.9 C 3.24 g/m*3 18.9 C 0 km/h
1167 27-03-2007 15:07:02 18.9 C 3.24 g/m*3 18.9 C 0 km/h
1168 27-03-2007 15:12:02 19.2 C 3.3 g/m*3 19.2 C 0 km/h
1169 27-03-2007 15:17:02 19.4 C 3.34 g/m*3 19.4 C 0 km/h
1170 27-03-2007 15:22:02 19.3 C 3.32 g/m*3 19.3 C 0 km/h
1171 27-03-2007 15:27:02 19.3 C 3.32 g/m*3 19.3 C 0 km/h
1172 27-03-2007 15:32:02 19.1 C 3.28 g/m*3 19.1 C 0 km/h
1173 27-03-2007 15:37:02 19.3 C 3.32 g/m*3 19.3 C 0 km/h
1174 27-03-2007 15:42:02 19.3 C 3.32 g/m*3 19.3 C 0 km/h
1175 27-03-2007 15:47:02 19.2 C 3.3 g/m*3 19.2 C 0 km/h
Sensor: Nr:Datum:Temp:Abs-Feuchte:Windchill:Wind:
Aussen-T/F 1176 27-03-2007 15:52:02 19.4 C 3.34 g/m*3 19.4 C 0 km/h
1177 27-03-2007 15:57:02 19.4 C 3.34 g/m*3 19.4 C 0 km/h
1178 27-03-2007 16:02:02 19.8 C 3.42 g/m*3 19.8 C 0 km/h
1179 27-03-2007 16:07:02 20.1 C 3.48 g/m*3 20.1 C 0 km/h
1180 27-03-2007 16:12:02 20.4 C 3.54 g/m*3 20.4 C 0 km/h
1181 27-03-2007 16:17:02 20.4 C 3.54 g/m*3 20.4 C 0 km/h
1182 27-03-2007 16:22:02 20.1 C 3.48 g/m*3 20.1 C 0 km/h
1183 27-03-2007 16:27:02 20.3 C 3.52 g/m*3 20.3 C 0 km/h
1184 27-03-2007 16:32:03 20.2 C 3.5 g/m*3 20.2 C 0 km/h
1185 27-03-2007 16:37:03 20.3 C 3.52 g/m*3 20.3 C 0 km/h
1186 27-03-2007 16:42:03 20.4 C 3.54 g/m*3 20.4 C 0 km/h
1187 27-03-2007 16:47:01 20.4 C 3.54 g/m*3 20.4 C 0 km/h
1188 27-03-2007 16:52:01 20.7 C 3.6 g/m*3 20.7 C 0 km/h
1189 27-03-2007 16:57:01 20.6 C 3.58 g/m*3 20.6 C 0 km/h
1190 27-03-2007 17:02:01 20.6 C 3.58 g/m*3 20.6 C 0 km/h
1191 27-03-2007 17:07:01 20.6 C 3.58 g/m*3 20.6 C 0 km/h
1192 27-03-2007 17:12:01 20.8 C 3.62 g/m*3 20.8 C 0 km/h
1193 27-03-2007 17:17:01 20.9 C 3.64 g/m*3 20.9 C 0 km/h
1194 27-03-2007 17:22:01 20.7 C 3.6 g/m*3 20.7 C 0 km/h
1195 27-03-2007 17:27:01 20.8 C 3.62 g/m*3 20.8 C 0 km/h
1196 27-03-2007 17:32:02 20.4 C 3.54 g/m*3 20.4 C 0 km/h
1197 27-03-2007 17:37:02 19.9 C 3.44 g/m*3 19.9 C 0 km/h
1198 27-03-2007 17:42:02 19.7 C 3.4 g/m*3 19.7 C 0 km/h
1199 27-03-2007 17:47:02 19.6 C 3.38 g/m*3 19.6 C 0 km/h
1200 27-03-2007 17:52:02 19.7 C 3.4 g/m*3 19.7 C 0 km/h
Sensor: Nr:Datum:Temp:Abs-Feuchte:Windchill:Wind:
Aussen-T/F 1201 27-03-2007 17:57:02 20 C 3.46 g/m*3 20 C 0 km/h
1202 27-03-2007 18:02:02 20.1 C 3.48 g/m*3 20.1 C 0 km/h
1203 27-03-2007 18:07:02 20 C 3.46 g/m*3 20 C 0 km/h
1204 27-03-2007 18:12:02 20 C 3.46 g/m*3 20 C 0 km/h
1205 27-03-2007 18:17:03 19.8 C 3.42 g/m*3 19.8 C 0 km/h
1206 27-03-2007 18:22:03 19.6 C 3.38 g/m*3 19.6 C 0 km/h
1207 27-03-2007 18:27:03 19 C 3.26 g/m*3 19 C 0 km/h
1208 27-03-2007 18:32:02 18.8 C 3.22 g/m*3 18.8 C 0 km/h
1209 27-03-2007 18:37:02 18.7 C 3.2 g/m*3 18.7 C 0 km/h
1210 27-03-2007 18:42:03 18.7 C 3.2 g/m*3 18.7 C 0 km/h
1211 27-03-2007 18:47:02 18.5 C 3.16 g/m*3 18.5 C 0 km/h
1212 27-03-2007 18:52:02 18.5 C 3.16 g/m*3 18.5 C 0 km/h
1213 27-03-2007 18:57:02 18.3 C 3.13 g/m*3 18.3 C 0 km/h
1214 27-03-2007 19:02:02 18 C 3.07 g/m*3 18 C 0 km/h
1215 27-03-2007 19:07:02 18 C 3.07 g/m*3 18 C 0 km/h
1216 27-03-2007 19:12:02 17.8 C 3.04 g/m*3 17.8 C 0 km/h
1217 27-03-2007 19:17:02 17.5 C 2.98 g/m*3 17.5 C 0 km/h
1218 27-03-2007 19:22:03 17.1 C 2.91 g/m*3 17.1 C 0 km/h
1219 27-03-2007 19:27:03 16.9 C 2.88 g/m*3 16.9 C 0 km/h
1220 27-03-2007 19:32:02 16.8 C 2.86 g/m*3 16.8 C 0 km/h
1221 27-03-2007 19:37:02 16.3 C 2.77 g/m*3 16.3 C 0 km/h
1222 27-03-2007 19:42:02 16.1 C 2.74 g/m*3 16.1 C 0 km/h
1223 27-03-2007 19:47:03 15.8 C 2.69 g/m*3 15.8 C 0 km/h
1224 27-03-2007 19:52:03 15.3 C 2.74 g/m*3 15.3 C 0 km/h
1225 27-03-2007 19:57:03 15.2 C 2.99 g/m*3 15.2 C 0 km/h
Sensor: Nr:Datum:Temp:Abs-Feuchte:Windchill:Wind:
Aussen-T/F 1226 27-03-2007 20:02:02 14.7 C 3.15 g/m*3 14.7 C 0 km/h
1227 27-03-2007 20:07:03 14.5 C 3.11 g/m*3 14.5 C 0 km/h
1228 27-03-2007 20:12:03 14.4 C 3.09 g/m*3 14.4 C 0 km/h
1229 27-03-2007 20:17:02 14.3 C 3.07 g/m*3 14.3 C 0 km/h
1230 27-03-2007 20:22:02 14.1 C 3.03 g/m*3 14.1 C 0 km/h
1231 27-03-2007 20:27:02 13.9 C 3 g/m*3 13.9 C 0 km/h
1232 27-03-2007 20:32:02 13.8 C 3.1 g/m*3 13.8 C 0 km/h
1233 27-03-2007 20:37:02 13.5 C 3.28 g/m*3 13.5 C 0 km/h
1234 27-03-2007 20:42:02 13.4 C 3.14 g/m*3 13.4 C 0 km/h
1235 27-03-2007 20:47:02 13.3 C 3.35 g/m*3 13.3 C 0 km/h
1236 27-03-2007 20:52:03 13.2 C 3.21 g/m*3 13.2 C 0 km/h
1237 27-03-2007 20:57:03 13 C 3.4 g/m*3 13 C 0 km/h
1238 27-03-2007 21:02:01 12.9 C 3.49 g/m*3 12.9 C 0 km/h
1239 27-03-2007 21:07:01 12.7 C 3.56 g/m*3 12.7 C 0 km/h
1240 27-03-2007 21:12:01 12.5 C 3.52 g/m*3 12.5 C 0 km/h
1241 27-03-2007 21:17:01 12.3 C 3.69 g/m*3 12.3 C 0 km/h
1242 27-03-2007 21:22:01 12.2 C 3.56 g/m*3 12.2 C 0 km/h
1243 27-03-2007 21:27:01 12.3 C 3.37 g/m*3 12.3 C 0 km/h
1244 27-03-2007 21:32:02 12.3 C 3.69 g/m*3 12.3 C 0 km/h
1245 27-03-2007 21:37:02 12.2 C 3.56 g/m*3 12.2 C 0 km/h
1246 27-03-2007 21:42:02 12.1 C 3.75 g/m*3 12.1 C 0 km/h
1247 27-03-2007 21:47:01 12 C 3.73 g/m*3 12 C 0 km/h
1248 27-03-2007 21:52:01 11.9 C 3.71 g/m*3 11.9 C 0 km/h
1249 27-03-2007 21:57:01 12 C 3.62 g/m*3 12 C 0 km/h
1250 27-03-2007 22:02:01 11.9 C 3.71 g/m*3 11.9 C 0 km/h
Sensor: Nr:Datum:Temp:Abs-Feuchte:Windchill:Wind:
Aussen-T/F 1251 27-03-2007 22:07:01 11.8 C 3.58 g/m*3 11.8 C 0 km/h
1252 27-03-2007 22:12:01 11.8 C 3.79 g/m*3 11.8 C 0 km/h
1253 27-03-2007 22:17:02 11.7 C 3.87 g/m*3 11.7 C 0 km/h
1254 27-03-2007 22:22:02 11.4 C 3.8 g/m*3 11.4 C 0 km/h
1255 27-03-2007 22:27:02 11.3 C 3.77 g/m*3 11.3 C 0 km/h
1256 27-03-2007 22:32:02 11.4 C 3.8 g/m*3 11.4 C 0 km/h
1257 27-03-2007 22:37:02 11.4 C 3.7 g/m*3 11.4 C 0 km/h
1258 27-03-2007 22:42:02 11.4 C 3.8 g/m*3 11.4 C 0 km/h
1259 27-03-2007 22:47:02 11.5 C 3.72 g/m*3 11.5 C 0 km/h
1260 27-03-2007 22:52:02 11.2 C 3.95 g/m*3 11.2 C 0 km/h
1261 27-03-2007 22:57:02 11.1 C 3.83 g/m*3 11.1 C 0 km/h
1262 27-03-2007 23:02:03 11.2 C 3.85 g/m*3 11.2 C 0 km/h
1263 27-03-2007 23:07:03 11 C 3.8 g/m*3 11 C 0 km/h
1264 27-03-2007 23:12:03 11 C 3.8 g/m*3 11 C 0 km/h
1265 27-03-2007 23:17:02 11 C 3.8 g/m*3 11 C 0 km/h
1266 27-03-2007 23:22:02 11 C 3.7 g/m*3 11 C 0 km/h
1267 27-03-2007 23:27:02 10.8 C 3.95 g/m*3 10.8 C 0 km/h
1268 27-03-2007 23:32:02 10.8 C 3.95 g/m*3 10.8 C 0 km/h
1269 27-03-2007 23:37:02 10.6 C 3.9 g/m*3 10.6 C 0 km/h
1270 27-03-2007 23:42:03 10.5 C 3.88 g/m*3 10.5 C 0 km/h
1271 27-03-2007 23:47:02 10.5 C 3.78 g/m*3 10.5 C 0 km/h
1272 27-03-2007 23:52:02 10.5 C 3.88 g/m*3 10.5 C 0 km/h
1273 27-03-2007 23:57:02 10.3 C 3.93 g/m*3 10.3 C 0 km/h
1274 28-03-2007 00:02:02 10.2 C 3.81 g/m*3 10.2 C 0 km/h
1275 28-03-2007 00:07:02 10.2 C 3.9 g/m*3 10.2 C 0 km/h
Sensor: Nr:Datum:Temp:Abs-Feuchte:Windchill:Wind:
Aussen-T/F 1276 28-03-2007 00:12:02 10 C 3.95 g/m*3 10 C 0 km/h
1277 28-03-2007 00:17:02 9.8 C 3.99 g/m*3 9.8 C 0 km/h
1278 28-03-2007 00:22:03 9.8 C 3.99 g/m*3 9.8 C 0 km/h
1279 28-03-2007 00:27:03 9.6 C 3.85 g/m*3 9.6 C 0 km/h
1280 28-03-2007 00:32:02 9.6 C 3.94 g/m*3 9.6 C 0 km/h
1281 28-03-2007 00:37:02 9.6 C 3.85 g/m*3 9.6 C 0 km/h
1282 28-03-2007 00:42:02 9.5 C 3.91 g/m*3 9.5 C 0 km/h
1283 28-03-2007 00:47:03 9.4 C 3.89 g/m*3 9.4 C 0 km/h
1284 28-03-2007 00:52:03 9.4 C 3.98 g/m*3 9.4 C 0 km/h
1285 28-03-2007 00:57:03 9.4 C 4.07 g/m*3 9.4 C 0 km/h
1286 28-03-2007 01:02:02 9.2 C 4.02 g/m*3 9.2 C 0 km/h
1287 28-03-2007 01:07:03 9.1 C 3.99 g/m*3 9.1 C 0 km/h
1288 28-03-2007 01:12:03 9 C 3.97 g/m*3 9 C 0 km/h
1289 28-03-2007 01:17:02 8.9 C 4.03 g/m*3 8.9 C 0 km/h
1290 28-03-2007 01:22:02 8.8 C 4.09 g/m*3 8.8 C 0 km/h
1291 28-03-2007 01:27:02 8.7 C 4.06 g/m*3 8.7 C 0 km/h
1292 28-03-2007 01:32:03 8.5 C 4.1 g/m*3 8.5 C 0 km/h
1293 28-03-2007 01:37:03 8.4 C 3.99 g/m*3 8.4 C 0 km/h
1294 28-03-2007 01:42:03 8.4 C 3.99 g/m*3 8.4 C 0 km/h
1295 28-03-2007 01:47:02 8.4 C 4.07 g/m*3 8.4 C 0 km/h
1296 28-03-2007 01:52:02 8.4 C 4.07 g/m*3 8.4 C 0 km/h
1297 28-03-2007 01:57:02 8.4 C 3.99 g/m*3 8.4 C 0 km/h
1298 28-03-2007 02:02:01 8.4 C 3.9 g/m*3 8.4 C 0 km/h
1299 28-03-2007 02:07:01 8.3 C 3.88 g/m*3 8.3 C 0 km/h
1300 28-03-2007 02:12:01 8.2 C 3.85 g/m*3 8.2 C 0 km/h
Sensor: Nr:Datum:Temp:Abs-Feuchte:Windchill:Wind:
Aussen-T/F 1301 28-03-2007 02:17:02 8.2 C 3.85 g/m*3 8.2 C 0 km/h
1302 28-03-2007 02:22:02 8.1 C 3.83 g/m*3 8.1 C 0 km/h
1303 28-03-2007 02:27:02 8.1 C 3.91 g/m*3 8.1 C 0 km/h
1304 28-03-2007 02:32:02 8 C 3.89 g/m*3 8 C 0 km/h
1305 28-03-2007 02:37:02 8 C 3.89 g/m*3 8 C 0 km/h
1306 28-03-2007 02:42:02 8 C 3.97 g/m*3 8 C 0 km/h
1307 28-03-2007 02:47:01 8 C 3.89 g/m*3 8 C 0 km/h
1308 28-03-2007 02:52:01 8.1 C 3.91 g/m*3 8.1 C 0 km/h
1309 28-03-2007 02:57:01 8 C 3.89 g/m*3 8 C 0 km/h
1310 28-03-2007 03:02:02 8 C 3.89 g/m*3 8 C 0 km/h
1311 28-03-2007 03:07:02 8 C 3.8 g/m*3 8 C 0 km/h
1312 28-03-2007 03:12:02 8 C 3.89 g/m*3 8 C 0 km/h
1313 28-03-2007 03:17:02 8 C 3.8 g/m*3 8 C 0 km/h
1314 28-03-2007 03:22:02 8 C 3.8 g/m*3 8 C 0 km/h
1315 28-03-2007 03:27:02 7.9 C 3.86 g/m*3 7.9 C 0 km/h
1316 28-03-2007 03:32:02 7.8 C 3.92 g/m*3 7.8 C 0 km/h
1317 28-03-2007 03:37:02 7.7 C 3.89 g/m*3 7.7 C 0 km/h
1318 28-03-2007 03:42:02 7.6 C 3.87 g/m*3 7.6 C 0 km/h
1319 28-03-2007 03:47:02 7.6 C 3.87 g/m*3 7.6 C 0 km/h
1320 28-03-2007 03:52:02 7.5 C 3.84 g/m*3 7.5 C 0 km/h
1321 28-03-2007 03:57:02 7.4 C 3.98 g/m*3 7.4 C 0 km/h
1322 28-03-2007 04:02:01 7.3 C 3.95 g/m*3 7.3 C 0 km/h
1323 28-03-2007 04:07:01 7.2 C 4 g/m*3 7.2 C 0 km/h
1324 28-03-2007 04:12:02 7.1 C 3.9 g/m*3 7.1 C 0 km/h
1325 28-03-2007 04:17:02 7.1 C 3.98 g/m*3 7.1 C 0 km/h
Sensor: Nr:Datum:Temp:Abs-Feuchte:Windchill:Wind:
Aussen-T/F 1326 28-03-2007 04:22:02 7.1 C 3.98 g/m*3 7.1 C 0 km/h
1327 28-03-2007 04:27:02 7 C 3.87 g/m*3 7 C 0 km/h
1328 28-03-2007 04:32:02 7 C 3.87 g/m*3 7 C 0 km/h
1329 28-03-2007 04:37:02 7 C 3.95 g/m*3 7 C 0 km/h
1330 28-03-2007 04:42:02 6.8 C 3.98 g/m*3 6.8 C 0 km/h
1331 28-03-2007 04:47:02 6.8 C 3.98 g/m*3 6.8 C 0 km/h
1332 28-03-2007 04:52:02 6.7 C 3.88 g/m*3 6.7 C 0 km/h
1333 28-03-2007 04:57:02 6.7 C 3.95 g/m*3 6.7 C 0 km/h
1334 28-03-2007 05:02:02 6.7 C 3.95 g/m*3 6.7 C 0 km/h
1335 28-03-2007 05:07:02 6.6 C 3.93 g/m*3 6.6 C 0 km/h
1336 28-03-2007 05:12:02 6.5 C 3.9 g/m*3 6.5 C 0 km/h
1337 28-03-2007 05:17:01 6.6 C 3.93 g/m*3 6.6 C 0 km/h
1338 28-03-2007 05:22:01 6.5 C 3.9 g/m*3 6.5 C 0 km/h
1339 28-03-2007 05:27:02 6.6 C 3.93 g/m*3 6.6 C 0 km/h
1340 28-03-2007 05:32:01 6.5 C 3.9 g/m*3 6.5 C 0 km/h
1341 28-03-2007 05:37:01 6.4 C 3.95 g/m*3 6.4 C 0 km/h
1342 28-03-2007 05:42:02 6.3 C 4 g/m*3 6.3 C 0 km/h
1343 28-03-2007 05:47:02 6.3 C 4 g/m*3 6.3 C 0 km/h
1344 28-03-2007 05:52:02 6.2 C 3.97 g/m*3 6.2 C 0 km/h
1345 28-03-2007 05:57:02 5.9 C 4.04 g/m*3 5.9 C 0 km/h
1346 28-03-2007 06:02:01 5.9 C 4.04 g/m*3 5.9 C 0 km/h
1347 28-03-2007 06:07:01 5.7 C 4.06 g/m*3 5.7 C 0 km/h
1348 28-03-2007 06:12:01 5.5 C 4.07 g/m*3 5.5 C 0 km/h
1349 28-03-2007 06:17:01 5.3 C 4.16 g/m*3 5.3 C 0 km/h
1350 28-03-2007 06:22:01 5.3 C 4.16 g/m*3 5.3 C 0 km/h
Sensor: Nr:Datum:Temp:Abs-Feuchte:Windchill:Wind:
Aussen-T/F 1351 28-03-2007 06:27:01 5.1 C 4.1 g/m*3 5.1 C 0 km/h
1352 28-03-2007 06:32:02 5 C 4.14 g/m*3 5 C 0 km/h
1353 28-03-2007 06:37:02 5 C 4.14 g/m*3 5 C 0 km/h
1354 28-03-2007 06:42:02 4.8 C 4.22 g/m*3 4.8 C 0 km/h
1355 28-03-2007 06:47:01 4.8 C 4.22 g/m*3 4.8 C 0 km/h
1356 28-03-2007 06:52:01 4.7 C 4.2 g/m*3 4.7 C 0 km/h
1357 28-03-2007 06:57:01 4.6 C 4.23 g/m*3 4.6 C 0 km/h
1358 28-03-2007 07:02:02 4.5 C 4.34 g/m*3 4.5 C 0 km/h
1359 28-03-2007 07:07:02 4.4 C 4.31 g/m*3 4.4 C 0 km/h
1360 28-03-2007 07:12:02 4.3 C 4.28 g/m*3 4.3 C 0 km/h
1361 28-03-2007 07:17:02 4.3 C 4.35 g/m*3 4.3 C 0 km/h
1362 28-03-2007 07:22:02 4.2 C 4.32 g/m*3 4.2 C 0 km/h
1363 28-03-2007 07:27:02 4.2 C 4.32 g/m*3 4.2 C 0 km/h
1364 28-03-2007 07:32:02 4.2 C 4.32 g/m*3 4.2 C 0 km/h
1365 28-03-2007 07:37:02 4.1 C 4.42 g/m*3 4.1 C 0 km/h
1366 28-03-2007 07:42:02 4.1 C 4.42 g/m*3 4.1 C 0 km/h
1367 28-03-2007 07:47:01 4 C 4.32 g/m*3 4 C 0 km/h
1368 28-03-2007 07:52:01 4.1 C 4.35 g/m*3 4.1 C 0 km/h
1369 28-03-2007 07:57:01 4.1 C 4.42 g/m*3 4.1 C 0 km/h
1370 28-03-2007 08:02:02 4.1 C 4.35 g/m*3 4.1 C 0 km/h
1371 28-03-2007 08:07:02 4.1 C 4.29 g/m*3 4.1 C 0 km/h
1372 28-03-2007 08:12:02 4.2 C 4.32 g/m*3 4.2 C 0 km/h
1373 28-03-2007 08:17:02 4.2 C 4.32 g/m*3 4.2 C 0 km/h
1374 28-03-2007 08:22:02 4.2 C 4.32 g/m*3 4.2 C 0 km/h
1375 28-03-2007 08:27:02 4.2 C 4.25 g/m*3 4.2 C 0 km/h
Sensor: Nr:Datum:Temp:Abs-Feuchte:Windchill:Wind:
Aussen-T/F 1376 28-03-2007 08:32:01 4.2 C 4.25 g/m*3 4.2 C 0 km/h
1377 28-03-2007 08:37:01 4.3 C 4.28 g/m*3 4.3 C 0 km/h
1378 28-03-2007 08:42:01 4.4 C 4.37 g/m*3 4.4 C 0 km/h
1379 28-03-2007 08:47:02 4.4 C 4.31 g/m*3 4.4 C 0 km/h
1380 28-03-2007 08:52:02 4.5 C 4.34 g/m*3 4.5 C 0 km/h
1381 28-03-2007 08:57:02 4.5 C 4.34 g/m*3 4.5 C 0 km/h
1382 28-03-2007 09:02:02 4.6 C 4.37 g/m*3 4.6 C 0 km/h
1383 28-03-2007 09:07:02 4.6 C 4.37 g/m*3 4.6 C 0 km/h
1384 28-03-2007 09:12:02 4.8 C 4.43 g/m*3 4.8 C 0 km/h
1385 28-03-2007 09:17:01 4.8 C 4.43 g/m*3 4.8 C 0 km/h
1386 28-03-2007 09:22:01 4.9 C 4.46 g/m*3 4.9 C 0 km/h
1387 28-03-2007 09:27:02 5 C 4.35 g/m*3 5 C 0 km/h
1388 28-03-2007 09:32:01 5.3 C 4.44 g/m*3 5.3 C 0 km/h
1389 28-03-2007 09:37:01 5.4 C 4.47 g/m*3 5.4 C 0 km/h
1390 28-03-2007 09:42:01 5.7 C 4.41 g/m*3 5.7 C 0 km/h
1391 28-03-2007 09:47:02 6 C 4.5 g/m*3 6 C 0 km/h
1392 28-03-2007 09:52:02 6.2 C 4.49 g/m*3 6.2 C 0 km/h
1393 28-03-2007 09:57:02 6.4 C 4.47 g/m*3 6.4 C 0 km/h
1394 28-03-2007 10:02:01 6.7 C 4.41 g/m*3 6.7 C 0 km/h
1395 28-03-2007 10:07:02 7 C 4.11 g/m*3 7 C 0 km/h
1396 28-03-2007 10:12:02 7.3 C 4.19 g/m*3 7.3 C 0 km/h
1397 28-03-2007 10:17:01 7.3 C 4.19 g/m*3 7.3 C 0 km/h
1398 28-03-2007 10:22:01 7.6 C 4.27 g/m*3 7.6 C 0 km/h
1399 28-03-2007 10:27:01 7.8 C 4.24 g/m*3 7.8 C 0 km/h
1400 28-03-2007 10:32:01 8 C 3.97 g/m*3 8 C 0 km/h
Sensor: Nr:Datum:Temp:Abs-Feuchte:Windchill:Wind:
Aussen-T/F 1401 28-03-2007 10:37:01 8.3 C 3.96 g/m*3 8.3 C 0 km/h
1402 28-03-2007 10:42:01 8.4 C 3.99 g/m*3 8.4 C 0 km/h
1403 28-03-2007 10:47:01 8.6 C 3.95 g/m*3 8.6 C 0 km/h
1404 28-03-2007 10:52:02 8.9 C 4.12 g/m*3 8.9 C 0 km/h
1405 28-03-2007 10:57:02 9 C 4.14 g/m*3 9 C 0 km/h
1406 28-03-2007 11:02:01 9.3 C 4.13 g/m*3 9.3 C 0 km/h
1407 28-03-2007 11:07:01 9.7 C 4.15 g/m*3 9.7 C 0 km/h
1408 28-03-2007 11:12:01 10 C 4.23 g/m*3 10 C 0 km/h
1409 28-03-2007 11:17:01 10.2 C 4 g/m*3 10.2 C 0 km/h
1410 28-03-2007 11:22:01 10.8 C 3.95 g/m*3 10.8 C 0 km/h
1411 28-03-2007 11:27:01 11.2 C 3.75 g/m*3 11.2 C 0 km/h
1412 28-03-2007 11:32:02 11.4 C 3.9 g/m*3 11.4 C 0 km/h
1413 28-03-2007 11:37:02 11.6 C 3.74 g/m*3 11.6 C 0 km/h
1414 28-03-2007 11:42:02 12 C 3.73 g/m*3 12 C 0 km/h
1415 28-03-2007 11:47:01 12.1 C 3.86 g/m*3 12.1 C 0 km/h
1416 28-03-2007 11:52:01 12.4 C 3.71 g/m*3 12.4 C 0 km/h
1417 28-03-2007 11:57:01 12.5 C 3.63 g/m*3 12.5 C 0 km/h
1418 28-03-2007 12:02:01 12.8 C 3.81 g/m*3 12.8 C 0 km/h
1419 28-03-2007 12:07:01 12.8 C 3.81 g/m*3 12.8 C 0 km/h
1420 28-03-2007 12:12:01 13.2 C 3.67 g/m*3 13.2 C 0 km/h
1421 28-03-2007 12:17:02 13.4 C 3.6 g/m*3 13.4 C 0 km/h
1422 28-03-2007 12:22:02 13.4 C 3.6 g/m*3 13.4 C 0 km/h
1423 28-03-2007 12:27:02 13.7 C 3.67 g/m*3 13.7 C 0 km/h
1424 28-03-2007 12:32:02 14 C 3.62 g/m*3 14 C 0 km/h
1425 28-03-2007 12:37:02 14.1 C 3.76 g/m*3 14.1 C 0 km/h
Sensor: Nr:Datum:Temp:Abs-Feuchte:Windchill:Wind:
Aussen-T/F 1426 28-03-2007 12:42:02 14.1 C 3.64 g/m*3 14.1 C 0 km/h
1427 28-03-2007 12:47:01 14.3 C 3.69 g/m*3 14.3 C 0 km/h
1428 28-03-2007 12:52:01 14.3 C 3.56 g/m*3 14.3 C 0 km/h
1429 28-03-2007 12:57:01 14.5 C 3.73 g/m*3 14.5 C 0 km/h
1430 28-03-2007 13:02:02 14.6 C 3.5 g/m*3 14.6 C 0 km/h
1431 28-03-2007 13:07:02 14.8 C 3.67 g/m*3 14.8 C 0 km/h
1432 28-03-2007 13:12:02 15 C 3.59 g/m*3 15 C 0 km/h
1433 28-03-2007 13:17:02 15.2 C 3.63 g/m*3 15.2 C 0 km/h
1434 28-03-2007 13:22:02 15.4 C 3.55 g/m*3 15.4 C 0 km/h
1435 28-03-2007 13:27:02 15.5 C 3.57 g/m*3 15.5 C 0 km/h
1436 28-03-2007 13:32:01 15.8 C 3.77 g/m*3 15.8 C 0 km/h
1437 28-03-2007 13:37:02 16 C 3.54 g/m*3 16 C 0 km/h
1438 28-03-2007 13:42:02 16.2 C 3.59 g/m*3 16.2 C 0 km/h
1439 28-03-2007 13:47:02 16.5 C 3.65 g/m*3 16.5 C 0 km/h
1440 28-03-2007 13:52:02 16.9 C 3.6 g/m*3 16.9 C 0 km/h
1441 28-03-2007 13:57:02 17.1 C 3.64 g/m*3 17.1 C 0 km/h
1442 28-03-2007 14:02:02 17.3 C 3.68 g/m*3 17.3 C 0 km/h
1443 28-03-2007 14:07:02 17.7 C 3.47 g/m*3 17.7 C 0 km/h
1444 28-03-2007 14:12:02 17.8 C 3.04 g/m*3 17.8 C 0 km/h
1445 28-03-2007 14:17:01 17.9 C 3.05 g/m*3 17.9 C 0 km/h
1446 28-03-2007 14:22:02 18.1 C 3.09 g/m*3 18.1 C 0 km/h
1447 28-03-2007 14:27:02 18.3 C 3.13 g/m*3 18.3 C 0 km/h
1448 28-03-2007 14:32:01 18.4 C 3.15 g/m*3 18.4 C 0 km/h
1449 28-03-2007 14:37:01 18.8 C 3.22 g/m*3 18.8 C 0 km/h
1450 28-03-2007 14:42:01 18.8 C 3.22 g/m*3 18.8 C 0 km/h
Sensor: Nr:Datum:Temp:Abs-Feuchte:Windchill:Wind:
Aussen-T/F 1451 28-03-2007 14:47:02 18.8 C 3.22 g/m*3 18.8 C 0 km/h
1452 28-03-2007 14:52:02 18.9 C 3.24 g/m*3 18.9 C 0 km/h
1453 28-03-2007 14:57:02 18.9 C 3.24 g/m*3 18.9 C 0 km/h
1454 28-03-2007 15:02:01 19.3 C 3.32 g/m*3 19.3 C 0 km/h
1455 28-03-2007 15:07:01 19.4 C 3.34 g/m*3 19.4 C 0 km/h
1456 28-03-2007 15:12:01 19.1 C 3.28 g/m*3 19.1 C 0 km/h
1457 28-03-2007 15:17:01 19.1 C 3.28 g/m*3 19.1 C 0 km/h
1458 28-03-2007 15:22:01 19.2 C 3.3 g/m*3 19.2 C 0 km/h
1459 28-03-2007 15:27:01 19.4 C 3.34 g/m*3 19.4 C 0 km/h
1460 28-03-2007 15:32:01 19.7 C 3.4 g/m*3 19.7 C 0 km/h
1461 28-03-2007 15:37:01 20 C 3.46 g/m*3 20 C 0 km/h
1462 28-03-2007 15:42:01 20 C 3.46 g/m*3 20 C 0 km/h
1463 28-03-2007 15:47:01 20.6 C 3.58 g/m*3 20.6 C 0 km/h
1464 28-03-2007 15:52:02 20.8 C 3.62 g/m*3 20.8 C 0 km/h
1465 28-03-2007 15:57:02 21.1 C 3.69 g/m*3 21.1 C 0 km/h
1466 28-03-2007 16:02:01 21.4 C 3.75 g/m*3 21.4 C 0 km/h
1467 28-03-2007 16:07:01 21.8 C 3.84 g/m*3 21.8 C 0 km/h
1468 28-03-2007 16:12:01 21.8 C 3.84 g/m*3 21.8 C 0 km/h
1469 28-03-2007 16:17:01 21.5 C 3.77 g/m*3 21.5 C 0 km/h
1470 28-03-2007 16:22:01 21.5 C 3.77 g/m*3 21.5 C 0 km/h
1471 28-03-2007 16:27:01 21.5 C 3.77 g/m*3 21.5 C 0 km/h
1472 28-03-2007 16:32:02 21.9 C 3.86 g/m*3 21.9 C 0 km/h
1473 28-03-2007 16:37:02 22 C 3.88 g/m*3 22 C 0 km/h
1474 28-03-2007 16:42:02 21.7 C 3.82 g/m*3 21.7 C 0 km/h
1475 28-03-2007 16:47:01 21.7 C 3.82 g/m*3 21.7 C 0 km/h
Sensor: Nr:Datum:Temp:Abs-Feuchte:Windchill:Wind:
Aussen-T/F 1476 28-03-2007 16:52:01 22 C 3.88 g/m*3 22 C 0 km/h
1477 28-03-2007 16:57:01 21.9 C 3.86 g/m*3 21.9 C 0 km/h
1478 28-03-2007 17:02:01 22 C 3.88 g/m*3 22 C 0 km/h
1479 28-03-2007 17:07:01 21.7 C 3.82 g/m*3 21.7 C 0 km/h
1480 28-03-2007 17:12:01 21.8 C 3.84 g/m*3 21.8 C 0 km/h
1481 28-03-2007 17:17:02 21.8 C 3.84 g/m*3 21.8 C 0 km/h
1482 28-03-2007 17:22:02 21.7 C 3.82 g/m*3 21.7 C 0 km/h
1483 28-03-2007 17:27:02 22.1 C 3.9 g/m*3 22.1 C 0 km/h
1484 28-03-2007 17:32:02 21.9 C 3.86 g/m*3 21.9 C 0 km/h
1485 28-03-2007 17:37:02 21.7 C 3.82 g/m*3 21.7 C 0 km/h
1486 28-03-2007 17:42:02 21.7 C 3.82 g/m*3 21.7 C 0 km/h
1487 28-03-2007 17:47:01 21.6 C 3.79 g/m*3 21.6 C 0 km/h
1488 28-03-2007 17:52:01 21.6 C 3.79 g/m*3 21.6 C 0 km/h
1489 28-03-2007 17:57:01 21.2 C 3.71 g/m*3 21.2 C 0 km/h
1490 28-03-2007 18:02:02 20.7 C 3.6 g/m*3 20.7 C 0 km/h
1491 28-03-2007 18:07:02 20.9 C 3.64 g/m*3 20.9 C 0 km/h
1492 28-03-2007 18:12:02 21 C 3.66 g/m*3 21 C 0 km/h
1493 28-03-2007 18:17:02 21.1 C 3.69 g/m*3 21.1 C 0 km/h
1494 28-03-2007 18:22:02 21 C 3.66 g/m*3 21 C 0 km/h
1495 28-03-2007 18:27:02 20.9 C 3.64 g/m*3 20.9 C 0 km/h
1496 28-03-2007 18:32:01 21 C 3.66 g/m*3 21 C 0 km/h
1497 28-03-2007 18:37:01 20.9 C 3.64 g/m*3 20.9 C 0 km/h
1498 28-03-2007 18:42:01 20.5 C 3.56 g/m*3 20.5 C 0 km/h
1499 28-03-2007 18:47:01 20.5 C 3.56 g/m*3 20.5 C 0 km/h
1500 28-03-2007 18:52:01 20.4 C 3.54 g/m*3 20.4 C 0 km/h
Sensor: Nr:Datum:Temp:Abs-Feuchte:Windchill:Wind:
Aussen-T/F 1501 28-03-2007 18:57:01 20.2 C 3.5 g/m*3 20.2 C 0 km/h
1502 28-03-2007 19:02:02 19.8 C 3.42 g/m*3 19.8 C 0 km/h
1503 28-03-2007 19:07:02 19.5 C 3.36 g/m*3 19.5 C 0 km/h
1504 28-03-2007 19:12:02 19.6 C 3.38 g/m*3 19.6 C 0 km/h
1505 28-03-2007 19:17:02 19.2 C 3.3 g/m*3 19.2 C 0 km/h
1506 28-03-2007 19:22:02 18.7 C 3.2 g/m*3 18.7 C 0 km/h
1507 28-03-2007 19:27:02 18.4 C 3.15 g/m*3 18.4 C 0 km/h
1508 28-03-2007 19:32:01 17.6 C 3 g/m*3 17.6 C 0 km/h
1509 28-03-2007 19:37:01 17 C 2.89 g/m*3 17 C 0 km/h
1510 28-03-2007 19:42:01 16.7 C 2.84 g/m*3 16.7 C 0 km/h
1511 28-03-2007 19:47:02 16 C 2.72 g/m*3 16 C 0 km/h
1512 28-03-2007 19:52:02 15.4 C 2.76 g/m*3 15.4 C 0 km/h
1513 28-03-2007 19:57:02 15 C 2.95 g/m*3 15 C 0 km/h
1514 28-03-2007 20:02:02 14.7 C 3.15 g/m*3 14.7 C 0 km/h
1515 28-03-2007 20:07:02 14.3 C 3.07 g/m*3 14.3 C 0 km/h
1516 28-03-2007 20:12:02 14 C 3.02 g/m*3 14 C 0 km/h
1517 28-03-2007 20:17:01 13.9 C 3 g/m*3 13.9 C 0 km/h
1518 28-03-2007 20:22:01 13.6 C 3.06 g/m*3 13.6 C 0 km/h
1519 28-03-2007 20:27:01 13.5 C 3.04 g/m*3 13.5 C 0 km/h
1520 28-03-2007 20:32:01 13.4 C 3.25 g/m*3 13.4 C 0 km/h
1521 28-03-2007 20:37:01 13.1 C 3.65 g/m*3 13.1 C 0 km/h
1522 28-03-2007 20:42:01 12.8 C 3.7 g/m*3 12.8 C 0 km/h
1523 28-03-2007 20:47:02 12.7 C 3.67 g/m*3 12.7 C 0 km/h
1524 28-03-2007 20:52:02 12.5 C 3.74 g/m*3 12.5 C 0 km/h
1525 28-03-2007 20:57:02 12.5 C 3.74 g/m*3 12.5 C 0 km/h
Sensor: Nr:Datum:Temp:Abs-Feuchte:Windchill:Wind:
Aussen-T/F 1526 28-03-2007 21:02:01 12.3 C 3.58 g/m*3 12.3 C 0 km/h
1527 28-03-2007 21:07:01 12.3 C 3.58 g/m*3 12.3 C 0 km/h
1528 28-03-2007 21:12:01 11.9 C 3.71 g/m*3 11.9 C 0 km/h
1529 28-03-2007 21:17:01 11.8 C 3.79 g/m*3 11.8 C 0 km/h
1530 28-03-2007 21:22:01 11.8 C 3.79 g/m*3 11.8 C 0 km/h
1531 28-03-2007 21:27:01 11.8 C 3.89 g/m*3 11.8 C 0 km/h
1532 28-03-2007 21:32:02 11.6 C 3.95 g/m*3 11.6 C 0 km/h
1533 28-03-2007 21:37:02 11.5 C 3.93 g/m*3 11.5 C 0 km/h
1534 28-03-2007 21:42:02 11.3 C 3.88 g/m*3 11.3 C 0 km/h
1535 28-03-2007 21:47:02 11.1 C 3.83 g/m*3 11.1 C 0 km/h
1536 28-03-2007 21:52:02 11 C 3.7 g/m*3 11 C 0 km/h
1537 28-03-2007 21:57:02 10.9 C 3.98 g/m*3 10.9 C 0 km/h
1538 28-03-2007 22:02:01 10.8 C 3.95 g/m*3 10.8 C 0 km/h
1539 28-03-2007 22:07:02 10.8 C 3.85 g/m*3 10.8 C 0 km/h
1540 28-03-2007 22:12:02 10.7 C 3.83 g/m*3 10.7 C 0 km/h
1541 28-03-2007 22:17:01 10.6 C 4 g/m*3 10.6 C 0 km/h
1542 28-03-2007 22:22:01 10.5 C 3.98 g/m*3 10.5 C 0 km/h
1543 28-03-2007 22:27:01 10.5 C 3.88 g/m*3 10.5 C 0 km/h
1544 28-03-2007 22:32:01 10.3 C 4.02 g/m*3 10.3 C 0 km/h
1545 28-03-2007 22:37:01 10.3 C 4.12 g/m*3 10.3 C 0 km/h
1546 28-03-2007 22:42:01 10.3 C 4.12 g/m*3 10.3 C 0 km/h
1547 28-03-2007 22:47:01 10.2 C 4.19 g/m*3 10.2 C 0 km/h
1548 28-03-2007 22:52:02 9.9 C 4.11 g/m*3 9.9 C 0 km/h
1549 28-03-2007 22:57:02 9.8 C 4.18 g/m*3 9.8 C 0 km/h
1550 28-03-2007 23:02:01 9.6 C 4.12 g/m*3 9.6 C 0 km/h
Sensor: Nr:Datum:Temp:Abs-Feuchte:Windchill:Wind:
Aussen-T/F 1551 28-03-2007 23:07:01 9.6 C 4.21 g/m*3 9.6 C 0 km/h
1552 28-03-2007 23:12:01 9.5 C 4.19 g/m*3 9.5 C 0 km/h
1553 28-03-2007 23:17:01 9.4 C 4.16 g/m*3 9.4 C 0 km/h
1554 28-03-2007 23:22:01 9.4 C 4.16 g/m*3 9.4 C 0 km/h
1555 28-03-2007 23:27:01 9 C 4.23 g/m*3 9 C 0 km/h
1556 28-03-2007 23:32:02 8.7 C 4.24 g/m*3 8.7 C 0 km/h
1557 28-03-2007 23:37:02 8.6 C 4.21 g/m*3 8.6 C 0 km/h
1558 28-03-2007 23:42:02 8.6 C 4.12 g/m*3 8.6 C 0 km/h
1559 28-03-2007 23:47:01 8.7 C 4.15 g/m*3 8.7 C 0 km/h
1560 28-03-2007 23:52:01 8.8 C 4.18 g/m*3 8.8 C 0 km/h
1561 28-03-2007 23:57:01 8.9 C 4.03 g/m*3 8.9 C 0 km/h
1562 29-03-2007 00:02:02 8.9 C 4.03 g/m*3 8.9 C 0 km/h
1563 29-03-2007 00:07:02 8.9 C 4.12 g/m*3 8.9 C 0 km/h
1564 29-03-2007 00:12:02 8.9 C 4.12 g/m*3 8.9 C 0 km/h
1565 29-03-2007 00:17:02 8.9 C 4.2 g/m*3 8.9 C 0 km/h
1566 29-03-2007 00:22:02 8.7 C 4.15 g/m*3 8.7 C 0 km/h
1567 29-03-2007 00:27:02 8.6 C 4.12 g/m*3 8.6 C 0 km/h
1568 29-03-2007 00:32:02 8.6 C 4.12 g/m*3 8.6 C 0 km/h
1569 29-03-2007 00:37:02 8.4 C 4.07 g/m*3 8.4 C 0 km/h
1570 29-03-2007 00:42:02 8.3 C 4.13 g/m*3 8.3 C 0 km/h
1571 29-03-2007 00:47:02 8.2 C 4.1 g/m*3 8.2 C 0 km/h
1572 29-03-2007 00:52:02 8.1 C 4.16 g/m*3 8.1 C 0 km/h
1573 29-03-2007 00:57:02 8 C 4.13 g/m*3 8 C 0 km/h
1574 29-03-2007 01:02:02 7.9 C 4.19 g/m*3 7.9 C 0 km/h
1575 29-03-2007 01:07:02 7.7 C 4.14 g/m*3 7.7 C 0 km/h
Sensor: Nr:Datum:Temp:Abs-Feuchte:Windchill:Wind:
Aussen-T/F 1576 29-03-2007 01:12:02 7.7 C 4.14 g/m*3 7.7 C 0 km/h
1577 29-03-2007 01:17:02 7.5 C 4.08 g/m*3 7.5 C 0 km/h
1578 29-03-2007 01:22:02 7.4 C 4.14 g/m*3 7.4 C 0 km/h
1579 29-03-2007 01:27:02 7.4 C 4.14 g/m*3 7.4 C 0 km/h
1580 29-03-2007 01:32:01 7.1 C 4.21 g/m*3 7.1 C 0 km/h
1581 29-03-2007 01:37:02 7.1 C 4.21 g/m*3 7.1 C 0 km/h
1582 29-03-2007 01:42:02 7.1 C 4.29 g/m*3 7.1 C 0 km/h
1583 29-03-2007 01:47:01 6.9 C 4.31 g/m*3 6.9 C 0 km/h
1584 29-03-2007 01:52:01 6.8 C 4.28 g/m*3 6.8 C 0 km/h
1585 29-03-2007 01:57:02 6.6 C 4.3 g/m*3 6.6 C 0 km/h
1586 29-03-2007 02:02:01 6.6 C 4.3 g/m*3 6.6 C 0 km/h
1587 29-03-2007 02:07:01 6.3 C 4.37 g/m*3 6.3 C 0 km/h
1588 29-03-2007 02:12:02 6.3 C 4.37 g/m*3 6.3 C 0 km/h
1589 29-03-2007 02:17:02 6.2 C 4.34 g/m*3 6.2 C 0 km/h
1590 29-03-2007 02:22:02 6.2 C 4.34 g/m*3 6.2 C 0 km/h
1591 29-03-2007 02:27:02 5.9 C 4.4 g/m*3 5.9 C 0 km/h
1592 29-03-2007 02:32:02 5.9 C 4.4 g/m*3 5.9 C 0 km/h
1593 29-03-2007 02:37:02 5.8 C 4.44 g/m*3 5.8 C 0 km/h
1594 29-03-2007 02:42:02 5.7 C 4.41 g/m*3 5.7 C 0 km/h
1595 29-03-2007 02:47:01 5.6 C 4.45 g/m*3 5.6 C 0 km/h
1596 29-03-2007 02:52:01 5.5 C 4.35 g/m*3 5.5 C 0 km/h
1597 29-03-2007 02:57:01 5.6 C 4.45 g/m*3 5.6 C 0 km/h
1598 29-03-2007 03:02:02 5.6 C 4.45 g/m*3 5.6 C 0 km/h
1599 29-03-2007 03:07:02 5.6 C 4.45 g/m*3 5.6 C 0 km/h
1600 29-03-2007 03:12:02 5.5 C 4.42 g/m*3 5.5 C 0 km/h
Sensor: Nr:Datum:Temp:Abs-Feuchte:Windchill:Wind:
Aussen-T/F 1601 29-03-2007 03:17:02 5.5 C 4.49 g/m*3 5.5 C 0 km/h
1602 29-03-2007 03:22:02 5.3 C 4.37 g/m*3 5.3 C 0 km/h
1603 29-03-2007 03:27:02 5.2 C 4.27 g/m*3 5.2 C 0 km/h
1604 29-03-2007 03:32:02 5.2 C 4.34 g/m*3 5.2 C 0 km/h
1605 29-03-2007 03:37:02 5.2 C 4.34 g/m*3 5.2 C 0 km/h
1606 29-03-2007 03:42:02 5.1 C 4.31 g/m*3 5.1 C 0 km/h
1607 29-03-2007 03:47:02 5.1 C 4.38 g/m*3 5.1 C 0 km/h
1608 29-03-2007 03:52:02 5.1 C 4.38 g/m*3 5.1 C 0 km/h
1609 29-03-2007 03:57:02 5.1 C 4.38 g/m*3 5.1 C 0 km/h
1610 29-03-2007 04:02:01 5.2 C 4.48 g/m*3 5.2 C 0 km/h
1611 29-03-2007 04:07:01 5.1 C 4.45 g/m*3 5.1 C 0 km/h
1612 29-03-2007 04:12:01 5.1 C 4.45 g/m*3 5.1 C 0 km/h
1613 29-03-2007 04:17:02 5.1 C 4.45 g/m*3 5.1 C 0 km/h
1614 29-03-2007 04:22:02 5 C 4.48 g/m*3 5 C 0 km/h
1615 29-03-2007 04:27:02 5 C 4.48 g/m*3 5 C 0 km/h
1616 29-03-2007 04:32:02 4.9 C 4.59 g/m*3 4.9 C 0 km/h
1617 29-03-2007 04:37:02 5 C 4.62 g/m*3 5 C 0 km/h
1618 29-03-2007 04:42:02 5 C 4.62 g/m*3 5 C 0 km/h
1619 29-03-2007 04:47:02 4.9 C 4.66 g/m*3 4.9 C 0 km/h
1620 29-03-2007 04:52:02 5 C 4.62 g/m*3 5 C 0 km/h
1621 29-03-2007 04:57:02 5 C 4.69 g/m*3 5 C 0 km/h
1622 29-03-2007 05:02:02 5 C 4.69 g/m*3 5 C 0 km/h
1623 29-03-2007 05:07:02 4.7 C 4.66 g/m*3 4.7 C 0 km/h
1624 29-03-2007 05:12:02 4.4 C 4.64 g/m*3 4.4 C 0 km/h
1625 29-03-2007 05:17:02 4.3 C 4.61 g/m*3 4.3 C 0 km/h
Sensor: Nr:Datum:Temp:Abs-Feuchte:Windchill:Wind:
Aussen-T/F 1626 29-03-2007 05:22:02 4.3 C 4.67 g/m*3 4.3 C 0 km/h
1627 29-03-2007 05:27:02 4 C 4.64 g/m*3 4 C 0 km/h
1628 29-03-2007 05:32:01 4 C 4.7 g/m*3 4 C 0 km/h
1629 29-03-2007 05:37:01 4.2 C 4.83 g/m*3 4.2 C 0 km/h
1630 29-03-2007 05:42:01 4.2 C 4.83 g/m*3 4.2 C 0 km/h
1631 29-03-2007 05:47:02 4 C 4.77 g/m*3 4 C 0 km/h
1632 29-03-2007 05:52:02 4 C 4.77 g/m*3 4 C 0 km/h
1633 29-03-2007 05:57:02 3.9 C 4.8 g/m*3 3.9 C 0 km/h
1634 29-03-2007 06:02:01 4 C 4.77 g/m*3 4 C 0 km/h
1635 29-03-2007 06:07:01 3.9 C 4.86 g/m*3 3.9 C 0 km/h
1636 29-03-2007 06:12:01 3.8 C 4.83 g/m*3 3.8 C 0 km/h
1637 29-03-2007 06:17:01 3.7 C 4.8 g/m*3 3.7 C 0 km/h
1638 29-03-2007 06:22:01 3.7 C 4.8 g/m*3 3.7 C 0 km/h
1639 29-03-2007 06:27:01 3.7 C 4.8 g/m*3 3.7 C 0 km/h
1640 29-03-2007 06:32:01 3.6 C 4.77 g/m*3 3.6 C 0 km/h
1641 29-03-2007 06:37:01 3.6 C 4.77 g/m*3 3.6 C 0 km/h
1642 29-03-2007 06:42:01 3.5 C 4.73 g/m*3 3.5 C 0 km/h
1643 29-03-2007 06:47:01 3.5 C 4.73 g/m*3 3.5 C 0 km/h
1644 29-03-2007 06:52:01 3.4 C 4.76 g/m*3 3.4 C 0 km/h
1645 29-03-2007 06:57:01 3.5 C 4.8 g/m*3 3.5 C 0 km/h
1646 29-03-2007 07:02:01 3.4 C 4.76 g/m*3 3.4 C 0 km/h
1647 29-03-2007 07:07:01 3.3 C 4.73 g/m*3 3.3 C 0 km/h
1648 29-03-2007 07:12:01 3.3 C 4.79 g/m*3 3.3 C 0 km/h
1649 29-03-2007 07:17:01 3.2 C 4.76 g/m*3 3.2 C 0 km/h
1650 29-03-2007 07:22:01 3.3 C 4.79 g/m*3 3.3 C 0 km/h
Sensor: Nr:Datum:Temp:Abs-Feuchte:Windchill:Wind:
Aussen-T/F 1651 29-03-2007 07:27:01 3.3 C 4.85 g/m*3 3.3 C 0 km/h
1652 29-03-2007 07:32:02 3.3 C 4.91 g/m*3 3.3 C 0 km/h
1653 29-03-2007 07:37:02 3.3 C 4.91 g/m*3 3.3 C 0 km/h
1654 29-03-2007 07:42:02 3.3 C 4.85 g/m*3 3.3 C 0 km/h
1655 29-03-2007 07:47:01 3.3 C 4.91 g/m*3 3.3 C 0 km/h
1656 29-03-2007 07:52:01 3.3 C 4.91 g/m*3 3.3 C 0 km/h
1657 29-03-2007 07:57:01 3.4 C 4.95 g/m*3 3.4 C 0 km/h
1658 29-03-2007 08:02:01 3.4 C 4.95 g/m*3 3.4 C 0 km/h
1659 29-03-2007 08:07:01 3.6 C 5.01 g/m*3 3.6 C 0 km/h
1660 29-03-2007 08:12:01 3.7 C 5.05 g/m*3 3.7 C 0 km/h
1661 29-03-2007 08:17:02 3.8 C 5.08 g/m*3 3.8 C 0 km/h
1662 29-03-2007 08:22:02 4.1 C 5.18 g/m*3 4.1 C 0 km/h
1663 29-03-2007 08:27:02 4.4 C 5.22 g/m*3 4.4 C 0 km/h
1664 29-03-2007 08:32:01 4.6 C 5.23 g/m*3 4.6 C 0 km/h
1665 29-03-2007 08:37:02 5 C 5.3 g/m*3 5 C 0 km/h
1666 29-03-2007 08:42:02 5.1 C 5.27 g/m*3 5.1 C 0 km/h
1667 29-03-2007 08:47:02 5.2 C 5.23 g/m*3 5.2 C 0 km/h
1668 29-03-2007 08:52:02 5.2 C 5.23 g/m*3 5.2 C 0 km/h
1669 29-03-2007 08:57:02 5.1 C 5.13 g/m*3 5.1 C 0 km/h
1670 29-03-2007 09:02:02 5.1 C 5.13 g/m*3 5.1 C 0 km/h
1671 29-03-2007 09:07:02 5.1 C 5.13 g/m*3 5.1 C 0 km/h
1672 29-03-2007 09:12:02 5.2 C 5.23 g/m*3 5.2 C 0 km/h
1673 29-03-2007 09:17:01 5.4 C 5.3 g/m*3 5.4 C 0 km/h
1674 29-03-2007 09:22:01 5.6 C 5.37 g/m*3 5.6 C 0 km/h
1675 29-03-2007 09:27:02 5.7 C 5.41 g/m*3 5.7 C 0 km/h
Sensor: Nr:Datum:Temp:Abs-Feuchte:Windchill:Wind:
Aussen-T/F 1676 29-03-2007 09:32:01 6.3 C 5.55 g/m*3 6.3 C 0 km/h
1677 29-03-2007 09:37:01 6.5 C 5.62 g/m*3 6.5 C 0 km/h
1678 29-03-2007 09:42:01 6.9 C 5.62 g/m*3 6.9 C 0 km/h
1679 29-03-2007 09:47:02 7.1 C 5.54 g/m*3 7.1 C 0 km/h
1680 29-03-2007 09:52:02 7.5 C 5.6 g/m*3 7.5 C 0 km/h
1681 29-03-2007 09:57:02 7.7 C 5.59 g/m*3 7.7 C 0 km/h
1682 29-03-2007 10:02:01 8 C 5.62 g/m*3 8 C 0 km/h
1683 29-03-2007 10:07:01 8.4 C 5.68 g/m*3 8.4 C 0 km/h
1684 29-03-2007 10:12:02 8.4 C 5.6 g/m*3 8.4 C 0 km/h
1685 29-03-2007 10:17:01 8.7 C 5.71 g/m*3 8.7 C 0 km/h
1686 29-03-2007 10:22:01 9 C 5.73 g/m*3 9 C 0 km/h
1687 29-03-2007 10:27:01 9 C 5.73 g/m*3 9 C 0 km/h
1688 29-03-2007 10:32:01 9.4 C 5.79 g/m*3 9.4 C 0 km/h
1689 29-03-2007 10:37:01 9.7 C 5.81 g/m*3 9.7 C 0 km/h
1690 29-03-2007 10:42:01 9.9 C 5.88 g/m*3 9.9 C 0 km/h
1691 29-03-2007 10:47:01 10 C 5.83 g/m*3 10 C 0 km/h
1692 29-03-2007 10:52:02 10.1 C 5.77 g/m*3 10.1 C 0 km/h
1693 29-03-2007 10:57:02 10.3 C 5.94 g/m*3 10.3 C 0 km/h
1694 29-03-2007 11:02:01 10.4 C 5.88 g/m*3 10.4 C 0 km/h
1695 29-03-2007 11:07:01 10.5 C 5.92 g/m*3 10.5 C 0 km/h
1696 29-03-2007 11:12:01 10.5 C 5.92 g/m*3 10.5 C 0 km/h
1697 29-03-2007 11:17:01 10.6 C 6.05 g/m*3 10.6 C 0 km/h
1698 29-03-2007 11:22:01 10.7 C 5.99 g/m*3 10.7 C 0 km/h
1699 29-03-2007 11:27:01 11 C 6.01 g/m*3 11 C 0 km/h
1700 29-03-2007 11:32:02 11.3 C 6.12 g/m*3 11.3 C 0 km/h
Sensor: Nr:Datum:Temp:Abs-Feuchte:Windchill:Wind:
Aussen-T/F 1701 29-03-2007 11:37:02 11.7 C 6.07 g/m*3 11.7 C 0 km/h
1702 29-03-2007 11:42:02 11.9 C 6.04 g/m*3 11.9 C 0 km/h
1703 29-03-2007 11:47:01 12.1 C 5.9 g/m*3 12.1 C 0 km/h
1704 29-03-2007 11:52:01 12.2 C 5.94 g/m*3 12.2 C 0 km/h
1705 29-03-2007 11:57:01 12 C 5.75 g/m*3 12 C 0 km/h
1706 29-03-2007 12:02:02 12 C 5.86 g/m*3 12 C 0 km/h
1707 29-03-2007 12:07:02 12 C 5.86 g/m*3 12 C 0 km/h
1708 29-03-2007 12:12:02 12.4 C 5.79 g/m*3 12.4 C 0 km/h
1709 29-03-2007 12:17:02 12.9 C 5.64 g/m*3 12.9 C 0 km/h
1710 29-03-2007 12:22:02 12.8 C 5.38 g/m*3 12.8 C 0 km/h
1711 29-03-2007 12:27:02 12.8 C 5.38 g/m*3 12.8 C 0 km/h
1712 29-03-2007 12:32:02 13 C 5.44 g/m*3 13 C 0 km/h
1713 29-03-2007 12:37:02 13.1 C 5.36 g/m*3 13.1 C 0 km/h
1714 29-03-2007 12:42:02 13 C 5.22 g/m*3 13 C 0 km/h
1715 29-03-2007 12:47:01 13.3 C 5.31 g/m*3 13.3 C 0 km/h
1716 29-03-2007 12:52:01 13.5 C 5.26 g/m*3 13.5 C 0 km/h
1717 29-03-2007 12:57:01 13.6 C 5.18 g/m*3 13.6 C 0 km/h
1718 29-03-2007 13:02:02 13.5 C 5.26 g/m*3 13.5 C 0 km/h
1719 29-03-2007 13:07:02 13.7 C 5.33 g/m*3 13.7 C 0 km/h
1720 29-03-2007 13:12:02 13.8 C 5.24 g/m*3 13.8 C 0 km/h
1721 29-03-2007 13:17:01 14 C 5.07 g/m*3 14 C 0 km/h
1722 29-03-2007 13:22:02 14.1 C 4.98 g/m*3 14.1 C 0 km/h
1723 29-03-2007 13:27:02 14.3 C 5.04 g/m*3 14.3 C 0 km/h
1724 29-03-2007 13:32:01 14.5 C 4.97 g/m*3 14.5 C 0 km/h
1725 29-03-2007 13:37:01 14.6 C 5.01 g/m*3 14.6 C 0 km/h
Sensor: Nr:Datum:Temp:Abs-Feuchte:Windchill:Wind:
Aussen-T/F 1726 29-03-2007 13:42:01 14.9 C 5.1 g/m*3 14.9 C 0 km/h
1727 29-03-2007 13:47:02 14.7 C 5.04 g/m*3 14.7 C 0 km/h
1728 29-03-2007 13:52:02 14.5 C 5.1 g/m*3 14.5 C 0 km/h
1729 29-03-2007 13:57:02 14.7 C 5.04 g/m*3 14.7 C 0 km/h
1730 29-03-2007 14:02:02 15 C 5.13 g/m*3 15 C 0 km/h
1731 29-03-2007 14:07:02 15.3 C 4.96 g/m*3 15.3 C 0 km/h
1732 29-03-2007 14:12:02 15.5 C 5.02 g/m*3 15.5 C 0 km/h
1733 29-03-2007 14:17:01 15.6 C 4.92 g/m*3 15.6 C 0 km/h
1734 29-03-2007 14:22:01 15.8 C 4.85 g/m*3 15.8 C 0 km/h
1735 29-03-2007 14:27:01 15.6 C 4.92 g/m*3 15.6 C 0 km/h
1736 29-03-2007 14:32:01 15.4 C 4.73 g/m*3 15.4 C 0 km/h
1737 29-03-2007 14:37:01 15.7 C 4.82 g/m*3 15.7 C 0 km/h
1738 29-03-2007 14:42:01 15.7 C 4.95 g/m*3 15.7 C 0 km/h
1739 29-03-2007 14:47:02 16.1 C 4.93 g/m*3 16.1 C 0 km/h
1740 29-03-2007 14:52:02 16 C 4.77 g/m*3 16 C 0 km/h
1741 29-03-2007 14:57:02 16.3 C 4.86 g/m*3 16.3 C 0 km/h
1742 29-03-2007 15:02:01 16 C 4.77 g/m*3 16 C 0 km/h
1743 29-03-2007 15:07:01 16.3 C 4.86 g/m*3 16.3 C 0 km/h
1744 29-03-2007 15:12:01 16.5 C 4.63 g/m*3 16.5 C 0 km/h
1745 29-03-2007 15:17:01 16.8 C 4.72 g/m*3 16.8 C 0 km/h
1746 29-03-2007 15:22:01 16.8 C 4.86 g/m*3 16.8 C 0 km/h
1747 29-03-2007 15:27:01 16.6 C 4.66 g/m*3 16.6 C 0 km/h
1748 29-03-2007 15:32:02 16.7 C 4.69 g/m*3 16.7 C 0 km/h
1749 29-03-2007 15:37:02 16.9 C 4.6 g/m*3 16.9 C 0 km/h
1750 29-03-2007 15:42:02 16.7 C 4.69 g/m*3 16.7 C 0 km/h
Sensor: Nr:Datum:Temp:Abs-Feuchte:Windchill:Wind:
Aussen-T/F 1751 29-03-2007 15:47:01 16.7 C 4.83 g/m*3 16.7 C 0 km/h
1752 29-03-2007 15:52:01 16.5 C 4.91 g/m*3 16.5 C 0 km/h
1753 29-03-2007 15:57:01 16.6 C 4.94 g/m*3 16.6 C 0 km/h
1754 29-03-2007 16:02:01 16.8 C 4.86 g/m*3 16.8 C 0 km/h
1755 29-03-2007 16:07:01 16.8 C 4.72 g/m*3 16.8 C 0 km/h
1756 29-03-2007 16:12:01 16.7 C 4.55 g/m*3 16.7 C 0 km/h
1757 29-03-2007 16:17:01 16.2 C 4.14 g/m*3 16.2 C 0 km/h
1758 29-03-2007 16:22:01 16.3 C 4.3 g/m*3 16.3 C 0 km/h
1759 29-03-2007 16:27:01 16.5 C 4.35 g/m*3 16.5 C 0 km/h
1760 29-03-2007 16:32:02 16.4 C 4.33 g/m*3 16.4 C 0 km/h
1761 29-03-2007 16:37:02 16.4 C 4.33 g/m*3 16.4 C 0 km/h
1762 29-03-2007 16:42:02 16.5 C 4.49 g/m*3 16.5 C 0 km/h
1763 29-03-2007 16:47:01 16.7 C 4.55 g/m*3 16.7 C 0 km/h
1764 29-03-2007 16:52:01 17 C 4.63 g/m*3 17 C 0 km/h
1765 29-03-2007 16:57:01 17 C 4.63 g/m*3 17 C 0 km/h
1766 29-03-2007 17:02:01 17 C 4.63 g/m*3 17 C 0 km/h
1767 29-03-2007 17:07:01 17 C 4.63 g/m*3 17 C 0 km/h
1768 29-03-2007 17:12:01 17 C 4.49 g/m*3 17 C 0 km/h
1769 29-03-2007 17:17:01 16.6 C 4.38 g/m*3 16.6 C 0 km/h
1770 29-03-2007 17:22:01 16.9 C 4.6 g/m*3 16.9 C 0 km/h
1771 29-03-2007 17:27:01 16.9 C 4.6 g/m*3 16.9 C 0 km/h
1772 29-03-2007 17:32:01 16.9 C 4.6 g/m*3 16.9 C 0 km/h
1773 29-03-2007 17:37:01 17.2 C 4.54 g/m*3 17.2 C 0 km/h
1774 29-03-2007 17:42:01 17.5 C 4.62 g/m*3 17.5 C 0 km/h
1775 29-03-2007 17:47:01 17.5 C 4.47 g/m*3 17.5 C 0 km/h
Sensor: Nr:Datum:Temp:Abs-Feuchte:Windchill:Wind:
Aussen-T/F 1776 29-03-2007 17:52:01 17.3 C 4.42 g/m*3 17.3 C 0 km/h
1777 29-03-2007 17:57:01 16.7 C 4.26 g/m*3 16.7 C 0 km/h
1778 29-03-2007 18:02:02 16.4 C 4.19 g/m*3 16.4 C 0 km/h
1779 29-03-2007 18:07:02 16.4 C 4.33 g/m*3 16.4 C 0 km/h
1780 29-03-2007 18:12:02 16.6 C 4.52 g/m*3 16.6 C 0 km/h
1781 29-03-2007 18:17:02 16.1 C 4.39 g/m*3 16.1 C 0 km/h
1782 29-03-2007 18:22:02 15.8 C 4.58 g/m*3 15.8 C 0 km/h
1783 29-03-2007 18:27:02 15.5 C 4.63 g/m*3 15.5 C 0 km/h
1784 29-03-2007 18:32:01 15.1 C 4.64 g/m*3 15.1 C 0 km/h
1785 29-03-2007 18:37:01 14.8 C 4.69 g/m*3 14.8 C 0 km/h
1786 29-03-2007 18:42:01 14.7 C 4.78 g/m*3 14.7 C 0 km/h
1787 29-03-2007 18:47:02 14.7 C 4.78 g/m*3 14.7 C 0 km/h
1788 29-03-2007 18:52:02 14.7 C 4.91 g/m*3 14.7 C 0 km/h
1789 29-03-2007 18:57:02 14.7 C 5.04 g/m*3 14.7 C 0 km/h
1790 29-03-2007 19:02:01 14.6 C 5.01 g/m*3 14.6 C 0 km/h
1791 29-03-2007 19:07:02 14.7 C 5.04 g/m*3 14.7 C 0 km/h
1792 29-03-2007 19:12:02 14.7 C 5.04 g/m*3 14.7 C 0 km/h
1793 29-03-2007 19:17:01 14.6 C 5.01 g/m*3 14.6 C 0 km/h
1794 29-03-2007 19:22:01 13.9 C 5.27 g/m*3 13.9 C 0 km/h
1795 29-03-2007 19:27:01 13.5 C 5.26 g/m*3 13.5 C 0 km/h
1796 29-03-2007 19:32:01 13.2 C 5.28 g/m*3 13.2 C 0 km/h
1797 29-03-2007 19:37:01 13.2 C 5.4 g/m*3 13.2 C 0 km/h
1798 29-03-2007 19:42:01 13 C 5.33 g/m*3 13 C 0 km/h
1799 29-03-2007 19:47:02 12.9 C 5.52 g/m*3 12.9 C 0 km/h
1800 29-03-2007 19:52:02 12.7 C 5.45 g/m*3 12.7 C 0 km/h
Sensor: Nr:Datum:Temp:Abs-Feuchte:Windchill:Wind:
Aussen-T/F 1801 29-03-2007 19:57:02 12.8 C 5.6 g/m*3 12.8 C 0 km/h
1802 29-03-2007 20:02:01 12.8 C 5.6 g/m*3 12.8 C 0 km/h
1803 29-03-2007 20:07:01 12.8 C 5.6 g/m*3 12.8 C 0 km/h
1804 29-03-2007 20:12:02 12.2 C 5.94 g/m*3 12.2 C 0 km/h
1805 29-03-2007 20:17:01 11.8 C 6.21 g/m*3 11.8 C 0 km/h
1806 29-03-2007 20:22:01 10.9 C 6.66 g/m*3 10.9 C 0 km/h
1807 29-03-2007 20:27:01 10.7 C 7.27 g/m*3 10.7 C 0 km/h
1808 29-03-2007 20:32:01 10.4 C 7.61 g/m*3 10.4 C 0 km/h
1809 29-03-2007 20:37:01 10.2 C 7.61 g/m*3 10.2 C 0 km/h
1810 29-03-2007 20:42:01 10 C 7.71 g/m*3 10 C 0 km/h
1811 29-03-2007 20:47:01 9.9 C 7.94 g/m*3 9.9 C 0 km/h
1812 29-03-2007 20:52:01 9.8 C 7.98 g/m*3 9.8 C 0 km/h
1813 29-03-2007 20:57:01 9.7 C 8.02 g/m*3 9.7 C 0 km/h
1814 29-03-2007 21:02:01 9.8 C 8.07 g/m*3 9.8 C 0 km/h
1815 29-03-2007 21:07:01 9.8 C 8.16 g/m*3 9.8 C 0 km/h
1816 29-03-2007 21:12:01 9.8 C 8.16 g/m*3 9.8 C 0 km/h
1817 29-03-2007 21:17:01 9.6 C 8.06 g/m*3 9.6 C 0 km/h
1818 29-03-2007 21:22:01 9.4 C 7.87 g/m*3 9.4 C 0 km/h
1819 29-03-2007 21:27:01 9.2 C 7.77 g/m*3 9.2 C 0 km/h
1820 29-03-2007 21:32:02 9.2 C 7.77 g/m*3 9.2 C 0 km/h
1821 29-03-2007 21:37:02 9 C 7.67 g/m*3 9 C 0 km/h
1822 29-03-2007 21:42:02 9 C 7.67 g/m*3 9 C 0 km/h
1823 29-03-2007 21:47:01 8.9 C 7.71 g/m*3 8.9 C 0 km/h
1824 29-03-2007 21:52:01 8.8 C 7.66 g/m*3 8.8 C 0 km/h
1825 29-03-2007 21:57:01 8.8 C 7.66 g/m*3 8.8 C 0 km/h
Sensor: Nr:Datum:Temp:Abs-Feuchte:Windchill:Wind:
Aussen-T/F 1826 29-03-2007 22:02:01 8.7 C 7.61 g/m*3 8.7 C 0 km/h
1827 29-03-2007 22:07:01 8.7 C 7.61 g/m*3 8.7 C 0 km/h
1828 29-03-2007 22:12:01 8.6 C 7.56 g/m*3 8.6 C 0 km/h
1829 29-03-2007 22:17:02 8.6 C 7.48 g/m*3 8.6 C 0 km/h
1830 29-03-2007 22:22:02 8.3 C 7.33 g/m*3 8.3 C 0 km/h
1831 29-03-2007 22:27:02 8.4 C 7.38 g/m*3 8.4 C 0 km/h
1832 29-03-2007 22:32:02 8.5 C 7.51 g/m*3 8.5 C 0 km/h
1833 29-03-2007 22:37:02 8.5 C 7.51 g/m*3 8.5 C 0 km/h
1834 29-03-2007 22:42:02 8.5 C 7.51 g/m*3 8.5 C 0 km/h
1835 29-03-2007 22:47:01 8.6 C 7.56 g/m*3 8.6 C 0 km/h
1836 29-03-2007 22:52:01 8.5 C 7.51 g/m*3 8.5 C 0 km/h
1837 29-03-2007 22:57:01 8.5 C 7.43 g/m*3 8.5 C 0 km/h
1838 29-03-2007 23:02:02 8.6 C 7.48 g/m*3 8.6 C 0 km/h
1839 29-03-2007 23:07:02 8.6 C 7.48 g/m*3 8.6 C 0 km/h
1840 29-03-2007 23:12:02 8.7 C 7.52 g/m*3 8.7 C 0 km/h
1841 29-03-2007 23:17:02 8.7 C 7.52 g/m*3 8.7 C 0 km/h
1842 29-03-2007 23:22:02 8.8 C 7.57 g/m*3 8.8 C 0 km/h
1843 29-03-2007 23:27:02 8.7 C 7.44 g/m*3 8.7 C 0 km/h
1844 29-03-2007 23:32:01 8.7 C 7.35 g/m*3 8.7 C 0 km/h
1845 29-03-2007 23:37:01 8.8 C 7.4 g/m*3 8.8 C 0 km/h
1846 29-03-2007 23:42:01 8.7 C 7.35 g/m*3 8.7 C 0 km/h
1847 29-03-2007 23:47:02 8.7 C 7.35 g/m*3 8.7 C 0 km/h
1848 29-03-2007 23:52:02 8.7 C 7.35 g/m*3 8.7 C 0 km/h
1849 29-03-2007 23:57:02 8.7 C 7.26 g/m*3 8.7 C 0 km/h
1850 30-03-2007 00:02:02 8.6 C 7.22 g/m*3 8.6 C 0 km/h
Sensor: Nr:Datum:Temp:Abs-Feuchte:Windchill:Wind:
Aussen-T/F 1851 30-03-2007 00:07:02 8.6 C 7.22 g/m*3 8.6 C 0 km/h
1852 30-03-2007 00:12:02 8.6 C 7.22 g/m*3 8.6 C 0 km/h
1853 30-03-2007 00:17:02 8.6 C 7.22 g/m*3 8.6 C 0 km/h
1854 30-03-2007 00:22:02 8.5 C 7.17 g/m*3 8.5 C 0 km/h
1855 30-03-2007 00:27:02 8.5 C 7.26 g/m*3 8.5 C 0 km/h
1856 30-03-2007 00:32:02 8.6 C 7.3 g/m*3 8.6 C 0 km/h
1857 30-03-2007 00:37:02 8.7 C 7.35 g/m*3 8.7 C 0 km/h
1858 30-03-2007 00:42:02 8.7 C 7.35 g/m*3 8.7 C 0 km/h
1859 30-03-2007 00:47:02 8.6 C 7.3 g/m*3 8.6 C 0 km/h
1860 30-03-2007 00:52:02 8.6 C 7.3 g/m*3 8.6 C 0 km/h
1861 30-03-2007 00:57:02 8.6 C 7.3 g/m*3 8.6 C 0 km/h
1862 30-03-2007 01:02:02 8.6 C 7.3 g/m*3 8.6 C 0 km/h
1863 30-03-2007 01:07:02 8.7 C 7.35 g/m*3 8.7 C 0 km/h
1864 30-03-2007 01:12:02 8.6 C 7.3 g/m*3 8.6 C 0 km/h
1865 30-03-2007 01:17:02 8.6 C 7.3 g/m*3 8.6 C 0 km/h
1866 30-03-2007 01:22:02 8.6 C 7.3 g/m*3 8.6 C 0 km/h
1867 30-03-2007 01:27:02 8.6 C 7.3 g/m*3 8.6 C 0 km/h
1868 30-03-2007 01:32:01 8.6 C 7.3 g/m*3 8.6 C 0 km/h
1869 30-03-2007 01:37:01 8.5 C 7.26 g/m*3 8.5 C 0 km/h
1870 30-03-2007 01:42:02 8.5 C 7.17 g/m*3 8.5 C 0 km/h
1871 30-03-2007 01:47:02 8.5 C 7.17 g/m*3 8.5 C 0 km/h
1872 30-03-2007 01:52:02 8.3 C 7.08 g/m*3 8.3 C 0 km/h
1873 30-03-2007 01:57:02 8.1 C 6.91 g/m*3 8.1 C 0 km/h
1874 30-03-2007 02:02:02 8.1 C 6.91 g/m*3 8.1 C 0 km/h
1875 30-03-2007 02:07:02 8 C 6.94 g/m*3 8 C 0 km/h
Sensor: Nr:Datum:Temp:Abs-Feuchte:Windchill:Wind:
Aussen-T/F 1876 30-03-2007 02:12:02 8 C 6.94 g/m*3 8 C 0 km/h
1877 30-03-2007 02:17:02 8 C 6.94 g/m*3 8 C 0 km/h
1878 30-03-2007 02:22:02 8 C 6.94 g/m*3 8 C 0 km/h
1879 30-03-2007 02:27:02 8 C 6.94 g/m*3 8 C 0 km/h
1880 30-03-2007 02:32:02 7.9 C 6.98 g/m*3 7.9 C 0 km/h
1881 30-03-2007 02:37:02 7.8 C 6.94 g/m*3 7.8 C 0 km/h
1882 30-03-2007 02:42:02 7.8 C 6.94 g/m*3 7.8 C 0 km/h
1883 30-03-2007 02:48:06 7.9 C 6.98 g/m*3 7.9 C 0 km/h
1884 30-03-2007 02:53:06 7.9 C 6.98 g/m*3 7.9 C 0 km/h
1885 30-03-2007 02:58:06 7.9 C 6.98 g/m*3 7.9 C 0 km/h
1886 30-03-2007 03:03:06 7.9 C 6.98 g/m*3 7.9 C 0 km/h
1887 30-03-2007 03:08:06 7.6 C 6.77 g/m*3 7.6 C 0 km/h
1888 30-03-2007 03:13:06 7.6 C 6.77 g/m*3 7.6 C 0 km/h
1889 30-03-2007 03:18:06 7.4 C 6.68 g/m*3 7.4 C 0 km/h
1890 30-03-2007 03:23:06 7.1 C 6.47 g/m*3 7.1 C 0 km/h
1891 30-03-2007 03:28:06 7.1 C 6.47 g/m*3 7.1 C 0 km/h
1892 30-03-2007 03:33:04 7 C 6.51 g/m*3 7 C 0 km/h
1893 30-03-2007 03:38:04 6.8 C 6.5 g/m*3 6.8 C 0 km/h
1894 30-03-2007 03:43:04 6.6 C 6.42 g/m*3 6.6 C 0 km/h
1895 30-03-2007 03:48:04 6.5 C 6.37 g/m*3 6.5 C 0 km/h
1896 30-03-2007 03:53:04 6.5 C 6.45 g/m*3 6.5 C 0 km/h
1897 30-03-2007 03:58:04 6.6 C 6.49 g/m*3 6.6 C 0 km/h
1898 30-03-2007 04:03:02 6.7 C 6.61 g/m*3 6.7 C 0 km/h
1899 30-03-2007 04:08:03 6.8 C 6.73 g/m*3 6.8 C 0 km/h
1900 30-03-2007 04:13:03 6.9 C 6.77 g/m*3 6.9 C 0 km/h
Sensor: Nr:Datum:Temp:Abs-Feuchte:Windchill:Wind:
Aussen-T/F 1901 30-03-2007 04:18:03 6.9 C 6.77 g/m*3 6.9 C 0 km/h
1902 30-03-2007 04:23:03 6.9 C 6.7 g/m*3 6.9 C 0 km/h
1903 30-03-2007 04:28:03 7 C 6.66 g/m*3 7 C 0 km/h
1904 30-03-2007 04:33:03 6.8 C 6.58 g/m*3 6.8 C 0 km/h
1905 30-03-2007 04:38:03 6.7 C 6.53 g/m*3 6.7 C 0 km/h
1906 30-03-2007 04:43:03 6.4 C 6.33 g/m*3 6.4 C 0 km/h
1907 30-03-2007 04:48:02 6.3 C 6.29 g/m*3 6.3 C 0 km/h
1908 30-03-2007 04:53:02 6.4 C 6.33 g/m*3 6.4 C 0 km/h
1909 30-03-2007 04:58:02 6.2 C 6.32 g/m*3 6.2 C 0 km/h
1910 30-03-2007 05:03:02 6.2 C 6.32 g/m*3 6.2 C 0 km/h
1911 30-03-2007 05:08:02 6.1 C 6.28 g/m*3 6.1 C 0 km/h
1912 30-03-2007 05:13:02 6.1 C 6.36 g/m*3 6.1 C 0 km/h
1913 30-03-2007 05:18:02 6.1 C 6.36 g/m*3 6.1 C 0 km/h
1914 30-03-2007 05:23:02 6.2 C 6.4 g/m*3 6.2 C 0 km/h
1915 30-03-2007 05:28:02 6.2 C 6.4 g/m*3 6.2 C 0 km/h
1916 30-03-2007 05:33:03 6.3 C 6.51 g/m*3 6.3 C 0 km/h
1917 30-03-2007 05:38:03 6.4 C 6.56 g/m*3 6.4 C 0 km/h
1918 30-03-2007 05:43:03 6.4 C 6.56 g/m*3 6.4 C 0 km/h
1919 30-03-2007 05:48:02 6.5 C 6.6 g/m*3 6.5 C 0 km/h
1920 30-03-2007 05:53:02 6.5 C 6.52 g/m*3 6.5 C 0 km/h
1921 30-03-2007 05:58:02 6.6 C 6.57 g/m*3 6.6 C 0 km/h
1922 30-03-2007 06:03:02 6.5 C 6.52 g/m*3 6.5 C 0 km/h
1923 30-03-2007 06:08:02 6.5 C 6.45 g/m*3 6.5 C 0 km/h
1924 30-03-2007 06:13:02 6.5 C 6.45 g/m*3 6.5 C 0 km/h
1925 30-03-2007 06:18:01 6.5 C 6.45 g/m*3 6.5 C 0 km/h
Sensor: Nr:Datum:Temp:Abs-Feuchte:Windchill:Wind:
Aussen-T/F 1926 30-03-2007 06:23:01 6.6 C 6.49 g/m*3 6.6 C 0 km/h
1927 30-03-2007 06:28:01 6.6 C 6.49 g/m*3 6.6 C 0 km/h
1928 30-03-2007 06:33:01 6.7 C 6.53 g/m*3 6.7 C 0 km/h
1929 30-03-2007 06:38:01 6.7 C 6.53 g/m*3 6.7 C 0 km/h
1930 30-03-2007 06:43:01 6.7 C 6.53 g/m*3 6.7 C 0 km/h
1931 30-03-2007 06:48:02 6.7 C 6.53 g/m*3 6.7 C 0 km/h
1932 30-03-2007 06:53:02 6.8 C 6.58 g/m*3 6.8 C 0 km/h
1933 30-03-2007 06:58:02 6.7 C 6.46 g/m*3 6.7 C 0 km/h
1934 30-03-2007 07:03:01 6.6 C 6.42 g/m*3 6.6 C 0 km/h
1935 30-03-2007 07:08:01 6.5 C 6.37 g/m*3 6.5 C 0 km/h
1936 30-03-2007 07:13:01 6.5 C 6.37 g/m*3 6.5 C 0 km/h
1937 30-03-2007 07:18:02 6.5 C 6.45 g/m*3 6.5 C 0 km/h
1938 30-03-2007 07:23:02 6.6 C 6.49 g/m*3 6.6 C 0 km/h
1939 30-03-2007 07:28:02 6.6 C 6.49 g/m*3 6.6 C 0 km/h
1940 30-03-2007 07:33:02 6.5 C 6.45 g/m*3 6.5 C 0 km/h
1941 30-03-2007 07:38:02 6.4 C 6.41 g/m*3 6.4 C 0 km/h
1942 30-03-2007 07:43:02 6.5 C 6.45 g/m*3 6.5 C 0 km/h
1943 30-03-2007 07:48:02 6.6 C 6.49 g/m*3 6.6 C 0 km/h
1944 30-03-2007 07:53:02 6.7 C 6.53 g/m*3 6.7 C 0 km/h
1945 30-03-2007 07:58:02 6.8 C 6.58 g/m*3 6.8 C 0 km/h
1946 30-03-2007 08:03:03 6.8 C 6.58 g/m*3 6.8 C 0 km/h
1947 30-03-2007 08:08:03 6.9 C 6.62 g/m*3 6.9 C 0 km/h
1948 30-03-2007 08:13:03 6.9 C 6.62 g/m*3 6.9 C 0 km/h
1949 30-03-2007 08:18:03 6.9 C 6.62 g/m*3 6.9 C 0 km/h
1950 30-03-2007 08:23:03 6.9 C 6.62 g/m*3 6.9 C 0 km/h
Sensor: Nr:Datum:Temp:Abs-Feuchte:Windchill:Wind:
Aussen-T/F 1951 30-03-2007 08:28:03 6.9 C 6.62 g/m*3 6.9 C 0 km/h
1952 30-03-2007 08:33:02 7.1 C 6.63 g/m*3 7.1 C 0 km/h
1953 30-03-2007 08:38:02 7.3 C 6.72 g/m*3 7.3 C 0 km/h
1954 30-03-2007 08:43:02 7.2 C 6.67 g/m*3 7.2 C 0 km/h
1955 30-03-2007 08:48:01 7.3 C 6.72 g/m*3 7.3 C 0 km/h
1956 30-03-2007 08:53:01 7.2 C 6.67 g/m*3 7.2 C 0 km/h
1957 30-03-2007 08:58:01 7.2 C 6.67 g/m*3 7.2 C 0 km/h
1958 30-03-2007 09:03:02 7.3 C 6.72 g/m*3 7.3 C 0 km/h
1959 30-03-2007 09:08:02 7.3 C 6.64 g/m*3 7.3 C 0 km/h
1960 30-03-2007 09:13:02 7.4 C 6.68 g/m*3 7.4 C 0 km/h
1961 30-03-2007 09:18:02 7.6 C 6.77 g/m*3 7.6 C 0 km/h
1962 30-03-2007 09:23:02 7.8 C 6.86 g/m*3 7.8 C 0 km/h
1963 30-03-2007 09:28:02 7.9 C 6.9 g/m*3 7.9 C 0 km/h
1964 30-03-2007 09:33:02 8.1 C 6.82 g/m*3 8.1 C 0 km/h
1965 30-03-2007 09:38:02 8.2 C 6.87 g/m*3 8.2 C 0 km/h
1966 30-03-2007 09:43:02 8.4 C 6.87 g/m*3 8.4 C 0 km/h
1967 30-03-2007 09:48:03 8.5 C 6.83 g/m*3 8.5 C 0 km/h
1968 30-03-2007 09:53:03 8.7 C 6.92 g/m*3 8.7 C 0 km/h
1969 30-03-2007 09:58:03 8.7 C 6.83 g/m*3 8.7 C 0 km/h
1970 30-03-2007 10:03:02 8.7 C 6.75 g/m*3 8.7 C 0 km/h
1971 30-03-2007 10:08:02 8.8 C 6.88 g/m*3 8.8 C 0 km/h
1972 30-03-2007 10:13:02 9 C 6.88 g/m*3 9 C 0 km/h
1973 30-03-2007 10:18:02 9.1 C 6.83 g/m*3 9.1 C 0 km/h
1974 30-03-2007 10:23:02 9.2 C 6.88 g/m*3 9.2 C 0 km/h
1975 30-03-2007 10:28:02 9.2 C 6.88 g/m*3 9.2 C 0 km/h
Sensor: Nr:Datum:Temp:Abs-Feuchte:Windchill:Wind:
Aussen-T/F 1976 30-03-2007 10:33:02 9.1 C 6.83 g/m*3 9.1 C 0 km/h
1977 30-03-2007 10:38:02 9.1 C 6.83 g/m*3 9.1 C 0 km/h
1978 30-03-2007 10:43:02 9.1 C 6.92 g/m*3 9.1 C 0 km/h
1979 30-03-2007 10:48:02 9.3 C 7.01 g/m*3 9.3 C 0 km/h
1980 30-03-2007 10:53:02 9.6 C 7.15 g/m*3 9.6 C 0 km/h
1981 30-03-2007 10:58:02 9.6 C 7.15 g/m*3 9.6 C 0 km/h
1982 30-03-2007 11:03:01 9.7 C 7.19 g/m*3 9.7 C 0 km/h
1983 30-03-2007 11:08:01 9.9 C 7.19 g/m*3 9.9 C 0 km/h
1984 30-03-2007 11:13:01 10.1 C 7.19 g/m*3 10.1 C 0 km/h
1985 30-03-2007 11:18:01 10.2 C 7.23 g/m*3 10.2 C 0 km/h
1986 30-03-2007 11:23:01 10.1 C 7.09 g/m*3 10.1 C 0 km/h
1987 30-03-2007 11:28:01 10.1 C 7.09 g/m*3 10.1 C 0 km/h
1988 30-03-2007 11:33:02 10.3 C 7.09 g/m*3 10.3 C 0 km/h
1989 30-03-2007 11:38:02 10.7 C 7.27 g/m*3 10.7 C 0 km/h
1990 30-03-2007 11:43:02 10.8 C 7.22 g/m*3 10.8 C 0 km/h
1991 30-03-2007 11:48:01 11.1 C 7.05 g/m*3 11.1 C 0 km/h
1992 30-03-2007 11:53:01 11.2 C 7.1 g/m*3 11.2 C 0 km/h
1993 30-03-2007 11:58:01 11.2 C 6.99 g/m*3 11.2 C 0 km/h
1994 30-03-2007 12:03:01 11.7 C 7.32 g/m*3 11.7 C 0 km/h
1995 30-03-2007 12:08:01 12 C 6.93 g/m*3 12 C 0 km/h
1996 30-03-2007 12:13:01 12.2 C 7.01 g/m*3 12.2 C 0 km/h
1997 30-03-2007 12:18:01 12.4 C 6.88 g/m*3 12.4 C 0 km/h
1998 30-03-2007 12:23:01 12.5 C 6.82 g/m*3 12.5 C 0 km/h
1999 30-03-2007 12:28:01 12.6 C 6.75 g/m*3 12.6 C 0 km/h
2000 30-03-2007 12:33:02 12.7 C 6.9 g/m*3 12.7 C 0 km/h
Sensor: Nr:Datum:Temp:Abs-Feuchte:Windchill:Wind:
Aussen-T/F 2001 30-03-2007 12:38:02 13.1 C 6.85 g/m*3 13.1 C 0 km/h
2002 30-03-2007 12:43:02 13.4 C 6.86 g/m*3 13.4 C 0 km/h
2003 30-03-2007 12:48:02 13.3 C 6.7 g/m*3 13.3 C 0 km/h
2004 30-03-2007 12:53:02 13.1 C 6.39 g/m*3 13.1 C 0 km/h
2005 30-03-2007 12:58:02 13.4 C 6.63 g/m*3 13.4 C 0 km/h
2006 30-03-2007 13:03:03 13.5 C 6.55 g/m*3 13.5 C 0 km/h
2007 30-03-2007 13:08:03 14.1 C 6.67 g/m*3 14.1 C 0 km/h
2008 30-03-2007 13:13:03 13.7 C 6.39 g/m*3 13.7 C 0 km/h
2009 30-03-2007 13:18:03 13.6 C 6.47 g/m*3 13.6 C 0 km/h
2010 30-03-2007 13:23:03 14.1 C 6.55 g/m*3 14.1 C 0 km/h
2011 30-03-2007 13:28:03 14 C 6.39 g/m*3 14 C 0 km/h
2012 30-03-2007 13:33:02 14 C 6.39 g/m*3 14 C 0 km/h
2013 30-03-2007 13:38:02 14.2 C 6.47 g/m*3 14.2 C 0 km/h
2014 30-03-2007 13:43:02 14.6 C 6.26 g/m*3 14.6 C 0 km/h
2015 30-03-2007 13:48:01 15.2 C 6.36 g/m*3 15.2 C 0 km/h
2016 30-03-2007 13:53:01 15.4 C 6.31 g/m*3 15.4 C 0 km/h
2017 30-03-2007 13:58:01 15.4 C 6.18 g/m*3 15.4 C 0 km/h
2018 30-03-2007 14:03:02 15.4 C 6.04 g/m*3 15.4 C 0 km/h
2019 30-03-2007 14:08:02 15.4 C 6.18 g/m*3 15.4 C 0 km/h
2020 30-03-2007 14:13:02 15.3 C 6.01 g/m*3 15.3 C 0 km/h
2021 30-03-2007 14:18:02 15.6 C 6.12 g/m*3 15.6 C 0 km/h
2022 30-03-2007 14:23:02 15.6 C 5.98 g/m*3 15.6 C 0 km/h
2023 30-03-2007 14:28:02 15.5 C 5.95 g/m*3 15.5 C 0 km/h
2024 30-03-2007 14:33:02 15.4 C 6.04 g/m*3 15.4 C 0 km/h
2025 30-03-2007 14:38:02 15.4 C 6.04 g/m*3 15.4 C 0 km/h
Sensor: Nr:Datum:Temp:Abs-Feuchte:Windchill:Wind:
Aussen-T/F 2026 30-03-2007 14:43:02 15.3 C 6.01 g/m*3 15.3 C 0 km/h
2027 30-03-2007 14:48:03 15.5 C 5.95 g/m*3 15.5 C 0 km/h
2028 30-03-2007 14:53:03 15.7 C 6.15 g/m*3 15.7 C 0 km/h
2029 30-03-2007 14:58:03 15.7 C 6.02 g/m*3 15.7 C 0 km/h
2030 30-03-2007 15:03:02 15.7 C 5.89 g/m*3 15.7 C 0 km/h
2031 30-03-2007 15:08:02 15.8 C 5.92 g/m*3 15.8 C 0 km/h
2032 30-03-2007 15:13:02 15.9 C 5.96 g/m*3 15.9 C 0 km/h
2033 30-03-2007 15:18:02 16 C 5.86 g/m*3 16 C 0 km/h
2034 30-03-2007 15:23:02 16.1 C 6.03 g/m*3 16.1 C 0 km/h
2035 30-03-2007 15:28:03 16.1 C 6.03 g/m*3 16.1 C 0 km/h
2036 30-03-2007 15:33:02 16.2 C 5.79 g/m*3 16.2 C 0 km/h
2037 30-03-2007 15:38:02 16.1 C 5.89 g/m*3 16.1 C 0 km/h
2038 30-03-2007 15:43:02 16 C 5.86 g/m*3 16 C 0 km/h
2039 30-03-2007 15:48:02 16 C 5.72 g/m*3 16 C 0 km/h
2040 30-03-2007 15:53:02 15.8 C 6.06 g/m*3 15.8 C 0 km/h
2041 30-03-2007 15:58:02 15.5 C 5.68 g/m*3 15.5 C 0 km/h
2042 30-03-2007 16:03:02 15.3 C 5.75 g/m*3 15.3 C 0 km/h
2043 30-03-2007 16:08:02 15 C 5.77 g/m*3 15 C 0 km/h
2044 30-03-2007 16:13:02 14.8 C 5.83 g/m*3 14.8 C 0 km/h
2045 30-03-2007 16:18:01 14.9 C 5.86 g/m*3 14.9 C 0 km/h
2046 30-03-2007 16:23:01 15.1 C 5.81 g/m*3 15.1 C 0 km/h
2047 30-03-2007 16:28:01 15.5 C 5.68 g/m*3 15.5 C 0 km/h
2048 30-03-2007 16:33:01 15.8 C 5.65 g/m*3 15.8 C 0 km/h
2049 30-03-2007 16:38:01 16.1 C 5.62 g/m*3 16.1 C 0 km/h
2050 30-03-2007 16:43:01 16.4 C 5.44 g/m*3 16.4 C 0 km/h
Sensor: Nr:Datum:Temp:Abs-Feuchte:Windchill:Wind:
Aussen-T/F 2051 30-03-2007 16:48:02 16.8 C 5.58 g/m*3 16.8 C 0 km/h
2052 30-03-2007 16:53:02 16.9 C 5.61 g/m*3 16.9 C 0 km/h
2053 30-03-2007 16:58:02 16.9 C 5.32 g/m*3 16.9 C 0 km/h
2054 30-03-2007 17:03:02 17.5 C 5.52 g/m*3 17.5 C 0 km/h
2055 30-03-2007 17:08:02 17.5 C 5.37 g/m*3 17.5 C 0 km/h
2056 30-03-2007 17:13:02 17.9 C 5.34 g/m*3 17.9 C 0 km/h
2057 30-03-2007 17:18:02 18.2 C 5.28 g/m*3 18.2 C 0 km/h
2058 30-03-2007 17:23:02 18.6 C 5.41 g/m*3 18.6 C 0 km/h
2059 30-03-2007 17:28:02 18.8 C 5.48 g/m*3 18.8 C 0 km/h
2060 30-03-2007 17:33:01 18.9 C 5.18 g/m*3 18.9 C 0 km/h
2061 30-03-2007 17:38:01 19.1 C 5.08 g/m*3 19.1 C 0 km/h
2062 30-03-2007 17:43:01 19.1 C 5.08 g/m*3 19.1 C 0 km/h
2063 30-03-2007 17:48:02 18.6 C 5.09 g/m*3 18.6 C 0 km/h
2064 30-03-2007 17:53:02 18.5 C 5.22 g/m*3 18.5 C 0 km/h
2065 30-03-2007 17:58:03 18.5 C 5.38 g/m*3 18.5 C 0 km/h
2066 30-03-2007 18:03:01 18.2 C 5.28 g/m*3 18.2 C 0 km/h
2067 30-03-2007 18:08:01 18 C 5.07 g/m*3 18 C 0 km/h
2068 30-03-2007 18:13:01 17.7 C 5.28 g/m*3 17.7 C 0 km/h
2069 30-03-2007 18:18:01 17.5 C 5.22 g/m*3 17.5 C 0 km/h
2070 30-03-2007 18:23:01 17 C 5.06 g/m*3 17 C 0 km/h
2071 30-03-2007 18:28:01 16.6 C 5.37 g/m*3 16.6 C 0 km/h
2072 30-03-2007 18:33:02 16.6 C 5.37 g/m*3 16.6 C 0 km/h
2073 30-03-2007 18:38:02 16.6 C 5.51 g/m*3 16.6 C 0 km/h
2074 30-03-2007 18:43:02 16.5 C 5.62 g/m*3 16.5 C 0 km/h
2075 30-03-2007 18:48:01 16.4 C 5.72 g/m*3 16.4 C 0 km/h
Sensor: Nr:Datum:Temp:Abs-Feuchte:Windchill:Wind:
Aussen-T/F 2076 30-03-2007 18:53:01 16.3 C 5.55 g/m*3 16.3 C 0 km/h
2077 30-03-2007 18:58:01 16.1 C 5.48 g/m*3 16.1 C 0 km/h
2078 30-03-2007 19:03:01 16.1 C 5.48 g/m*3 16.1 C 0 km/h
2079 30-03-2007 19:08:01 16 C 5.45 g/m*3 16 C 0 km/h
2080 30-03-2007 19:13:01 15.6 C 5.05 g/m*3 15.6 C 0 km/h
2081 30-03-2007 19:18:02 15.1 C 5.42 g/m*3 15.1 C 0 km/h
2082 30-03-2007 19:23:02 14.7 C 5.79 g/m*3 14.7 C 0 km/h
2083 30-03-2007 19:28:02 13.8 C 6.2 g/m*3 13.8 C 0 km/h
2084 30-03-2007 19:33:02 13.1 C 6.62 g/m*3 13.1 C 0 km/h
2085 30-03-2007 19:38:02 13 C 6.46 g/m*3 13 C 0 km/h
2086 30-03-2007 19:43:02 13 C 6.69 g/m*3 13 C 0 km/h
2087 30-03-2007 19:48:02 12.8 C 6.83 g/m*3 12.8 C 0 km/h
2088 30-03-2007 19:53:02 12.8 C 6.72 g/m*3 12.8 C 0 km/h
2089 30-03-2007 19:58:02 12.5 C 6.6 g/m*3 12.5 C 0 km/h
2090 30-03-2007 20:03:03 12.4 C 6.56 g/m*3 12.4 C 0 km/h
2091 30-03-2007 20:08:03 12.3 C 6.52 g/m*3 12.3 C 0 km/h
2092 30-03-2007 20:13:03 12.1 C 6.43 g/m*3 12.1 C 0 km/h
2093 30-03-2007 20:18:03 12 C 6.18 g/m*3 12 C 0 km/h
2094 30-03-2007 20:23:03 11.9 C 6.14 g/m*3 11.9 C 0 km/h
2095 30-03-2007 20:28:03 11.8 C 6.21 g/m*3 11.8 C 0 km/h
2096 30-03-2007 20:33:02 11.8 C 6.21 g/m*3 11.8 C 0 km/h
2097 30-03-2007 20:38:02 11.5 C 6.2 g/m*3 11.5 C 0 km/h
2098 30-03-2007 20:43:02 11.4 C 6.16 g/m*3 11.4 C 0 km/h
2099 30-03-2007 20:48:01 11.2 C 6.08 g/m*3 11.2 C 0 km/h
2100 30-03-2007 20:53:01 11.2 C 6.18 g/m*3 11.2 C 0 km/h
Sensor: Nr:Datum:Temp:Abs-Feuchte:Windchill:Wind:
Aussen-T/F 2101 30-03-2007 20:58:01 11.1 C 6.14 g/m*3 11.1 C 0 km/h
2102 30-03-2007 21:03:02 11 C 6.11 g/m*3 11 C 0 km/h
2103 30-03-2007 21:08:02 11 C 6.11 g/m*3 11 C 0 km/h
2104 30-03-2007 21:13:02 10.9 C 6.17 g/m*3 10.9 C 0 km/h
2105 30-03-2007 21:18:02 10.9 C 6.17 g/m*3 10.9 C 0 km/h
2106 30-03-2007 21:23:02 10.7 C 6.19 g/m*3 10.7 C 0 km/h
2107 30-03-2007 21:28:02 10.6 C 6.15 g/m*3 10.6 C 0 km/h
2108 30-03-2007 21:33:02 10.5 C 6.11 g/m*3 10.5 C 0 km/h
2109 30-03-2007 21:38:02 10.3 C 6.03 g/m*3 10.3 C 0 km/h
2110 30-03-2007 21:43:02 10.3 C 6.03 g/m*3 10.3 C 0 km/h
2111 30-03-2007 21:48:01 10.2 C 6 g/m*3 10.2 C 0 km/h
2112 30-03-2007 21:53:01 10.1 C 5.96 g/m*3 10.1 C 0 km/h
2113 30-03-2007 21:58:01 9.9 C 6.07 g/m*3 9.9 C 0 km/h
2114 30-03-2007 22:03:02 9.9 C 6.07 g/m*3 9.9 C 0 km/h
2115 30-03-2007 22:08:02 9.8 C 6.03 g/m*3 9.8 C 0 km/h
2116 30-03-2007 22:13:02 9.7 C 5.99 g/m*3 9.7 C 0 km/h
2117 30-03-2007 22:18:02 9.7 C 6.08 g/m*3 9.7 C 0 km/h
2118 30-03-2007 22:23:02 9.7 C 6.08 g/m*3 9.7 C 0 km/h
2119 30-03-2007 22:28:02 9.6 C 6.05 g/m*3 9.6 C 0 km/h
2120 30-03-2007 22:33:02 9.7 C 5.99 g/m*3 9.7 C 0 km/h
2121 30-03-2007 22:38:02 9.7 C 5.99 g/m*3 9.7 C 0 km/h
2122 30-03-2007 22:43:02 9.7 C 5.9 g/m*3 9.7 C 0 km/h
2123 30-03-2007 22:48:02 9.8 C 5.85 g/m*3 9.8 C 0 km/h
2124 30-03-2007 22:53:02 9.7 C 5.81 g/m*3 9.7 C 0 km/h
2125 30-03-2007 22:58:02 9.6 C 5.86 g/m*3 9.6 C 0 km/h
Sensor: Nr:Datum:Temp:Abs-Feuchte:Windchill:Wind:
Aussen-T/F 2126 30-03-2007 23:03:02 9.4 C 5.79 g/m*3 9.4 C 0 km/h
2127 30-03-2007 23:08:02 9.4 C 5.79 g/m*3 9.4 C 0 km/h
2128 30-03-2007 23:13:03 9.5 C 5.83 g/m*3 9.5 C 0 km/h
2129 30-03-2007 23:18:01 9.5 C 5.83 g/m*3 9.5 C 0 km/h
2130 30-03-2007 23:23:01 9.2 C 5.71 g/m*3 9.2 C 0 km/h
2131 30-03-2007 23:28:01 9.1 C 5.77 g/m*3 9.1 C 0 km/h
2132 30-03-2007 23:33:02 9 C 5.73 g/m*3 9 C 0 km/h
2133 30-03-2007 23:38:02 9 C 5.64 g/m*3 9 C 0 km/h
2134 30-03-2007 23:43:02 9 C 5.64 g/m*3 9 C 0 km/h
2135 30-03-2007 23:48:01 9 C 5.73 g/m*3 9 C 0 km/h
2136 30-03-2007 23:53:01 8.9 C 5.69 g/m*3 8.9 C 0 km/h
2137 30-03-2007 23:58:01 8.9 C 5.78 g/m*3 8.9 C 0 km/h
2138 31-03-2007 00:03:01 8.8 C 5.74 g/m*3 8.8 C 0 km/h
2139 31-03-2007 00:08:01 8.6 C 5.67 g/m*3 8.6 C 0 km/h
2140 31-03-2007 00:13:01 8.6 C 5.67 g/m*3 8.6 C 0 km/h
2141 31-03-2007 00:18:02 8.6 C 5.76 g/m*3 8.6 C 0 km/h
2142 31-03-2007 00:23:02 8.5 C 5.81 g/m*3 8.5 C 0 km/h
2143 31-03-2007 00:28:02 8.4 C 5.85 g/m*3 8.4 C 0 km/h
2144 31-03-2007 00:33:02 8.4 C 5.85 g/m*3 8.4 C 0 km/h
2145 31-03-2007 00:38:02 8.2 C 5.86 g/m*3 8.2 C 0 km/h
2146 31-03-2007 00:43:02 8.1 C 5.82 g/m*3 8.1 C 0 km/h
2147 31-03-2007 00:48:02 8.1 C 5.82 g/m*3 8.1 C 0 km/h
2148 31-03-2007 00:53:02 8 C 5.87 g/m*3 8 C 0 km/h
2149 31-03-2007 00:58:02 7.9 C 5.91 g/m*3 7.9 C 0 km/h
2150 31-03-2007 01:03:02 7.9 C 5.91 g/m*3 7.9 C 0 km/h
Sensor: Nr:Datum:Temp:Abs-Feuchte:Windchill:Wind:
Aussen-T/F 2151 31-03-2007 01:08:02 7.9 C 5.91 g/m*3 7.9 C 0 km/h
2152 31-03-2007 01:13:02 7.9 C 6 g/m*3 7.9 C 0 km/h
2153 31-03-2007 01:18:03 8 C 5.87 g/m*3 8 C 0 km/h
2154 31-03-2007 01:23:03 8 C 5.87 g/m*3 8 C 0 km/h
2155 31-03-2007 01:28:03 8 C 5.87 g/m*3 8 C 0 km/h
2156 31-03-2007 01:33:02 7.8 C 5.96 g/m*3 7.8 C 0 km/h
2157 31-03-2007 01:38:02 7.8 C 5.96 g/m*3 7.8 C 0 km/h
2158 31-03-2007 01:43:02 7.7 C 5.92 g/m*3 7.7 C 0 km/h
2159 31-03-2007 01:48:03 7.6 C 5.88 g/m*3 7.6 C 0 km/h
2160 31-03-2007 01:53:03 7.6 C 5.88 g/m*3 7.6 C 0 km/h
2161 31-03-2007 01:58:03 7.5 C 5.84 g/m*3 7.5 C 0 km/h
2162 31-03-2007 02:03:02 7.4 C 5.88 g/m*3 7.4 C 0 km/h
2163 31-03-2007 02:08:02 7.4 C 5.88 g/m*3 7.4 C 0 km/h
2164 31-03-2007 02:13:03 7.4 C 5.88 g/m*3 7.4 C 0 km/h
2165 31-03-2007 02:18:03 7.4 C 5.96 g/m*3 7.4 C 0 km/h
2166 31-03-2007 02:23:03 7.5 C 6.08 g/m*3 7.5 C 0 km/h
2167 31-03-2007 02:28:03 7.4 C 5.96 g/m*3 7.4 C 0 km/h
2168 31-03-2007 02:33:02 7.4 C 5.96 g/m*3 7.4 C 0 km/h
2169 31-03-2007 02:38:02 7.4 C 5.96 g/m*3 7.4 C 0 km/h
2170 31-03-2007 02:43:02 7.4 C 5.96 g/m*3 7.4 C 0 km/h
2171 31-03-2007 02:49:03 7.3 C 5.93 g/m*3 7.3 C 0 km/h
2172 31-03-2007 02:54:03 7.2 C 5.89 g/m*3 7.2 C 0 km/h
2173 31-03-2007 02:59:03 7.2 C 5.89 g/m*3 7.2 C 0 km/h
2174 31-03-2007 03:04:03 7.1 C 5.85 g/m*3 7.1 C 0 km/h
2175 31-03-2007 03:09:04 7 C 5.89 g/m*3 7 C 0 km/h
Sensor: Nr:Datum:Temp:Abs-Feuchte:Windchill:Wind:
Aussen-T/F 2176 31-03-2007 03:14:03 6.8 C 5.89 g/m*3 6.8 C 0 km/h
2177 31-03-2007 03:19:03 6.7 C 5.85 g/m*3 6.7 C 0 km/h
2178 31-03-2007 03:24:03 6.7 C 5.93 g/m*3 6.7 C 0 km/h
2179 31-03-2007 03:29:04 6.8 C 5.97 g/m*3 6.8 C 0 km/h
2180 31-03-2007 03:34:02 6.6 C 6.04 g/m*3 6.6 C 0 km/h
2181 31-03-2007 03:39:03 6.5 C 6 g/m*3 6.5 C 0 km/h
2182 31-03-2007 03:44:03 6.5 C 6 g/m*3 6.5 C 0 km/h
2183 31-03-2007 03:49:03 6.5 C 6 g/m*3 6.5 C 0 km/h
2184 31-03-2007 03:54:03 6.4 C 5.89 g/m*3 6.4 C 0 km/h
2185 31-03-2007 03:59:03 6.4 C 5.96 g/m*3 6.4 C 0 km/h
2186 31-03-2007 04:04:02 6.2 C 5.88 g/m*3 6.2 C 0 km/h
2187 31-03-2007 04:09:02 6.1 C 5.84 g/m*3 6.1 C 0 km/h
2188 31-03-2007 04:14:02 6.1 C 5.92 g/m*3 6.1 C 0 km/h
2189 31-03-2007 04:19:02 6.1 C 5.92 g/m*3 6.1 C 0 km/h
2190 31-03-2007 04:24:02 6.2 C 5.96 g/m*3 6.2 C 0 km/h
2191 31-03-2007 04:29:02 6.2 C 5.96 g/m*3 6.2 C 0 km/h
2192 31-03-2007 04:34:02 6.2 C 5.96 g/m*3 6.2 C 0 km/h
2193 31-03-2007 04:39:02 6.2 C 5.96 g/m*3 6.2 C 0 km/h
2194 31-03-2007 04:44:02 6.2 C 5.96 g/m*3 6.2 C 0 km/h
2195 31-03-2007 04:49:02 6.1 C 5.92 g/m*3 6.1 C 0 km/h
2196 31-03-2007 04:54:03 6.1 C 5.92 g/m*3 6.1 C 0 km/h
2197 31-03-2007 04:59:03 6.1 C 5.92 g/m*3 6.1 C 0 km/h
2198 31-03-2007 05:04:02 6 C 5.88 g/m*3 6 C 0 km/h
2199 31-03-2007 05:09:02 6 C 5.88 g/m*3 6 C 0 km/h
2200 31-03-2007 05:14:03 6.1 C 5.92 g/m*3 6.1 C 0 km/h
Sensor: Nr:Datum:Temp:Abs-Feuchte:Windchill:Wind:
Aussen-T/F 2201 31-03-2007 05:19:02 6.1 C 5.92 g/m*3 6.1 C 0 km/h
2202 31-03-2007 05:24:02 6.2 C 5.96 g/m*3 6.2 C 0 km/h
2203 31-03-2007 05:29:02 6.2 C 5.96 g/m*3 6.2 C 0 km/h
2204 31-03-2007 05:34:02 6.2 C 5.96 g/m*3 6.2 C 0 km/h
2205 31-03-2007 05:39:02 6.2 C 5.96 g/m*3 6.2 C 0 km/h
2206 31-03-2007 05:44:02 6.2 C 5.96 g/m*3 6.2 C 0 km/h
2207 31-03-2007 05:49:03 6.2 C 5.96 g/m*3 6.2 C 0 km/h
2208 31-03-2007 05:54:03 6.2 C 5.88 g/m*3 6.2 C 0 km/h
2209 31-03-2007 05:59:03 6.2 C 5.88 g/m*3 6.2 C 0 km/h
2210 31-03-2007 06:04:03 6.1 C 5.84 g/m*3 6.1 C 0 km/h
2211 31-03-2007 06:09:03 6.2 C 5.96 g/m*3 6.2 C 0 km/h
2212 31-03-2007 06:14:03 6.2 C 5.96 g/m*3 6.2 C 0 km/h
2213 31-03-2007 06:19:02 6.1 C 5.92 g/m*3 6.1 C 0 km/h
2214 31-03-2007 06:24:03 6.1 C 5.92 g/m*3 6.1 C 0 km/h
2215 31-03-2007 06:29:03 6 C 5.88 g/m*3 6 C 0 km/h
2216 31-03-2007 06:34:02 6 C 5.88 g/m*3 6 C 0 km/h
2217 31-03-2007 06:39:02 5.9 C 5.91 g/m*3 5.9 C 0 km/h
2218 31-03-2007 06:44:02 5.8 C 5.87 g/m*3 5.8 C 0 km/h
2219 31-03-2007 06:49:02 5.7 C 5.84 g/m*3 5.7 C 0 km/h
2220 31-03-2007 06:54:02 5.7 C 5.84 g/m*3 5.7 C 0 km/h
2221 31-03-2007 06:59:02 5.6 C 5.8 g/m*3 5.6 C 0 km/h
2222 31-03-2007 07:04:02 5.6 C 5.87 g/m*3 5.6 C 0 km/h
2223 31-03-2007 07:09:03 5.7 C 5.91 g/m*3 5.7 C 0 km/h
2224 31-03-2007 07:14:03 5.8 C 5.95 g/m*3 5.8 C 0 km/h
2225 31-03-2007 07:19:01 5.8 C 6.02 g/m*3 5.8 C 0 km/h
Sensor: Nr:Datum:Temp:Abs-Feuchte:Windchill:Wind:
Aussen-T/F 2226 31-03-2007 07:24:01 5.8 C 5.95 g/m*3 5.8 C 0 km/h
2227 31-03-2007 07:29:01 5.8 C 5.95 g/m*3 5.8 C 0 km/h
2228 31-03-2007 07:34:01 5.9 C 5.98 g/m*3 5.9 C 0 km/h
2229 31-03-2007 07:39:01 5.9 C 5.98 g/m*3 5.9 C 0 km/h
2230 31-03-2007 07:44:01 5.9 C 5.98 g/m*3 5.9 C 0 km/h
2231 31-03-2007 07:49:02 6 C 5.95 g/m*3 6 C 0 km/h
2232 31-03-2007 07:54:03 6 C 5.95 g/m*3 6 C 0 km/h
2233 31-03-2007 07:59:03 6.1 C 5.99 g/m*3 6.1 C 0 km/h
2234 31-03-2007 08:04:02 6.1 C 5.99 g/m*3 6.1 C 0 km/h
2235 31-03-2007 08:09:02 6.2 C 6.03 g/m*3 6.2 C 0 km/h
2236 31-03-2007 08:14:02 6.2 C 6.03 g/m*3 6.2 C 0 km/h
2237 31-03-2007 08:19:01 6.2 C 6.03 g/m*3 6.2 C 0 km/h
2238 31-03-2007 08:24:01 6.3 C 6.07 g/m*3 6.3 C 0 km/h
2239 31-03-2007 08:29:01 6.4 C 6.11 g/m*3 6.4 C 0 km/h
2240 31-03-2007 08:34:02 6.5 C 6.15 g/m*3 6.5 C 0 km/h
2241 31-03-2007 08:39:02 6.6 C 6.19 g/m*3 6.6 C 0 km/h
2242 31-03-2007 08:44:02 6.8 C 6.27 g/m*3 6.8 C 0 km/h
2243 31-03-2007 08:49:02 6.9 C 6.31 g/m*3 6.9 C 0 km/h
2244 31-03-2007 08:54:02 7 C 6.28 g/m*3 7 C 0 km/h
2245 31-03-2007 08:59:03 7.2 C 6.36 g/m*3 7.2 C 0 km/h
2246 31-03-2007 09:04:01 7.3 C 6.32 g/m*3 7.3 C 0 km/h
2247 31-03-2007 09:09:01 7.3 C 6.32 g/m*3 7.3 C 0 km/h
2248 31-03-2007 09:14:01 7.5 C 6.4 g/m*3 7.5 C 0 km/h
2249 31-03-2007 09:19:01 7.6 C 6.44 g/m*3 7.6 C 0 km/h
2250 31-03-2007 09:24:01 7.7 C 6.49 g/m*3 7.7 C 0 km/h
Sensor: Nr:Datum:Temp:Abs-Feuchte:Windchill:Wind:
Aussen-T/F 2251 31-03-2007 09:29:01 7.9 C 6.49 g/m*3 7.9 C 0 km/h
2252 31-03-2007 09:34:01 8.1 C 6.49 g/m*3 8.1 C 0 km/h
2253 31-03-2007 09:39:01 8.1 C 6.49 g/m*3 8.1 C 0 km/h
2254 31-03-2007 09:44:01 8.2 C 6.53 g/m*3 8.2 C 0 km/h
2255 31-03-2007 09:49:02 8.3 C 6.49 g/m*3 8.3 C 0 km/h
2256 31-03-2007 09:54:03 8.4 C 6.53 g/m*3 8.4 C 0 km/h
2257 31-03-2007 09:59:03 8.6 C 6.62 g/m*3 8.6 C 0 km/h
2258 31-03-2007 10:04:02 8.8 C 6.7 g/m*3 8.8 C 0 km/h
2259 31-03-2007 10:09:02 9.1 C 6.57 g/m*3 9.1 C 0 km/h
2260 31-03-2007 10:14:02 9.2 C 6.52 g/m*3 9.2 C 0 km/h
2261 31-03-2007 10:19:01 9.6 C 6.41 g/m*3 9.6 C 0 km/h
2262 31-03-2007 10:24:01 9.7 C 6.36 g/m*3 9.7 C 0 km/h
2263 31-03-2007 10:29:01 9.8 C 6.31 g/m*3 9.8 C 0 km/h
2264 31-03-2007 10:34:02 10.1 C 6.34 g/m*3 10.1 C 0 km/h
2265 31-03-2007 10:39:02 10.2 C 6.28 g/m*3 10.2 C 0 km/h
2266 31-03-2007 10:44:02 10.3 C 6.32 g/m*3 10.3 C 0 km/h
2267 31-03-2007 10:49:02 10.6 C 6.34 g/m*3 10.6 C 0 km/h
2268 31-03-2007 10:54:02 10.8 C 6.33 g/m*3 10.8 C 0 km/h
2269 31-03-2007 10:59:02 10.9 C 6.27 g/m*3 10.9 C 0 km/h
2270 31-03-2007 11:04:02 11 C 6.11 g/m*3 11 C 0 km/h
2271 31-03-2007 11:09:02 11.1 C 6.04 g/m*3 11.1 C 0 km/h
2272 31-03-2007 11:14:02 11.4 C 6.16 g/m*3 11.4 C 0 km/h
2273 31-03-2007 11:19:01 11.5 C 6.2 g/m*3 11.5 C 0 km/h
2274 31-03-2007 11:24:01 11.8 C 6.1 g/m*3 11.8 C 0 km/h
2275 31-03-2007 11:29:01 12.2 C 5.83 g/m*3 12.2 C 0 km/h
Sensor: Nr:Datum:Temp:Abs-Feuchte:Windchill:Wind:
Aussen-T/F 2276 31-03-2007 11:34:02 12.3 C 5.75 g/m*3 12.3 C 0 km/h
2277 31-03-2007 11:39:02 12.5 C 5.61 g/m*3 12.5 C 0 km/h
2278 31-03-2007 11:44:02 12.7 C 5.57 g/m*3 12.7 C 0 km/h
2279 31-03-2007 11:49:01 12.8 C 5.49 g/m*3 12.8 C 0 km/h
2280 31-03-2007 11:54:01 13 C 5.33 g/m*3 13 C 0 km/h
2281 31-03-2007 11:59:01 13.2 C 5.28 g/m*3 13.2 C 0 km/h
2282 31-03-2007 12:04:01 13.4 C 5.23 g/m*3 13.4 C 0 km/h
2283 31-03-2007 12:09:01 13.6 C 5.41 g/m*3 13.6 C 0 km/h
2284 31-03-2007 12:14:01 13.8 C 5.12 g/m*3 13.8 C 0 km/h
2285 31-03-2007 12:19:01 14 C 5.07 g/m*3 14 C 0 km/h
2286 31-03-2007 12:24:01 14.2 C 5.13 g/m*3 14.2 C 0 km/h
2287 31-03-2007 12:29:01 14.5 C 5.1 g/m*3 14.5 C 0 km/h
2288 31-03-2007 12:34:02 14.8 C 5.19 g/m*3 14.8 C 0 km/h
2289 31-03-2007 12:39:02 14.9 C 5.1 g/m*3 14.9 C 0 km/h
2290 31-03-2007 12:44:02 14.9 C 5.1 g/m*3 14.9 C 0 km/h
2291 31-03-2007 12:49:01 15 C 4.74 g/m*3 15 C 0 km/h
2292 31-03-2007 12:54:01 15 C 4.62 g/m*3 15 C 0 km/h
2293 31-03-2007 12:59:01 15.1 C 4.77 g/m*3 15.1 C 0 km/h
2294 31-03-2007 13:04:01 15.2 C 4.67 g/m*3 15.2 C 0 km/h
2295 31-03-2007 13:09:01 15.4 C 4.73 g/m*3 15.4 C 0 km/h
2296 31-03-2007 13:14:01 15.4 C 4.73 g/m*3 15.4 C 0 km/h
2297 31-03-2007 13:19:02 15.4 C 4.73 g/m*3 15.4 C 0 km/h
2298 31-03-2007 13:24:02 15.3 C 4.83 g/m*3 15.3 C 0 km/h
2299 31-03-2007 13:29:02 15.3 C 4.7 g/m*3 15.3 C 0 km/h
2300 31-03-2007 13:34:02 15 C 4.74 g/m*3 15 C 0 km/h
Sensor: Nr:Datum:Temp:Abs-Feuchte:Windchill:Wind:
Aussen-T/F 2301 31-03-2007 13:39:02 14.8 C 4.69 g/m*3 14.8 C 0 km/h
2302 31-03-2007 13:44:02 14.8 C 4.81 g/m*3 14.8 C 0 km/h
2303 31-03-2007 13:49:02 15 C 4.87 g/m*3 15 C 0 km/h
2304 31-03-2007 13:54:02 15.2 C 4.8 g/m*3 15.2 C 0 km/h
2305 31-03-2007 13:59:02 15.5 C 4.89 g/m*3 15.5 C 0 km/h
2306 31-03-2007 14:04:02 15.6 C 4.79 g/m*3 15.6 C 0 km/h
2307 31-03-2007 14:09:02 15.8 C 4.85 g/m*3 15.8 C 0 km/h
2308 31-03-2007 14:14:02 15.8 C 4.98 g/m*3 15.8 C 0 km/h
2309 31-03-2007 14:19:02 15.7 C 4.95 g/m*3 15.7 C 0 km/h
2310 31-03-2007 14:24:02 15.6 C 4.92 g/m*3 15.6 C 0 km/h
2311 31-03-2007 14:29:02 15.5 C 5.02 g/m*3 15.5 C 0 km/h
2312 31-03-2007 14:34:02 15.5 C 5.02 g/m*3 15.5 C 0 km/h
2313 31-03-2007 14:39:02 15.6 C 5.05 g/m*3 15.6 C 0 km/h
2314 31-03-2007 14:44:02 15.6 C 4.92 g/m*3 15.6 C 0 km/h
2315 31-03-2007 14:49:02 15.7 C 4.95 g/m*3 15.7 C 0 km/h
2316 31-03-2007 14:54:02 15.6 C 4.92 g/m*3 15.6 C 0 km/h
2317 31-03-2007 14:59:02 15.4 C 4.86 g/m*3 15.4 C 0 km/h
2318 31-03-2007 15:04:01 15.4 C 4.86 g/m*3 15.4 C 0 km/h
2319 31-03-2007 15:09:01 15.4 C 4.86 g/m*3 15.4 C 0 km/h
2320 31-03-2007 15:14:01 15.3 C 4.96 g/m*3 15.3 C 0 km/h
2321 31-03-2007 15:19:01 15 C 5 g/m*3 15 C 0 km/h
2322 31-03-2007 15:24:01 14.9 C 5.1 g/m*3 14.9 C 0 km/h
2323 31-03-2007 15:29:01 14.7 C 5.04 g/m*3 14.7 C 0 km/h
2324 31-03-2007 15:34:02 14.7 C 5.04 g/m*3 14.7 C 0 km/h
2325 31-03-2007 15:39:02 14.7 C 5.16 g/m*3 14.7 C 0 km/h
Sensor: Nr:Datum:Temp:Abs-Feuchte:Windchill:Wind:
Aussen-T/F 2326 31-03-2007 15:44:02 14.6 C 5.26 g/m*3 14.6 C 0 km/h
2327 31-03-2007 15:49:01 14.5 C 5.22 g/m*3 14.5 C 0 km/h
2328 31-03-2007 15:54:01 14.5 C 5.1 g/m*3 14.5 C 0 km/h
2329 31-03-2007 15:59:01 14.6 C 5.13 g/m*3 14.6 C 0 km/h
2330 31-03-2007 16:04:02 14.7 C 5.16 g/m*3 14.7 C 0 km/h
2331 31-03-2007 16:09:02 14.8 C 5.07 g/m*3 14.8 C 0 km/h
2332 31-03-2007 16:14:02 14.7 C 5.04 g/m*3 14.7 C 0 km/h
2333 31-03-2007 16:19:02 14.7 C 5.04 g/m*3 14.7 C 0 km/h
2334 31-03-2007 16:24:02 14.7 C 4.91 g/m*3 14.7 C 0 km/h
2335 31-03-2007 16:29:02 14.9 C 5.1 g/m*3 14.9 C 0 km/h
2336 31-03-2007 16:34:01 15 C 5 g/m*3 15 C 0 km/h
2337 31-03-2007 16:39:01 15.1 C 4.9 g/m*3 15.1 C 0 km/h
2338 31-03-2007 16:44:01 15.2 C 4.93 g/m*3 15.2 C 0 km/h
2339 31-03-2007 16:49:02 15.3 C 4.96 g/m*3 15.3 C 0 km/h
2340 31-03-2007 16:54:02 15.1 C 5.16 g/m*3 15.1 C 0 km/h
2341 31-03-2007 16:59:02 14.8 C 5.19 g/m*3 14.8 C 0 km/h
2342 31-03-2007 17:04:02 14.8 C 5.19 g/m*3 14.8 C 0 km/h
2343 31-03-2007 17:09:02 14.7 C 5.16 g/m*3 14.7 C 0 km/h
2344 31-03-2007 17:14:02 14.6 C 5.26 g/m*3 14.6 C 0 km/h
2345 31-03-2007 17:19:02 14.6 C 5.26 g/m*3 14.6 C 0 km/h
2346 31-03-2007 17:24:02 14.5 C 5.22 g/m*3 14.5 C 0 km/h
2347 31-03-2007 17:29:02 14.5 C 5.22 g/m*3 14.5 C 0 km/h
2348 31-03-2007 17:34:02 14.5 C 5.22 g/m*3 14.5 C 0 km/h
2349 31-03-2007 17:39:02 14.5 C 5.22 g/m*3 14.5 C 0 km/h
2350 31-03-2007 17:44:02 14.5 C 5.22 g/m*3 14.5 C 0 km/h
Sensor: Nr:Datum:Temp:Abs-Feuchte:Windchill:Wind:
Aussen-T/F 2351 31-03-2007 17:49:03 14.5 C 5.35 g/m*3 14.5 C 0 km/h
2352 31-03-2007 17:54:03 14.5 C 5.47 g/m*3 14.5 C 0 km/h
2353 31-03-2007 17:59:03 14.5 C 5.47 g/m*3 14.5 C 0 km/h
2354 31-03-2007 18:04:02 14.5 C 5.35 g/m*3 14.5 C 0 km/h
2355 31-03-2007 18:09:03 14.3 C 5.41 g/m*3 14.3 C 0 km/h
2356 31-03-2007 18:14:03 14.2 C 5.37 g/m*3 14.2 C 0 km/h
2357 31-03-2007 18:19:02 14.1 C 5.34 g/m*3 14.1 C 0 km/h
2358 31-03-2007 18:24:02 14 C 5.43 g/m*3 14 C 0 km/h
2359 31-03-2007 18:29:02 13.9 C 5.39 g/m*3 13.9 C 0 km/h
2360 31-03-2007 18:34:02 13.8 C 5.48 g/m*3 13.8 C 0 km/h
2361 31-03-2007 18:39:02 13.9 C 5.51 g/m*3 13.9 C 0 km/h
2362 31-03-2007 18:44:02 13.7 C 5.68 g/m*3 13.7 C 0 km/h
2363 31-03-2007 18:49:03 13.5 C 5.73 g/m*3 13.5 C 0 km/h
2364 31-03-2007 18:54:03 12.8 C 6.27 g/m*3 12.8 C 0 km/h
2365 31-03-2007 18:59:03 12.7 C 6.35 g/m*3 12.7 C 0 km/h
2366 31-03-2007 19:04:02 12.4 C 6.66 g/m*3 12.4 C 0 km/h
2367 31-03-2007 19:09:03 12.1 C 6.65 g/m*3 12.1 C 0 km/h
2368 31-03-2007 19:14:03 12.1 C 6.76 g/m*3 12.1 C 0 km/h
2369 31-03-2007 19:19:02 12.2 C 6.91 g/m*3 12.2 C 0 km/h
2370 31-03-2007 19:24:03 12 C 7.03 g/m*3 12 C 0 km/h
2371 31-03-2007 19:29:03 11.9 C 7.1 g/m*3 11.9 C 0 km/h
2372 31-03-2007 19:34:02 11.6 C 7.07 g/m*3 11.6 C 0 km/h
2373 31-03-2007 19:39:02 11.6 C 7.07 g/m*3 11.6 C 0 km/h
2374 31-03-2007 19:44:02 11.5 C 7.13 g/m*3 11.5 C 0 km/h
2375 31-03-2007 19:49:02 11.6 C 7.28 g/m*3 11.6 C 0 km/h
Sensor: Nr:Datum:Temp:Abs-Feuchte:Windchill:Wind:
Aussen-T/F 2376 31-03-2007 19:54:02 11.7 C 7.32 g/m*3 11.7 C 0 km/h
2377 31-03-2007 19:59:02 11.4 C 7.29 g/m*3 11.4 C 0 km/h
2378 31-03-2007 20:04:02 11.4 C 7.29 g/m*3 11.4 C 0 km/h
2379 31-03-2007 20:09:02 11.2 C 7.3 g/m*3 11.2 C 0 km/h
2380 31-03-2007 20:14:02 11 C 7.31 g/m*3 11 C 0 km/h
2381 31-03-2007 20:19:02 11 C 7.41 g/m*3 11 C 0 km/h
2382 31-03-2007 20:24:02 10.9 C 7.36 g/m*3 10.9 C 0 km/h
2383 31-03-2007 20:29:02 11 C 7.41 g/m*3 11 C 0 km/h
2384 31-03-2007 20:34:02 11 C 7.41 g/m*3 11 C 0 km/h
2385 31-03-2007 20:39:02 11.1 C 7.25 g/m*3 11.1 C 0 km/h
2386 31-03-2007 20:44:02 11.2 C 7.2 g/m*3 11.2 C 0 km/h
2387 31-03-2007 20:49:03 11.2 C 7.2 g/m*3 11.2 C 0 km/h
2388 31-03-2007 20:54:03 11.4 C 7.19 g/m*3 11.4 C 0 km/h
2389 31-03-2007 20:59:03 11.4 C 7.08 g/m*3 11.4 C 0 km/h
2390 31-03-2007 21:04:02 11.5 C 7.13 g/m*3 11.5 C 0 km/h
2391 31-03-2007 21:09:02 11.5 C 7.13 g/m*3 11.5 C 0 km/h
2392 31-03-2007 21:14:03 11.5 C 6.92 g/m*3 11.5 C 0 km/h
2393 31-03-2007 21:19:02 11.4 C 6.98 g/m*3 11.4 C 0 km/h
2394 31-03-2007 21:24:02 11.3 C 6.94 g/m*3 11.3 C 0 km/h
2395 31-03-2007 21:29:02 11.1 C 6.85 g/m*3 11.1 C 0 km/h
2396 31-03-2007 21:34:02 11.1 C 6.85 g/m*3 11.1 C 0 km/h
2397 31-03-2007 21:39:02 11.1 C 6.85 g/m*3 11.1 C 0 km/h
2398 31-03-2007 21:44:02 11.2 C 6.89 g/m*3 11.2 C 0 km/h
2399 31-03-2007 21:49:01 11.4 C 6.77 g/m*3 11.4 C 0 km/h
2400 31-03-2007 21:54:01 11.5 C 6.82 g/m*3 11.5 C 0 km/h
Sensor: Nr:Datum:Temp:Abs-Feuchte:Windchill:Wind:
Aussen-T/F 2401 31-03-2007 21:59:02 11.5 C 6.82 g/m*3 11.5 C 0 km/h
2402 31-03-2007 22:04:01 11.5 C 6.61 g/m*3 11.5 C 0 km/h
2403 31-03-2007 22:09:01 11.6 C 6.65 g/m*3 11.6 C 0 km/h
2404 31-03-2007 22:14:01 11.6 C 6.65 g/m*3 11.6 C 0 km/h
2405 31-03-2007 22:19:01 11.6 C 6.55 g/m*3 11.6 C 0 km/h
2406 31-03-2007 22:24:01 11.5 C 6.61 g/m*3 11.5 C 0 km/h
2407 31-03-2007 22:29:01 11.5 C 6.51 g/m*3 11.5 C 0 km/h
2408 31-03-2007 22:34:02 11.5 C 6.51 g/m*3 11.5 C 0 km/h
2409 31-03-2007 22:39:02 11.5 C 6.51 g/m*3 11.5 C 0 km/h
2410 31-03-2007 22:44:02 11.5 C 6.51 g/m*3 11.5 C 0 km/h
2411 31-03-2007 22:49:01 11.5 C 6.3 g/m*3 11.5 C 0 km/h
2412 31-03-2007 22:54:01 11.7 C 6.07 g/m*3 11.7 C 0 km/h
2413 31-03-2007 22:59:01 11.7 C 6.17 g/m*3 11.7 C 0 km/h
2414 31-03-2007 23:04:01 11.7 C 6.17 g/m*3 11.7 C 0 km/h
2415 31-03-2007 23:09:01 11.7 C 6.07 g/m*3 11.7 C 0 km/h
2416 31-03-2007 23:14:01 11.6 C 6.03 g/m*3 11.6 C 0 km/h
2417 31-03-2007 23:19:02 11.6 C 6.03 g/m*3 11.6 C 0 km/h
2418 31-03-2007 23:24:02 11.6 C 5.92 g/m*3 11.6 C 0 km/h
2419 31-03-2007 23:29:02 11.7 C 5.86 g/m*3 11.7 C 0 km/h
2420 31-03-2007 23:34:02 11.7 C 5.86 g/m*3 11.7 C 0 km/h
2421 31-03-2007 23:39:02 12 C 5.54 g/m*3 12 C 0 km/h
2422 31-03-2007 23:44:02 12.1 C 5.36 g/m*3 12.1 C 0 km/h
2423 31-03-2007 23:49:02 12.2 C 5.29 g/m*3 12.2 C 0 km/h
2424 31-03-2007 23:54:02 12.2 C 5.4 g/m*3 12.2 C 0 km/h
2425 31-03-2007 23:59:02 12.2 C 5.29 g/m*3 12.2 C 0 km/h
Sensor: Nr:Datum:Temp:Abs-Feuchte:Windchill:Wind:
Aussen-T/F 2426 01-04-2007 00:04:03 12.2 C 5.4 g/m*3 12.2 C 0 km/h
2427 01-04-2007 00:09:03 12.2 C 5.4 g/m*3 12.2 C 0 km/h
2428 01-04-2007 00:14:03 11.9 C 5.61 g/m*3 11.9 C 0 km/h
2429 01-04-2007 00:19:03 11.9 C 5.51 g/m*3 11.9 C 0 km/h
2430 01-04-2007 00:24:03 11.9 C 5.72 g/m*3 11.9 C 0 km/h
2431 01-04-2007 00:29:03 12.1 C 5.25 g/m*3 12.1 C 0 km/h
2432 01-04-2007 00:34:02 12.2 C 5.29 g/m*3 12.2 C 0 km/h
2433 01-04-2007 00:39:02 12.2 C 5.4 g/m*3 12.2 C 0 km/h
2434 01-04-2007 00:44:02 12.1 C 5.25 g/m*3 12.1 C 0 km/h
2435 01-04-2007 00:49:03 12.2 C 5.07 g/m*3 12.2 C 0 km/h
2436 01-04-2007 00:54:03 12.2 C 5.18 g/m*3 12.2 C 0 km/h
2437 01-04-2007 00:59:03 12.2 C 5.18 g/m*3 12.2 C 0 km/h
2438 01-04-2007 01:04:03 12 C 5.12 g/m*3 12 C 0 km/h
2439 01-04-2007 01:09:03 11.8 C 5.37 g/m*3 11.8 C 0 km/h
2440 01-04-2007 01:14:03 11.9 C 5.4 g/m*3 11.9 C 0 km/h
2441 01-04-2007 01:19:02 11.7 C 5.12 g/m*3 11.7 C 0 km/h
2442 01-04-2007 01:24:02 12 C 5.01 g/m*3 12 C 0 km/h
2443 01-04-2007 01:29:03 11.9 C 5.08 g/m*3 11.9 C 0 km/h
2444 01-04-2007 01:34:02 11.7 C 5.12 g/m*3 11.7 C 0 km/h
2445 01-04-2007 01:39:02 11.5 C 5.16 g/m*3 11.5 C 0 km/h
2446 01-04-2007 01:44:02 11.4 C 5.13 g/m*3 11.4 C 0 km/h
2447 01-04-2007 01:49:02 11.3 C 5.1 g/m*3 11.3 C 0 km/h
2448 01-04-2007 01:54:02 11.2 C 5.07 g/m*3 11.2 C 0 km/h
2449 01-04-2007 01:59:02 11.2 C 4.97 g/m*3 11.2 C 0 km/h
2450 01-04-2007 02:04:03 11.3 C 5 g/m*3 11.3 C 0 km/h
Sensor: Nr:Datum:Temp:Abs-Feuchte:Windchill:Wind:
Aussen-T/F 2451 01-04-2007 02:09:03 11 C 5 g/m*3 11 C 0 km/h
2452 01-04-2007 02:14:03 10.9 C 5.07 g/m*3 10.9 C 0 km/h
2453 01-04-2007 02:19:02 10.8 C 5.04 g/m*3 10.8 C 0 km/h
2454 01-04-2007 02:24:02 10.6 C 5.08 g/m*3 10.6 C 0 km/h
2455 01-04-2007 02:29:02 10.5 C 5.14 g/m*3 10.5 C 0 km/h
2456 01-04-2007 02:34:02 10.4 C 5.01 g/m*3 10.4 C 0 km/h
2457 01-04-2007 02:39:02 10.4 C 5.01 g/m*3 10.4 C 0 km/h
2458 01-04-2007 02:44:02 10.3 C 4.98 g/m*3 10.3 C 0 km/h
2459 01-04-2007 02:50:03 10.1 C 5.01 g/m*3 10.1 C 0 km/h
2460 01-04-2007 02:55:03 10.1 C 5.01 g/m*3 10.1 C 0 km/h
2461 01-04-2007 03:00:03 9.9 C 5.04 g/m*3 9.9 C 0 km/h
2462 01-04-2007 03:05:03 9.9 C 5.04 g/m*3 9.9 C 0 km/h
2463 01-04-2007 03:10:03 9.7 C 5.07 g/m*3 9.7 C 0 km/h
2464 01-04-2007 03:15:03 9.6 C 5.04 g/m*3 9.6 C 0 km/h
2465 01-04-2007 03:20:03 9.5 C 5.01 g/m*3 9.5 C 0 km/h
2466 01-04-2007 03:25:03 9.5 C 5.01 g/m*3 9.5 C 0 km/h
2467 01-04-2007 03:30:03 9.6 C 4.95 g/m*3 9.6 C 0 km/h
2468 01-04-2007 03:35:03 9.6 C 4.95 g/m*3 9.6 C 0 km/h
2469 01-04-2007 03:40:03 9.7 C 4.98 g/m*3 9.7 C 0 km/h
2470 01-04-2007 03:45:03 9.6 C 4.86 g/m*3 9.6 C 0 km/h
2471 01-04-2007 03:50:03 9.6 C 4.95 g/m*3 9.6 C 0 km/h
2472 01-04-2007 03:55:03 9.6 C 4.95 g/m*3 9.6 C 0 km/h
2473 01-04-2007 04:00:03 9.5 C 4.82 g/m*3 9.5 C 0 km/h
2474 01-04-2007 04:05:03 9.6 C 4.86 g/m*3 9.6 C 0 km/h
2475 01-04-2007 04:10:03 9.7 C 4.79 g/m*3 9.7 C 0 km/h
Sensor: Nr:Datum:Temp:Abs-Feuchte:Windchill:Wind:
Aussen-T/F 2476 01-04-2007 04:15:02 9.6 C 4.76 g/m*3 9.6 C 0 km/h
2477 01-04-2007 04:20:02 9.6 C 4.76 g/m*3 9.6 C 0 km/h
2478 01-04-2007 04:25:02 9.4 C 4.79 g/m*3 9.4 C 0 km/h
2479 01-04-2007 04:30:03 9.4 C 4.79 g/m*3 9.4 C 0 km/h
2480 01-04-2007 04:35:02 9.4 C 4.79 g/m*3 9.4 C 0 km/h
2481 01-04-2007 04:40:03 9.2 C 4.73 g/m*3 9.2 C 0 km/h
2482 01-04-2007 04:45:02 9.2 C 4.64 g/m*3 9.2 C 0 km/h
2483 01-04-2007 04:50:02 9.3 C 4.67 g/m*3 9.3 C 0 km/h
2484 01-04-2007 04:55:02 9.3 C 4.67 g/m*3 9.3 C 0 km/h
2485 01-04-2007 05:00:02 9.2 C 4.64 g/m*3 9.2 C 0 km/h
2486 01-04-2007 05:05:02 9.2 C 4.55 g/m*3 9.2 C 0 km/h
2487 01-04-2007 05:10:02 9.1 C 4.61 g/m*3 9.1 C 0 km/h
2488 01-04-2007 05:15:02 9.1 C 4.53 g/m*3 9.1 C 0 km/h
2489 01-04-2007 05:20:02 9.2 C 4.55 g/m*3 9.2 C 0 km/h
2490 01-04-2007 05:25:02 9.3 C 4.58 g/m*3 9.3 C 0 km/h
2491 01-04-2007 05:30:02 9.3 C 4.49 g/m*3 9.3 C 0 km/h
2492 01-04-2007 05:35:02 9.2 C 4.46 g/m*3 9.2 C 0 km/h
2493 01-04-2007 05:40:02 9.2 C 4.46 g/m*3 9.2 C 0 km/h
2494 01-04-2007 05:45:02 9.2 C 4.38 g/m*3 9.2 C 0 km/h
2495 01-04-2007 05:50:02 9.3 C 4.31 g/m*3 9.3 C 0 km/h
2496 01-04-2007 05:55:02 9.3 C 4.31 g/m*3 9.3 C 0 km/h
2497 01-04-2007 06:00:02 9.3 C 4.31 g/m*3 9.3 C 0 km/h
2498 01-04-2007 06:05:03 9.3 C 4.31 g/m*3 9.3 C 0 km/h
2499 01-04-2007 06:10:03 9.2 C 4.38 g/m*3 9.2 C 0 km/h
2500 01-04-2007 06:15:02 9.2 C 4.38 g/m*3 9.2 C 0 km/h
Sensor: Nr:Datum:Temp:Abs-Feuchte:Windchill:Wind:
Aussen-T/F 2501 01-04-2007 06:20:02 9 C 4.41 g/m*3 9 C 0 km/h
2502 01-04-2007 06:25:02 8.7 C 4.5 g/m*3 8.7 C 0 km/h
2503 01-04-2007 06:30:02 8.5 C 4.53 g/m*3 8.5 C 0 km/h
2504 01-04-2007 06:35:02 8.3 C 4.55 g/m*3 8.3 C 0 km/h
2505 01-04-2007 06:40:02 8.2 C 4.61 g/m*3 8.2 C 0 km/h
2506 01-04-2007 06:45:02 8.1 C 4.49 g/m*3 8.1 C 0 km/h
2507 01-04-2007 06:50:02 8.1 C 4.49 g/m*3 8.1 C 0 km/h
2508 01-04-2007 06:55:02 8 C 4.55 g/m*3 8 C 0 km/h
2509 01-04-2007 07:00:02 7.9 C 4.6 g/m*3 7.9 C 0 km/h
2510 01-04-2007 07:05:01 7.8 C 4.57 g/m*3 7.8 C 0 km/h
2511 01-04-2007 07:10:02 7.6 C 4.59 g/m*3 7.6 C 0 km/h
2512 01-04-2007 07:15:01 7.6 C 4.67 g/m*3 7.6 C 0 km/h
2513 01-04-2007 07:20:01 7.6 C 4.59 g/m*3 7.6 C 0 km/h
2514 01-04-2007 07:25:01 7.6 C 4.67 g/m*3 7.6 C 0 km/h
2515 01-04-2007 07:30:01 7.6 C 4.67 g/m*3 7.6 C 0 km/h
2516 01-04-2007 07:35:01 7.7 C 4.62 g/m*3 7.7 C 0 km/h
2517 01-04-2007 07:40:01 7.7 C 4.62 g/m*3 7.7 C 0 km/h
2518 01-04-2007 07:45:01 7.6 C 4.59 g/m*3 7.6 C 0 km/h
2519 01-04-2007 07:50:01 7.5 C 4.64 g/m*3 7.5 C 0 km/h
2520 01-04-2007 07:55:02 7.6 C 4.67 g/m*3 7.6 C 0 km/h
2521 01-04-2007 08:00:02 7.5 C 4.72 g/m*3 7.5 C 0 km/h
2522 01-04-2007 08:05:01 7.5 C 4.72 g/m*3 7.5 C 0 km/h
2523 01-04-2007 08:10:01 7.5 C 4.64 g/m*3 7.5 C 0 km/h
2524 01-04-2007 08:15:02 7.5 C 4.64 g/m*3 7.5 C 0 km/h
2525 01-04-2007 08:20:02 7.7 C 4.62 g/m*3 7.7 C 0 km/h
Sensor: Nr:Datum:Temp:Abs-Feuchte:Windchill:Wind:
Aussen-T/F 2526 01-04-2007 08:25:02 7.8 C 4.65 g/m*3 7.8 C 0 km/h
2527 01-04-2007 08:30:02 7.9 C 4.6 g/m*3 7.9 C 0 km/h
2528 01-04-2007 08:35:01 8 C 4.55 g/m*3 8 C 0 km/h
2529 01-04-2007 08:40:01 8.2 C 4.44 g/m*3 8.2 C 0 km/h
2530 01-04-2007 08:45:02 8.3 C 4.38 g/m*3 8.3 C 0 km/h
2531 01-04-2007 08:50:02 8.5 C 4.35 g/m*3 8.5 C 0 km/h
2532 01-04-2007 08:55:02 8.6 C 4.38 g/m*3 8.6 C 0 km/h
2533 01-04-2007 09:00:02 8.6 C 4.38 g/m*3 8.6 C 0 km/h
2534 01-04-2007 09:05:02 8.8 C 4.44 g/m*3 8.8 C 0 km/h
2535 01-04-2007 09:10:02 8.9 C 4.38 g/m*3 8.9 C 0 km/h
2536 01-04-2007 09:15:02 9 C 4.32 g/m*3 9 C 0 km/h
2537 01-04-2007 09:20:02 9.1 C 4.35 g/m*3 9.1 C 0 km/h
2538 01-04-2007 09:25:02 9.2 C 4.38 g/m*3 9.2 C 0 km/h
2539 01-04-2007 09:30:02 9.2 C 4.38 g/m*3 9.2 C 0 km/h
2540 01-04-2007 09:35:02 9.5 C 4.55 g/m*3 9.5 C 0 km/h
2541 01-04-2007 09:40:03 9.6 C 4.58 g/m*3 9.6 C 0 km/h
2542 01-04-2007 09:45:03 9.6 C 4.49 g/m*3 9.6 C 0 km/h
2543 01-04-2007 09:50:03 9.9 C 4.39 g/m*3 9.9 C 0 km/h
2544 01-04-2007 09:55:03 10.1 C 4.35 g/m*3 10.1 C 0 km/h
2545 01-04-2007 10:00:03 10.3 C 4.31 g/m*3 10.3 C 0 km/h
2546 01-04-2007 10:05:02 10.4 C 4.34 g/m*3 10.4 C 0 km/h
2547 01-04-2007 10:10:02 10.6 C 4.39 g/m*3 10.6 C 0 km/h
2548 01-04-2007 10:15:02 10.8 C 4.35 g/m*3 10.8 C 0 km/h
2549 01-04-2007 10:20:02 10.8 C 4.25 g/m*3 10.8 C 0 km/h
2550 01-04-2007 10:25:02 11 C 4.2 g/m*3 11 C 0 km/h
Sensor: Nr:Datum:Temp:Abs-Feuchte:Windchill:Wind:
Aussen-T/F 2551 01-04-2007 10:30:02 11.3 C 4.18 g/m*3 11.3 C 0 km/h
2552 01-04-2007 10:35:02 11.4 C 4.21 g/m*3 11.4 C 0 km/h
2553 01-04-2007 10:40:02 11.5 C 4.13 g/m*3 11.5 C 0 km/h
2554 01-04-2007 10:45:02 11.8 C 4.1 g/m*3 11.8 C 0 km/h
2555 01-04-2007 10:50:03 12.1 C 3.97 g/m*3 12.1 C 0 km/h
2556 01-04-2007 10:55:03 12.1 C 4.08 g/m*3 12.1 C 0 km/h
2557 01-04-2007 11:00:03 12.4 C 4.04 g/m*3 12.4 C 0 km/h
2558 01-04-2007 11:05:02 12.5 C 3.96 g/m*3 12.5 C 0 km/h
2559 01-04-2007 11:10:02 12.6 C 3.98 g/m*3 12.6 C 0 km/h
2560 01-04-2007 11:15:02 12.6 C 3.87 g/m*3 12.6 C 0 km/h
2561 01-04-2007 11:20:02 12.8 C 3.92 g/m*3 12.8 C 0 km/h
2562 01-04-2007 11:25:02 12.9 C 3.94 g/m*3 12.9 C 0 km/h
2563 01-04-2007 11:30:02 13.2 C 3.9 g/m*3 13.2 C 0 km/h
2564 01-04-2007 11:35:03 13.4 C 3.95 g/m*3 13.4 C 0 km/h
2565 01-04-2007 11:40:03 13.6 C 3.88 g/m*3 13.6 C 0 km/h
2566 01-04-2007 11:45:02 13.7 C 3.91 g/m*3 13.7 C 0 km/h
2567 01-04-2007 11:50:02 14 C 3.86 g/m*3 14 C 0 km/h
2568 01-04-2007 11:55:02 14.1 C 3.76 g/m*3 14.1 C 0 km/h
2569 01-04-2007 12:00:02 14.1 C 3.76 g/m*3 14.1 C 0 km/h
2570 01-04-2007 12:05:03 14.5 C 3.73 g/m*3 14.5 C 0 km/h
2571 01-04-2007 12:10:03 14.7 C 3.78 g/m*3 14.7 C 0 km/h
2572 01-04-2007 12:15:02 14.7 C 3.65 g/m*3 14.7 C 0 km/h
2573 01-04-2007 12:20:02 14.9 C 3.7 g/m*3 14.9 C 0 km/h
2574 01-04-2007 12:25:02 15.1 C 3.61 g/m*3 15.1 C 0 km/h
2575 01-04-2007 12:30:02 15.2 C 3.5 g/m*3 15.2 C 0 km/h
Sensor: Nr:Datum:Temp:Abs-Feuchte:Windchill:Wind:
Aussen-T/F 2576 01-04-2007 12:35:02 15.4 C 3.55 g/m*3 15.4 C 0 km/h
2577 01-04-2007 12:40:03 15.6 C 3.59 g/m*3 15.6 C 0 km/h
2578 01-04-2007 12:45:02 15.8 C 3.5 g/m*3 15.8 C 0 km/h
2579 01-04-2007 12:50:02 15.8 C 3.5 g/m*3 15.8 C 0 km/h
2580 01-04-2007 12:55:02 15.9 C 3.39 g/m*3 15.9 C 0 km/h
2581 01-04-2007 13:00:02 16.1 C 3.29 g/m*3 16.1 C 0 km/h
2582 01-04-2007 13:05:02 16.2 C 3.45 g/m*3 16.2 C 0 km/h
2583 01-04-2007 13:10:02 16.3 C 3.19 g/m*3 16.3 C 0 km/h
2584 01-04-2007 13:15:01 16.6 C 3.25 g/m*3 16.6 C 0 km/h
2585 01-04-2007 13:20:01 16.7 C 3.13 g/m*3 16.7 C 0 km/h
2586 01-04-2007 13:25:02 17.2 C 3.37 g/m*3 17.2 C 0 km/h
2587 01-04-2007 13:30:02 17.3 C 3.39 g/m*3 17.3 C 0 km/h
2588 01-04-2007 13:35:01 17.2 C 3.08 g/m*3 17.2 C 0 km/h
2589 01-04-2007 13:40:01 17.5 C 3.43 g/m*3 17.5 C 0 km/h
2590 01-04-2007 13:45:02 17.8 C 3.34 g/m*3 17.8 C 0 km/h
2591 01-04-2007 13:50:02 18.2 C 3.42 g/m*3 18.2 C 0 km/h
2592 01-04-2007 13:55:02 18.3 C 3.13 g/m*3 18.3 C 0 km/h
2593 01-04-2007 14:00:02 18.5 C 3.16 g/m*3 18.5 C 0 km/h
2594 01-04-2007 14:05:02 18.6 C 3.18 g/m*3 18.6 C 0 km/h
2595 01-04-2007 14:10:02 18.7 C 3.2 g/m*3 18.7 C 0 km/h
2596 01-04-2007 14:15:01 18.7 C 3.2 g/m*3 18.7 C 0 km/h
2597 01-04-2007 14:20:01 19 C 3.26 g/m*3 19 C 0 km/h
2598 01-04-2007 14:25:01 19 C 3.26 g/m*3 19 C 0 km/h
2599 01-04-2007 14:30:01 19.4 C 3.34 g/m*3 19.4 C 0 km/h
2600 01-04-2007 14:35:02 19.7 C 3.4 g/m*3 19.7 C 0 km/h
Sensor: Nr:Datum:Temp:Abs-Feuchte:Windchill:Wind:
Aussen-T/F 2601 01-04-2007 14:40:02 20 C 3.46 g/m*3 20 C 0 km/h
2602 01-04-2007 14:45:01 20.3 C 3.52 g/m*3 20.3 C 0 km/h
2603 01-04-2007 14:50:01 20.5 C 3.56 g/m*3 20.5 C 0 km/h
2604 01-04-2007 14:55:01 20.5 C 3.56 g/m*3 20.5 C 0 km/h
2605 01-04-2007 15:00:01 20.4 C 3.54 g/m*3 20.4 C 0 km/h
2606 01-04-2007 15:05:01 20.3 C 3.52 g/m*3 20.3 C 0 km/h
2607 01-04-2007 15:10:01 20.2 C 3.5 g/m*3 20.2 C 0 km/h
2608 01-04-2007 15:15:02 20.4 C 3.54 g/m*3 20.4 C 0 km/h
2609 01-04-2007 15:20:02 20.6 C 3.58 g/m*3 20.6 C 0 km/h
2610 01-04-2007 15:25:02 20.9 C 3.64 g/m*3 20.9 C 0 km/h
2611 01-04-2007 15:30:02 21.1 C 3.69 g/m*3 21.1 C 0 km/h
2612 01-04-2007 15:35:02 21.1 C 3.69 g/m*3 21.1 C 0 km/h
2613 01-04-2007 15:40:02 21 C 3.66 g/m*3 21 C 0 km/h
2614 01-04-2007 15:45:02 21.1 C 3.69 g/m*3 21.1 C 0 km/h
2615 01-04-2007 15:50:02 21.1 C 3.69 g/m*3 21.1 C 0 km/h
2616 01-04-2007 15:55:02 21.1 C 3.69 g/m*3 21.1 C 0 km/h
2617 01-04-2007 16:00:02 21.1 C 3.69 g/m*3 21.1 C 0 km/h
2618 01-04-2007 16:05:03 21.2 C 3.71 g/m*3 21.2 C 0 km/h
2619 01-04-2007 16:10:03 21.4 C 3.75 g/m*3 21.4 C 0 km/h
2620 01-04-2007 16:15:02 21.5 C 3.77 g/m*3 21.5 C 0 km/h
2621 01-04-2007 16:20:03 21.6 C 3.79 g/m*3 21.6 C 0 km/h
2622 01-04-2007 16:25:03 21.8 C 3.84 g/m*3 21.8 C 0 km/h
2623 01-04-2007 16:30:03 21.8 C 3.84 g/m*3 21.8 C 0 km/h
2624 01-04-2007 16:35:02 21.9 C 3.86 g/m*3 21.9 C 0 km/h
2625 01-04-2007 16:40:03 22.1 C 3.9 g/m*3 22.1 C 0 km/h
Sensor: Nr:Datum:Temp:Abs-Feuchte:Windchill:Wind:
Aussen-T/F 2626 01-04-2007 16:45:02 21.9 C 3.86 g/m*3 21.9 C 0 km/h
2627 01-04-2007 16:50:02 22 C 3.88 g/m*3 22 C 0 km/h
2628 01-04-2007 16:55:02 22.3 C 3.95 g/m*3 22.3 C 0 km/h
2629 01-04-2007 17:00:03 21.8 C 3.84 g/m*3 21.8 C 0 km/h
2630 01-04-2007 17:05:02 22 C 3.88 g/m*3 22 C 0 km/h
2631 01-04-2007 17:10:02 22 C 3.88 g/m*3 22 C 0 km/h
2632 01-04-2007 17:15:02 21.9 C 3.86 g/m*3 21.9 C 0 km/h
2633 01-04-2007 17:20:02 21.6 C 3.79 g/m*3 21.6 C 0 km/h
2634 01-04-2007 17:25:02 21.6 C 3.79 g/m*3 21.6 C 0 km/h
2635 01-04-2007 17:30:02 21.7 C 3.82 g/m*3 21.7 C 0 km/h
2636 01-04-2007 17:35:02 21.7 C 3.82 g/m*3 21.7 C 0 km/h
2637 01-04-2007 17:40:02 21.9 C 3.86 g/m*3 21.9 C 0 km/h
2638 01-04-2007 17:45:01 21.8 C 3.84 g/m*3 21.8 C 0 km/h
2639 01-04-2007 17:50:01 21.7 C 3.82 g/m*3 21.7 C 0 km/h
2640 01-04-2007 17:55:01 21.5 C 3.77 g/m*3 21.5 C 0 km/h
2641 01-04-2007 18:00:01 21.5 C 3.77 g/m*3 21.5 C 0 km/h
2642 01-04-2007 18:05:02 21.2 C 3.71 g/m*3 21.2 C 0 km/h
2643 01-04-2007 18:10:02 21 C 3.66 g/m*3 21 C 0 km/h
2644 01-04-2007 18:15:02 21 C 3.66 g/m*3 21 C 0 km/h
2645 01-04-2007 18:20:02 20.8 C 3.62 g/m*3 20.8 C 0 km/h
2646 01-04-2007 18:25:02 20.4 C 3.54 g/m*3 20.4 C 0 km/h
2647 01-04-2007 18:30:02 20.2 C 3.5 g/m*3 20.2 C 0 km/h
2648 01-04-2007 18:35:01 20.3 C 3.52 g/m*3 20.3 C 0 km/h
2649 01-04-2007 18:40:01 20 C 3.46 g/m*3 20 C 0 km/h
2650 01-04-2007 18:45:02 19.6 C 3.38 g/m*3 19.6 C 0 km/h
Sensor: Nr:Datum:Temp:Abs-Feuchte:Windchill:Wind:
Aussen-T/F 2651 01-04-2007 18:50:02 19.5 C 3.36 g/m*3 19.5 C 0 km/h
2652 01-04-2007 18:55:02 19.4 C 3.34 g/m*3 19.4 C 0 km/h
2653 01-04-2007 19:00:02 19 C 3.26 g/m*3 19 C 0 km/h
2654 01-04-2007 19:05:03 19 C 3.26 g/m*3 19 C 0 km/h
2655 01-04-2007 19:10:03 18.8 C 3.22 g/m*3 18.8 C 0 km/h
2656 01-04-2007 19:15:01 18.7 C 3.2 g/m*3 18.7 C 0 km/h
2657 01-04-2007 19:20:01 18.5 C 3.16 g/m*3 18.5 C 0 km/h
2658 01-04-2007 19:25:01 18.1 C 3.24 g/m*3 18.1 C 0 km/h
2659 01-04-2007 19:30:01 17.8 C 3.49 g/m*3 17.8 C 0 km/h
2660 01-04-2007 19:35:02 17.5 C 3.73 g/m*3 17.5 C 0 km/h
2661 01-04-2007 19:40:02 17.3 C 3.68 g/m*3 17.3 C 0 km/h
2662 01-04-2007 19:45:02 17 C 3.76 g/m*3 17 C 0 km/h
2663 01-04-2007 19:50:02 16.6 C 3.81 g/m*3 16.6 C 0 km/h
2664 01-04-2007 19:55:02 16.4 C 3.91 g/m*3 16.4 C 0 km/h
2665 01-04-2007 20:00:02 16.1 C 3.7 g/m*3 16.1 C 0 km/h
2666 01-04-2007 20:05:01 15.9 C 4.06 g/m*3 15.9 C 0 km/h
2667 01-04-2007 20:10:01 15.8 C 4.04 g/m*3 15.8 C 0 km/h
2668 01-04-2007 20:15:02 15.5 C 3.97 g/m*3 15.5 C 0 km/h
2669 01-04-2007 20:20:02 15.3 C 4.05 g/m*3 15.3 C 0 km/h
2670 01-04-2007 20:25:02 15.2 C 4.02 g/m*3 15.2 C 0 km/h
2671 01-04-2007 20:30:02 15 C 4.1 g/m*3 15 C 0 km/h
2672 01-04-2007 20:35:02 14.8 C 4.18 g/m*3 14.8 C 0 km/h
2673 01-04-2007 20:40:02 14.7 C 4.15 g/m*3 14.7 C 0 km/h
2674 01-04-2007 20:45:02 14.7 C 4.15 g/m*3 14.7 C 0 km/h
2675 01-04-2007 20:50:02 14.6 C 4.13 g/m*3 14.6 C 0 km/h
Sensor: Nr:Datum:Temp:Abs-Feuchte:Windchill:Wind:
Aussen-T/F 2676 01-04-2007 20:55:02 14.4 C 4.2 g/m*3 14.4 C 0 km/h
2677 01-04-2007 21:00:02 14.3 C 4.3 g/m*3 14.3 C 0 km/h
2678 01-04-2007 21:05:03 14.1 C 4.25 g/m*3 14.1 C 0 km/h
2679 01-04-2007 21:10:03 14 C 4.22 g/m*3 14 C 0 km/h
2680 01-04-2007 21:15:03 14 C 4.22 g/m*3 14 C 0 km/h
2681 01-04-2007 21:20:03 13.9 C 4.32 g/m*3 13.9 C 0 km/h
2682 01-04-2007 21:25:03 13.8 C 4.29 g/m*3 13.8 C 0 km/h
2683 01-04-2007 21:30:03 13.5 C 4.21 g/m*3 13.5 C 0 km/h
2684 01-04-2007 21:35:02 13.5 C 4.33 g/m*3 13.5 C 0 km/h
2685 01-04-2007 21:40:02 13.5 C 4.21 g/m*3 13.5 C 0 km/h
2686 01-04-2007 21:45:02 13.5 C 4.33 g/m*3 13.5 C 0 km/h
2687 01-04-2007 21:50:02 13.1 C 4.11 g/m*3 13.1 C 0 km/h
2688 01-04-2007 21:55:02 13.4 C 4.18 g/m*3 13.4 C 0 km/h
2689 01-04-2007 22:00:02 13.3 C 4.27 g/m*3 13.3 C 0 km/h
2690 01-04-2007 22:05:02 13.3 C 4.27 g/m*3 13.3 C 0 km/h
2691 01-04-2007 22:10:02 13.1 C 4.22 g/m*3 13.1 C 0 km/h
2692 01-04-2007 22:15:02 13 C 4.42 g/m*3 13 C 0 km/h
2693 01-04-2007 22:20:02 13 C 4.31 g/m*3 13 C 0 km/h
2694 01-04-2007 22:25:02 12.9 C 4.28 g/m*3 12.9 C 0 km/h
2695 01-04-2007 22:30:02 13 C 4.2 g/m*3 13 C 0 km/h
2696 01-04-2007 22:35:01 12.8 C 4.37 g/m*3 12.8 C 0 km/h
2697 01-04-2007 22:40:01 12.7 C 4.34 g/m*3 12.7 C 0 km/h
2698 01-04-2007 22:45:02 12.8 C 4.26 g/m*3 12.8 C 0 km/h
2699 01-04-2007 22:50:02 12.6 C 4.43 g/m*3 12.6 C 0 km/h
2700 01-04-2007 22:55:03 12.6 C 4.31 g/m*3 12.6 C 0 km/h
Sensor: Nr:Datum:Temp:Abs-Feuchte:Windchill:Wind:
Aussen-T/F 2701 01-04-2007 23:00:03 12.6 C 4.2 g/m*3 12.6 C 0 km/h
2702 01-04-2007 23:05:02 12.6 C 4.2 g/m*3 12.6 C 0 km/h
2703 01-04-2007 23:10:02 12.5 C 4.18 g/m*3 12.5 C 0 km/h
2704 01-04-2007 23:15:01 12.7 C 4.12 g/m*3 12.7 C 0 km/h
2705 01-04-2007 23:20:01 12.7 C 4.12 g/m*3 12.7 C 0 km/h
2706 01-04-2007 23:25:01 12.6 C 4.09 g/m*3 12.6 C 0 km/h
2707 01-04-2007 23:30:01 12.4 C 4.15 g/m*3 12.4 C 0 km/h
2708 01-04-2007 23:35:02 12.2 C 4.21 g/m*3 12.2 C 0 km/h
2709 01-04-2007 23:40:02 12.2 C 4.1 g/m*3 12.2 C 0 km/h
2710 01-04-2007 23:45:01 12.3 C 4.13 g/m*3 12.3 C 0 km/h
2711 01-04-2007 23:50:01 12.3 C 4.13 g/m*3 12.3 C 0 km/h
2712 01-04-2007 23:55:01 12.3 C 4.02 g/m*3 12.3 C 0 km/h
2713 02-04-2007 00:00:01 12.2 C 3.99 g/m*3 12.2 C 0 km/h
2714 02-04-2007 00:05:02 12.2 C 3.88 g/m*3 12.2 C 0 km/h
2715 02-04-2007 00:10:02 12.1 C 3.97 g/m*3 12.1 C 0 km/h
2716 02-04-2007 00:15:02 12.2 C 3.99 g/m*3 12.2 C 0 km/h
2717 02-04-2007 00:20:02 12 C 3.94 g/m*3 12 C 0 km/h
2718 02-04-2007 00:25:03 11.9 C 4.13 g/m*3 11.9 C 0 km/h
2719 02-04-2007 00:30:03 11.9 C 4.24 g/m*3 11.9 C 0 km/h
2720 02-04-2007 00:35:02 11.7 C 4.08 g/m*3 11.7 C 0 km/h
2721 02-04-2007 00:40:02 11.6 C 4.16 g/m*3 11.6 C 0 km/h
2722 02-04-2007 00:45:02 11.5 C 4.13 g/m*3 11.5 C 0 km/h
2723 02-04-2007 00:50:02 11.4 C 4.11 g/m*3 11.4 C 0 km/h
2724 02-04-2007 00:55:02 11.3 C 4.08 g/m*3 11.3 C 0 km/h
2725 02-04-2007 01:00:02 11.3 C 4.08 g/m*3 11.3 C 0 km/h
Sensor: Nr:Datum:Temp:Abs-Feuchte:Windchill:Wind:
Aussen-T/F 2726 02-04-2007 01:05:03 11.3 C 4.08 g/m*3 11.3 C 0 km/h
2727 02-04-2007 01:10:03 11.3 C 4.08 g/m*3 11.3 C 0 km/h
2728 02-04-2007 01:15:02 11.1 C 4.13 g/m*3 11.1 C 0 km/h
2729 02-04-2007 01:20:02 11.1 C 4.03 g/m*3 11.1 C 0 km/h
2730 02-04-2007 01:25:02 11 C 4.1 g/m*3 11 C 0 km/h
2731 02-04-2007 01:30:02 10.9 C 4.18 g/m*3 10.9 C 0 km/h
2732 02-04-2007 01:35:02 10.9 C 4.18 g/m*3 10.9 C 0 km/h
2733 02-04-2007 01:40:02 10.8 C 4.25 g/m*3 10.8 C 0 km/h
2734 02-04-2007 01:45:02 10.7 C 4.13 g/m*3 10.7 C 0 km/h
2735 02-04-2007 01:50:02 10.7 C 4.03 g/m*3 10.7 C 0 km/h
2736 02-04-2007 01:55:02 10.7 C 4.13 g/m*3 10.7 C 0 km/h
2737 02-04-2007 02:00:03 10.6 C 4.1 g/m*3 10.6 C 0 km/h
2738 02-04-2007 02:05:02 10.6 C 4.1 g/m*3 10.6 C 0 km/h
2739 02-04-2007 02:10:02 10.5 C 3.98 g/m*3 10.5 C 0 km/h
2740 02-04-2007 02:15:03 10.6 C 4 g/m*3 10.6 C 0 km/h
2741 02-04-2007 02:20:03 10.6 C 4 g/m*3 10.6 C 0 km/h
2742 02-04-2007 02:25:03 10.5 C 3.98 g/m*3 10.5 C 0 km/h
2743 02-04-2007 02:30:03 10.5 C 3.98 g/m*3 10.5 C 0 km/h
2744 02-04-2007 02:35:02 10.5 C 3.98 g/m*3 10.5 C 0 km/h
2745 02-04-2007 02:40:02 10.5 C 3.98 g/m*3 10.5 C 0 km/h
2746 02-04-2007 02:46:03 10.4 C 3.95 g/m*3 10.4 C 0 km/h
2747 02-04-2007 02:51:03 10.3 C 4.02 g/m*3 10.3 C 0 km/h
2748 02-04-2007 02:56:03 10.2 C 4 g/m*3 10.2 C 0 km/h
2749 02-04-2007 03:01:03 10.1 C 3.97 g/m*3 10.1 C 0 km/h
2750 02-04-2007 03:06:03 10.1 C 3.97 g/m*3 10.1 C 0 km/h
Sensor: Nr:Datum:Temp:Abs-Feuchte:Windchill:Wind:
Aussen-T/F 2751 02-04-2007 03:11:04 9.9 C 4.01 g/m*3 9.9 C 0 km/h
2752 02-04-2007 03:16:04 9.8 C 4.08 g/m*3 9.8 C 0 km/h
2753 02-04-2007 03:21:04 9.8 C 4.08 g/m*3 9.8 C 0 km/h
2754 02-04-2007 03:26:04 9.7 C 3.96 g/m*3 9.7 C 0 km/h
2755 02-04-2007 03:31:02 9.7 C 3.96 g/m*3 9.7 C 0 km/h
2756 02-04-2007 03:36:02 9.7 C 4.06 g/m*3 9.7 C 0 km/h
2757 02-04-2007 03:41:02 9.7 C 3.96 g/m*3 9.7 C 0 km/h
2758 02-04-2007 03:46:03 9.7 C 3.96 g/m*3 9.7 C 0 km/h
2759 02-04-2007 03:51:03 9.7 C 3.96 g/m*3 9.7 C 0 km/h
2760 02-04-2007 03:56:03 9.7 C 3.96 g/m*3 9.7 C 0 km/h
2761 02-04-2007 04:01:02 9.7 C 3.87 g/m*3 9.7 C 0 km/h
2762 02-04-2007 04:06:02 9.8 C 3.9 g/m*3 9.8 C 0 km/h
2763 02-04-2007 04:11:02 9.8 C 3.9 g/m*3 9.8 C 0 km/h
2764 02-04-2007 04:16:03 9.9 C 3.83 g/m*3 9.9 C 0 km/h
2765 02-04-2007 04:21:03 9.6 C 4.12 g/m*3 9.6 C 0 km/h
2766 02-04-2007 04:26:03 9.2 C 4.11 g/m*3 9.2 C 0 km/h
2767 02-04-2007 04:31:02 9.1 C 4.08 g/m*3 9.1 C 0 km/h
2768 02-04-2007 04:36:02 8.9 C 4.12 g/m*3 8.9 C 0 km/h
2769 02-04-2007 04:41:03 8.9 C 4.03 g/m*3 8.9 C 0 km/h
2770 02-04-2007 04:46:02 8.8 C 4 g/m*3 8.8 C 0 km/h
2771 02-04-2007 04:51:02 8.7 C 4.06 g/m*3 8.7 C 0 km/h
2772 02-04-2007 04:56:02 8.6 C 4.21 g/m*3 8.6 C 0 km/h
2773 02-04-2007 05:01:01 8.4 C 4.16 g/m*3 8.4 C 0 km/h
2774 02-04-2007 05:06:01 8.2 C 4.19 g/m*3 8.2 C 0 km/h
2775 02-04-2007 05:11:01 8.1 C 4.16 g/m*3 8.1 C 0 km/h
Sensor: Nr:Datum:Temp:Abs-Feuchte:Windchill:Wind:
Aussen-T/F 2776 02-04-2007 05:16:02 8.2 C 4.19 g/m*3 8.2 C 0 km/h
2777 02-04-2007 05:21:02 8.1 C 4.08 g/m*3 8.1 C 0 km/h
2778 02-04-2007 05:26:02 8 C 4.13 g/m*3 8 C 0 km/h
2779 02-04-2007 05:31:02 7.8 C 4.24 g/m*3 7.8 C 0 km/h
2780 02-04-2007 05:36:02 7.7 C 4.3 g/m*3 7.7 C 0 km/h
2781 02-04-2007 05:41:02 7.6 C 4.35 g/m*3 7.6 C 0 km/h
2782 02-04-2007 05:46:01 7.5 C 4.32 g/m*3 7.5 C 0 km/h
2783 02-04-2007 05:51:01 7.5 C 4.32 g/m*3 7.5 C 0 km/h
2784 02-04-2007 05:56:01 7.5 C 4.32 g/m*3 7.5 C 0 km/h
2785 02-04-2007 06:01:02 7.3 C 4.27 g/m*3 7.3 C 0 km/h
2786 02-04-2007 06:06:02 7.3 C 4.35 g/m*3 7.3 C 0 km/h
2787 02-04-2007 06:11:02 7.1 C 4.37 g/m*3 7.1 C 0 km/h
2788 02-04-2007 06:16:02 7 C 4.34 g/m*3 7 C 0 km/h
2789 02-04-2007 06:21:02 7 C 4.34 g/m*3 7 C 0 km/h
2790 02-04-2007 06:26:02 6.8 C 4.36 g/m*3 6.8 C 0 km/h
2791 02-04-2007 06:31:02 6.7 C 4.41 g/m*3 6.7 C 0 km/h
2792 02-04-2007 06:36:02 6.7 C 4.56 g/m*3 6.7 C 0 km/h
2793 02-04-2007 06:41:02 6.7 C 4.56 g/m*3 6.7 C 0 km/h
2794 02-04-2007 06:46:03 6.6 C 4.53 g/m*3 6.6 C 0 km/h
2795 02-04-2007 06:51:03 6.4 C 4.47 g/m*3 6.4 C 0 km/h
2796 02-04-2007 06:56:03 6.4 C 4.47 g/m*3 6.4 C 0 km/h
2797 02-04-2007 07:01:02 6.2 C 4.41 g/m*3 6.2 C 0 km/h
2798 02-04-2007 07:06:02 6.2 C 4.49 g/m*3 6.2 C 0 km/h
2799 02-04-2007 07:11:02 6.1 C 4.46 g/m*3 6.1 C 0 km/h
2800 02-04-2007 07:16:02 6 C 4.43 g/m*3 6 C 0 km/h
Sensor: Nr:Datum:Temp:Abs-Feuchte:Windchill:Wind:
Aussen-T/F 2801 02-04-2007 07:21:02 6 C 4.5 g/m*3 6 C 0 km/h
2802 02-04-2007 07:26:03 6 C 4.5 g/m*3 6 C 0 km/h
2803 02-04-2007 07:31:02 5.9 C 4.54 g/m*3 5.9 C 0 km/h
2804 02-04-2007 07:36:02 5.9 C 4.54 g/m*3 5.9 C 0 km/h
2805 02-04-2007 07:41:02 5.8 C 4.51 g/m*3 5.8 C 0 km/h
2806 02-04-2007 07:46:02 5.9 C 4.61 g/m*3 5.9 C 0 km/h
2807 02-04-2007 07:51:02 5.9 C 4.61 g/m*3 5.9 C 0 km/h
2808 02-04-2007 07:56:02 5.9 C 4.69 g/m*3 5.9 C 0 km/h
2809 02-04-2007 08:01:01 6 C 4.72 g/m*3 6 C 0 km/h
2810 02-04-2007 08:06:01 6 C 4.72 g/m*3 6 C 0 km/h
2811 02-04-2007 08:11:01 6 C 4.65 g/m*3 6 C 0 km/h
2812 02-04-2007 08:16:01 6.1 C 4.68 g/m*3 6.1 C 0 km/h
2813 02-04-2007 08:21:01 6 C 4.65 g/m*3 6 C 0 km/h
2814 02-04-2007 08:26:01 6 C 4.72 g/m*3 6 C 0 km/h
2815 02-04-2007 08:31:02 6.1 C 4.75 g/m*3 6.1 C 0 km/h
2816 02-04-2007 08:36:02 6.2 C 4.78 g/m*3 6.2 C 0 km/h
2817 02-04-2007 08:41:02 6.2 C 4.78 g/m*3 6.2 C 0 km/h
2818 02-04-2007 08:46:02 6.3 C 4.81 g/m*3 6.3 C 0 km/h
2819 02-04-2007 08:51:02 6.3 C 4.81 g/m*3 6.3 C 0 km/h
2820 02-04-2007 08:56:02 6.4 C 4.84 g/m*3 6.4 C 0 km/h
2821 02-04-2007 09:01:02 6.6 C 4.91 g/m*3 6.6 C 0 km/h
2822 02-04-2007 09:06:02 6.6 C 4.91 g/m*3 6.6 C 0 km/h
2823 02-04-2007 09:11:02 6.8 C 4.89 g/m*3 6.8 C 0 km/h
2824 02-04-2007 09:16:02 6.9 C 4.93 g/m*3 6.9 C 0 km/h
2825 02-04-2007 09:21:02 7 C 4.88 g/m*3 7 C 0 km/h
Sensor: Nr:Datum:Temp:Abs-Feuchte:Windchill:Wind:
Aussen-T/F 2826 02-04-2007 09:26:02 7.2 C 4.95 g/m*3 7.2 C 0 km/h
2827 02-04-2007 09:31:02 7.3 C 4.9 g/m*3 7.3 C 0 km/h
2828 02-04-2007 09:36:02 7.5 C 4.96 g/m*3 7.5 C 0 km/h
2829 02-04-2007 09:41:02 7.6 C 4.99 g/m*3 7.6 C 0 km/h
2830 02-04-2007 09:46:02 7.9 C 5.09 g/m*3 7.9 C 0 km/h
2831 02-04-2007 09:51:02 8.2 C 5.02 g/m*3 8.2 C 0 km/h
2832 02-04-2007 09:56:02 8.5 C 5.12 g/m*3 8.5 C 0 km/h
2833 02-04-2007 10:01:02 8.8 C 5.14 g/m*3 8.8 C 0 km/h
2834 02-04-2007 10:06:02 9 C 5.03 g/m*3 9 C 0 km/h
2835 02-04-2007 10:11:02 9.4 C 5.06 g/m*3 9.4 C 0 km/h
2836 02-04-2007 10:16:02 9.7 C 5.07 g/m*3 9.7 C 0 km/h
2837 02-04-2007 10:21:02 10.1 C 5.01 g/m*3 10.1 C 0 km/h
2838 02-04-2007 10:26:02 10.5 C 4.95 g/m*3 10.5 C 0 km/h
2839 02-04-2007 10:31:02 10.7 C 5.01 g/m*3 10.7 C 0 km/h
2840 02-04-2007 10:36:02 11 C 5 g/m*3 11 C 0 km/h
2841 02-04-2007 10:41:02 11.2 C 4.76 g/m*3 11.2 C 0 km/h
2842 02-04-2007 10:46:03 11.4 C 4.72 g/m*3 11.4 C 0 km/h
2843 02-04-2007 10:51:03 11.6 C 4.68 g/m*3 11.6 C 0 km/h
2844 02-04-2007 10:56:03 12 C 4.69 g/m*3 12 C 0 km/h
2845 02-04-2007 11:01:02 12.2 C 4.53 g/m*3 12.2 C 0 km/h
2846 02-04-2007 11:06:02 12.5 C 4.62 g/m*3 12.5 C 0 km/h
2847 02-04-2007 11:11:02 12.9 C 4.51 g/m*3 12.9 C 0 km/h
2848 02-04-2007 11:16:02 13 C 4.54 g/m*3 13 C 0 km/h
2849 02-04-2007 11:21:02 13.2 C 4.36 g/m*3 13.2 C 0 km/h
2850 02-04-2007 11:26:02 13 C 4.2 g/m*3 13 C 0 km/h
Sensor: Nr:Datum:Temp:Abs-Feuchte:Windchill:Wind:
Aussen-T/F 2851 02-04-2007 11:31:02 13.3 C 4.62 g/m*3 13.3 C 0 km/h
2852 02-04-2007 11:36:02 13.5 C 4.56 g/m*3 13.5 C 0 km/h
2853 02-04-2007 11:41:02 13.7 C 4.5 g/m*3 13.7 C 0 km/h
2854 02-04-2007 11:46:02 13.9 C 4.56 g/m*3 13.9 C 0 km/h
2855 02-04-2007 11:51:02 13.9 C 4.44 g/m*3 13.9 C 0 km/h
2856 02-04-2007 11:56:02 14.2 C 4.4 g/m*3 14.2 C 0 km/h
2857 02-04-2007 12:01:01 14.4 C 4.45 g/m*3 14.4 C 0 km/h
2858 02-04-2007 12:06:01 14.7 C 4.41 g/m*3 14.7 C 0 km/h
2859 02-04-2007 12:11:01 14.9 C 4.46 g/m*3 14.9 C 0 km/h
2860 02-04-2007 12:16:01 15.1 C 4.39 g/m*3 15.1 C 0 km/h
2861 02-04-2007 12:21:01 15.3 C 4.31 g/m*3 15.3 C 0 km/h
2862 02-04-2007 12:26:01 15.4 C 4.2 g/m*3 15.4 C 0 km/h
2863 02-04-2007 12:31:02 15.7 C 4.15 g/m*3 15.7 C 0 km/h
2864 02-04-2007 12:36:02 16 C 4.36 g/m*3 16 C 0 km/h
2865 02-04-2007 12:41:02 16.2 C 4.27 g/m*3 16.2 C 0 km/h
2866 02-04-2007 12:46:02 16.5 C 4.21 g/m*3 16.5 C 0 km/h
2867 02-04-2007 12:51:02 16.7 C 4.26 g/m*3 16.7 C 0 km/h
2868 02-04-2007 12:56:02 16.8 C 4.29 g/m*3 16.8 C 0 km/h
2869 02-04-2007 13:01:02 17 C 4.34 g/m*3 17 C 0 km/h
2870 02-04-2007 13:06:02 17.2 C 4.1 g/m*3 17.2 C 0 km/h
2871 02-04-2007 13:11:02 17.4 C 4.15 g/m*3 17.4 C 0 km/h
2872 02-04-2007 13:16:03 17.7 C 4.22 g/m*3 17.7 C 0 km/h
2873 02-04-2007 13:21:03 17.8 C 4.1 g/m*3 17.8 C 0 km/h
2874 02-04-2007 13:26:03 18.1 C 4.02 g/m*3 18.1 C 0 km/h
2875 02-04-2007 13:31:02 18.2 C 4.04 g/m*3 18.2 C 0 km/h
Sensor: Nr:Datum:Temp:Abs-Feuchte:Windchill:Wind:
Aussen-T/F 2876 02-04-2007 13:36:02 18.6 C 3.98 g/m*3 18.6 C 0 km/h
2877 02-04-2007 13:41:02 18.9 C 3.89 g/m*3 18.9 C 0 km/h
2878 02-04-2007 13:46:01 19 C 3.75 g/m*3 19 C 0 km/h
2879 02-04-2007 13:51:01 19.3 C 3.65 g/m*3 19.3 C 0 km/h
2880 02-04-2007 13:56:01 19.8 C 3.59 g/m*3 19.8 C 0 km/h
2881 02-04-2007 14:01:02 19.8 C 3.59 g/m*3 19.8 C 0 km/h
2882 02-04-2007 14:06:02 20 C 3.46 g/m*3 20 C 0 km/h
2883 02-04-2007 14:11:02 20 C 3.46 g/m*3 20 C 0 km/h
2884 02-04-2007 14:16:02 20.3 C 3.52 g/m*3 20.3 C 0 km/h
2885 02-04-2007 14:21:02 20.3 C 3.52 g/m*3 20.3 C 0 km/h
2886 02-04-2007 14:26:02 20.8 C 3.62 g/m*3 20.8 C 0 km/h
2887 02-04-2007 14:31:02 21.3 C 3.73 g/m*3 21.3 C 0 km/h
2888 02-04-2007 14:36:02 21.3 C 3.73 g/m*3 21.3 C 0 km/h
2889 02-04-2007 14:41:03 22 C 3.88 g/m*3 22 C 0 km/h
2890 02-04-2007 14:46:03 22.3 C 3.95 g/m*3 22.3 C 0 km/h
2891 02-04-2007 14:51:03 22.1 C 3.9 g/m*3 22.1 C 0 km/h
2892 02-04-2007 14:56:03 22.1 C 3.9 g/m*3 22.1 C 0 km/h
2893 02-04-2007 15:01:02 22.1 C 3.9 g/m*3 22.1 C 0 km/h
2894 02-04-2007 15:06:02 22.2 C 3.93 g/m*3 22.2 C 0 km/h
2895 02-04-2007 15:11:02 22.2 C 3.93 g/m*3 22.2 C 0 km/h
2896 02-04-2007 15:16:02 22.3 C 3.95 g/m*3 22.3 C 0 km/h
2897 02-04-2007 15:21:02 22.8 C 4.06 g/m*3 22.8 C 0 km/h
2898 02-04-2007 15:26:02 22.9 C 4.09 g/m*3 22.9 C 0 km/h
2899 02-04-2007 15:31:02 23.2 C 4.16 g/m*3 23.2 C 0 km/h
2900 02-04-2007 15:36:02 23.6 C 4.25 g/m*3 23.6 C 0 km/h
Sensor: Nr:Datum:Temp:Abs-Feuchte:Windchill:Wind:
Aussen-T/F 2901 02-04-2007 15:41:02 23.7 C 4.28 g/m*3 23.7 C 0 km/h
2902 02-04-2007 15:46:02 23.4 C 4.21 g/m*3 23.4 C 0 km/h
2903 02-04-2007 15:51:02 22.4 C 3.97 g/m*3 22.4 C 0 km/h
2904 02-04-2007 15:56:02 21.6 C 3.79 g/m*3 21.6 C 0 km/h
2905 02-04-2007 16:01:02 21 C 3.66 g/m*3 21 C 0 km/h
2906 02-04-2007 16:06:02 21.4 C 3.75 g/m*3 21.4 C 0 km/h
2907 02-04-2007 16:11:02 21.8 C 3.84 g/m*3 21.8 C 0 km/h
2908 02-04-2007 16:16:02 21.6 C 3.79 g/m*3 21.6 C 0 km/h
2909 02-04-2007 16:21:02 21.1 C 3.69 g/m*3 21.1 C 0 km/h
2910 02-04-2007 16:26:02 20.6 C 3.58 g/m*3 20.6 C 0 km/h
2911 02-04-2007 16:31:03 20.5 C 3.56 g/m*3 20.5 C 0 km/h
2912 02-04-2007 16:36:03 21.1 C 3.69 g/m*3 21.1 C 0 km/h
2913 02-04-2007 16:41:03 21.7 C 3.82 g/m*3 21.7 C 0 km/h
2914 02-04-2007 16:46:02 22 C 3.88 g/m*3 22 C 0 km/h
2915 02-04-2007 16:51:02 22.2 C 3.93 g/m*3 22.2 C 0 km/h
2916 02-04-2007 16:56:02 22.5 C 3.99 g/m*3 22.5 C 0 km/h
2917 02-04-2007 17:01:02 22.7 C 4.04 g/m*3 22.7 C 0 km/h
2918 02-04-2007 17:06:02 23 C 4.11 g/m*3 23 C 0 km/h
2919 02-04-2007 17:11:02 23.2 C 4.16 g/m*3 23.2 C 0 km/h
2920 02-04-2007 17:16:03 22.9 C 4.09 g/m*3 22.9 C 0 km/h
2921 02-04-2007 17:21:03 22.9 C 4.09 g/m*3 22.9 C 0 km/h
2922 02-04-2007 17:26:03 22.2 C 3.93 g/m*3 22.2 C 0 km/h
2923 02-04-2007 17:31:02 21.4 C 3.75 g/m*3 21.4 C 0 km/h
2924 02-04-2007 17:36:02 21.5 C 3.77 g/m*3 21.5 C 0 km/h
2925 02-04-2007 17:41:02 21.7 C 3.82 g/m*3 21.7 C 0 km/h
Sensor: Nr:Datum:Temp:Abs-Feuchte:Windchill:Wind:
Aussen-T/F 2926 02-04-2007 17:46:02 22 C 3.88 g/m*3 22 C 0 km/h
2927 02-04-2007 17:51:02 22 C 3.88 g/m*3 22 C 0 km/h
2928 02-04-2007 17:56:02 22.6 C 4.02 g/m*3 22.6 C 0 km/h
2929 02-04-2007 18:01:02 22.5 C 3.99 g/m*3 22.5 C 0 km/h
2930 02-04-2007 18:06:02 22.5 C 3.99 g/m*3 22.5 C 0 km/h
2931 02-04-2007 18:11:02 22.5 C 3.99 g/m*3 22.5 C 0 km/h
2932 02-04-2007 18:16:02 22.4 C 3.97 g/m*3 22.4 C 0 km/h
2933 02-04-2007 18:21:02 22.1 C 3.9 g/m*3 22.1 C 0 km/h
2934 02-04-2007 18:26:02 21.9 C 3.86 g/m*3 21.9 C 0 km/h
2935 02-04-2007 18:31:02 21.8 C 3.84 g/m*3 21.8 C 0 km/h
2936 02-04-2007 18:36:02 21.6 C 3.79 g/m*3 21.6 C 0 km/h
2937 02-04-2007 18:41:02 21.6 C 3.79 g/m*3 21.6 C 0 km/h
2938 02-04-2007 18:46:03 21.4 C 3.75 g/m*3 21.4 C 0 km/h
2939 02-04-2007 18:51:03 21.1 C 3.69 g/m*3 21.1 C 0 km/h
2940 02-04-2007 18:56:03 20.9 C 3.64 g/m*3 20.9 C 0 km/h
2941 02-04-2007 19:01:02 20.3 C 3.52 g/m*3 20.3 C 0 km/h
2942 02-04-2007 19:06:02 19.9 C 3.44 g/m*3 19.9 C 0 km/h
2943 02-04-2007 19:11:02 19.6 C 3.55 g/m*3 19.6 C 0 km/h
2944 02-04-2007 19:16:02 19.5 C 3.52 g/m*3 19.5 C 0 km/h
2945 02-04-2007 19:21:02 19.3 C 3.48 g/m*3 19.3 C 0 km/h
2946 02-04-2007 19:26:02 18.9 C 3.73 g/m*3 18.9 C 0 km/h
2947 02-04-2007 19:31:02 18.8 C 3.7 g/m*3 18.8 C 0 km/h
2948 02-04-2007 19:36:02 18.5 C 4.11 g/m*3 18.5 C 0 km/h
2949 02-04-2007 19:41:02 18 C 3.99 g/m*3 18 C 0 km/h
2950 02-04-2007 19:46:02 17.9 C 4.12 g/m*3 17.9 C 0 km/h
Sensor: Nr:Datum:Temp:Abs-Feuchte:Windchill:Wind:
Aussen-T/F 2951 02-04-2007 19:51:02 17.5 C 4.17 g/m*3 17.5 C 0 km/h
2952 02-04-2007 19:56:02 17.1 C 4.22 g/m*3 17.1 C 0 km/h
2953 02-04-2007 20:01:02 17 C 4.2 g/m*3 17 C 0 km/h
2954 02-04-2007 20:06:02 16.6 C 4.24 g/m*3 16.6 C 0 km/h
2955 02-04-2007 20:11:02 16.3 C 4.16 g/m*3 16.3 C 0 km/h
2956 02-04-2007 20:16:02 16.1 C 4.11 g/m*3 16.1 C 0 km/h
2957 02-04-2007 20:21:02 16 C 4.09 g/m*3 16 C 0 km/h
2958 02-04-2007 20:26:02 15.8 C 4.17 g/m*3 15.8 C 0 km/h
2959 02-04-2007 20:31:02 15.6 C 4.26 g/m*3 15.6 C 0 km/h
2960 02-04-2007 20:36:02 15.4 C 4.2 g/m*3 15.4 C 0 km/h
2961 02-04-2007 20:41:02 15.4 C 4.2 g/m*3 15.4 C 0 km/h
2962 02-04-2007 20:46:02 15.3 C 4.18 g/m*3 15.3 C 0 km/h
2963 02-04-2007 20:51:02 15.2 C 4.28 g/m*3 15.2 C 0 km/h
2964 02-04-2007 20:56:02 15 C 4.36 g/m*3 15 C 0 km/h
2965 02-04-2007 21:01:03 14.7 C 4.41 g/m*3 14.7 C 0 km/h
2966 02-04-2007 21:06:03 14.6 C 4.38 g/m*3 14.6 C 0 km/h
2967 02-04-2007 21:11:03 14.4 C 4.33 g/m*3 14.4 C 0 km/h
2968 02-04-2007 21:16:02 14.1 C 4.25 g/m*3 14.1 C 0 km/h
2969 02-04-2007 21:21:02 14 C 4.34 g/m*3 14 C 0 km/h
2970 02-04-2007 21:26:02 13.9 C 4.44 g/m*3 13.9 C 0 km/h
2971 02-04-2007 21:31:02 13.6 C 4.47 g/m*3 13.6 C 0 km/h
2972 02-04-2007 21:36:02 13.5 C 4.44 g/m*3 13.5 C 0 km/h
2973 02-04-2007 21:41:02 13.4 C 4.42 g/m*3 13.4 C 0 km/h
2974 02-04-2007 21:46:02 13.2 C 4.36 g/m*3 13.2 C 0 km/h
2975 02-04-2007 21:51:02 13.1 C 4.45 g/m*3 13.1 C 0 km/h
Sensor: Nr:Datum:Temp:Abs-Feuchte:Windchill:Wind:
Aussen-T/F 2976 02-04-2007 21:56:02 13.1 C 4.34 g/m*3 13.1 C 0 km/h
2977 02-04-2007 22:01:02 13 C 4.54 g/m*3 13 C 0 km/h
2978 02-04-2007 22:06:02 13 C 4.54 g/m*3 13 C 0 km/h
2979 02-04-2007 22:11:02 12.8 C 4.59 g/m*3 12.8 C 0 km/h
2980 02-04-2007 22:16:02 12.8 C 4.59 g/m*3 12.8 C 0 km/h
2981 02-04-2007 22:21:02 12.6 C 4.65 g/m*3 12.6 C 0 km/h
2982 02-04-2007 22:26:02 12.5 C 4.51 g/m*3 12.5 C 0 km/h
2983 02-04-2007 22:31:02 12.5 C 4.51 g/m*3 12.5 C 0 km/h
2984 02-04-2007 22:36:02 12.6 C 4.65 g/m*3 12.6 C 0 km/h
2985 02-04-2007 22:41:02 12.6 C 4.65 g/m*3 12.6 C 0 km/h
2986 02-04-2007 22:46:02 12.5 C 4.62 g/m*3 12.5 C 0 km/h
2987 02-04-2007 22:51:02 12.4 C 4.7 g/m*3 12.4 C 0 km/h
2988 02-04-2007 22:56:02 12.4 C 4.81 g/m*3 12.4 C 0 km/h
2989 02-04-2007 23:01:02 12.2 C 4.64 g/m*3 12.2 C 0 km/h
2990 02-04-2007 23:06:02 12.1 C 4.83 g/m*3 12.1 C 0 km/h
2991 02-04-2007 23:11:02 12.1 C 4.83 g/m*3 12.1 C 0 km/h
2992 02-04-2007 23:16:02 12.1 C 4.72 g/m*3 12.1 C 0 km/h
2993 02-04-2007 23:21:02 11.9 C 4.77 g/m*3 11.9 C 0 km/h
2994 02-04-2007 23:26:02 11.7 C 4.81 g/m*3 11.7 C 0 km/h
2995 02-04-2007 23:31:02 11.7 C 4.92 g/m*3 11.7 C 0 km/h
2996 02-04-2007 23:36:03 11.7 C 4.92 g/m*3 11.7 C 0 km/h
2997 02-04-2007 23:41:03 11.5 C 4.96 g/m*3 11.5 C 0 km/h
2998 02-04-2007 23:46:02 11.4 C 4.82 g/m*3 11.4 C 0 km/h
2999 02-04-2007 23:51:02 11.4 C 4.93 g/m*3 11.4 C 0 km/h
3000 02-04-2007 23:56:02 11.2 C 4.97 g/m*3 11.2 C 0 km/h
Sensor: Nr:Datum:Temp:Abs-Feuchte:Windchill:Wind:
Aussen-T/F 3001 03-04-2007 00:01:03 11.1 C 4.94 g/m*3 11.1 C 0 km/h
3002 03-04-2007 00:06:03 11.1 C 4.94 g/m*3 11.1 C 0 km/h
3003 03-04-2007 00:11:03 11.1 C 4.94 g/m*3 11.1 C 0 km/h
3004 03-04-2007 00:16:03 11.1 C 4.94 g/m*3 11.1 C 0 km/h
3005 03-04-2007 00:21:03 11 C 5 g/m*3 11 C 0 km/h
3006 03-04-2007 00:26:03 11.1 C 5.14 g/m*3 11.1 C 0 km/h
3007 03-04-2007 00:31:02 11 C 5.1 g/m*3 11 C 0 km/h
3008 03-04-2007 00:36:02 10.7 C 5.11 g/m*3 10.7 C 0 km/h
3009 03-04-2007 00:41:02 10.6 C 4.98 g/m*3 10.6 C 0 km/h
3010 03-04-2007 00:46:03 10.6 C 5.17 g/m*3 10.6 C 0 km/h
3011 03-04-2007 00:51:03 10.7 C 5.01 g/m*3 10.7 C 0 km/h
3012 03-04-2007 00:56:03 10.6 C 5.08 g/m*3 10.6 C 0 km/h
3013 03-04-2007 01:01:02 10.4 C 5.01 g/m*3 10.4 C 0 km/h
3014 03-04-2007 01:06:02 10.1 C 5.01 g/m*3 10.1 C 0 km/h
3015 03-04-2007 01:11:02 9.9 C 5.04 g/m*3 9.9 C 0 km/h
3016 03-04-2007 01:16:03 9.8 C 5.01 g/m*3 9.8 C 0 km/h
3017 03-04-2007 01:21:03 9.6 C 5.04 g/m*3 9.6 C 0 km/h
3018 03-04-2007 01:26:03 9.5 C 5.1 g/m*3 9.5 C 0 km/h
3019 03-04-2007 01:31:03 9.5 C 5.1 g/m*3 9.5 C 0 km/h
3020 03-04-2007 01:36:03 9.5 C 5.1 g/m*3 9.5 C 0 km/h
3021 03-04-2007 01:41:03 9.6 C 5.13 g/m*3 9.6 C 0 km/h
3022 03-04-2007 01:46:02 9.4 C 5.16 g/m*3 9.4 C 0 km/h
3023 03-04-2007 01:51:02 9.3 C 5.12 g/m*3 9.3 C 0 km/h
3024 03-04-2007 01:56:02 9.3 C 5.12 g/m*3 9.3 C 0 km/h
3025 03-04-2007 02:01:01 9.3 C 5.12 g/m*3 9.3 C 0 km/h
Sensor: Nr:Datum:Temp:Abs-Feuchte:Windchill:Wind:
Aussen-T/F 3026 03-04-2007 02:06:01 9.3 C 5.21 g/m*3 9.3 C 0 km/h
3027 03-04-2007 02:11:01 9.1 C 5.32 g/m*3 9.1 C 0 km/h
3028 03-04-2007 02:16:02 9.1 C 5.32 g/m*3 9.1 C 0 km/h
3029 03-04-2007 02:21:03 9.2 C 5.27 g/m*3 9.2 C 0 km/h
3030 03-04-2007 02:26:03 9.2 C 5.27 g/m*3 9.2 C 0 km/h
3031 03-04-2007 02:31:02 9.2 C 5.27 g/m*3 9.2 C 0 km/h
3032 03-04-2007 02:36:02 9.1 C 5.23 g/m*3 9.1 C 0 km/h
3033 03-04-2007 02:41:02 9.1 C 5.23 g/m*3 9.1 C 0 km/h
3034 03-04-2007 02:47:03 9.2 C 5.27 g/m*3 9.2 C 0 km/h
3035 03-04-2007 02:52:03 9.2 C 5.27 g/m*3 9.2 C 0 km/h
3036 03-04-2007 02:57:03 9.4 C 5.34 g/m*3 9.4 C 0 km/h
3037 03-04-2007 03:02:03 9.4 C 5.34 g/m*3 9.4 C 0 km/h
3038 03-04-2007 03:07:03 9.6 C 5.4 g/m*3 9.6 C 0 km/h
3039 03-04-2007 03:12:04 9.6 C 5.4 g/m*3 9.6 C 0 km/h
3040 03-04-2007 03:17:04 9.6 C 5.31 g/m*3 9.6 C 0 km/h
3041 03-04-2007 03:22:04 9.6 C 5.4 g/m*3 9.6 C 0 km/h
3042 03-04-2007 03:27:04 9.5 C 5.46 g/m*3 9.5 C 0 km/h
3043 03-04-2007 03:32:02 9.3 C 5.39 g/m*3 9.3 C 0 km/h
3044 03-04-2007 03:37:02 9.3 C 5.48 g/m*3 9.3 C 0 km/h
3045 03-04-2007 03:42:02 9.3 C 5.48 g/m*3 9.3 C 0 km/h
3046 03-04-2007 03:47:02 9.2 C 5.45 g/m*3 9.2 C 0 km/h
3047 03-04-2007 03:52:02 9.1 C 5.5 g/m*3 9.1 C 0 km/h
3048 03-04-2007 03:57:02 9 C 5.47 g/m*3 9 C 0 km/h
3049 03-04-2007 04:02:02 9 C 5.47 g/m*3 9 C 0 km/h
3050 03-04-2007 04:07:02 9 C 5.55 g/m*3 9 C 0 km/h
Sensor: Nr:Datum:Temp:Abs-Feuchte:Windchill:Wind:
Aussen-T/F 3051 03-04-2007 04:12:02 9 C 5.55 g/m*3 9 C 0 km/h
3052 03-04-2007 04:17:02 9 C 5.55 g/m*3 9 C 0 km/h
3053 03-04-2007 04:22:02 9 C 5.55 g/m*3 9 C 0 km/h
3054 03-04-2007 04:27:02 9 C 5.64 g/m*3 9 C 0 km/h
3055 03-04-2007 04:32:02 9 C 5.64 g/m*3 9 C 0 km/h
3056 03-04-2007 04:37:02 9 C 5.64 g/m*3 9 C 0 km/h
3057 03-04-2007 04:42:02 8.9 C 5.78 g/m*3 8.9 C 0 km/h
3058 03-04-2007 04:47:02 8.9 C 5.78 g/m*3 8.9 C 0 km/h
3059 03-04-2007 04:52:02 8.8 C 5.74 g/m*3 8.8 C 0 km/h
3060 03-04-2007 04:57:03 8.8 C 5.66 g/m*3 8.8 C 0 km/h
3061 03-04-2007 05:02:02 8.7 C 5.71 g/m*3 8.7 C 0 km/h
3062 03-04-2007 05:07:02 8.7 C 5.71 g/m*3 8.7 C 0 km/h
3063 03-04-2007 05:12:02 8.8 C 5.66 g/m*3 8.8 C 0 km/h
3064 03-04-2007 05:17:03 8.9 C 5.78 g/m*3 8.9 C 0 km/h
3065 03-04-2007 05:22:03 8.9 C 5.69 g/m*3 8.9 C 0 km/h
3066 03-04-2007 05:27:03 8.9 C 5.69 g/m*3 8.9 C 0 km/h
3067 03-04-2007 05:32:02 8.9 C 5.69 g/m*3 8.9 C 0 km/h
3068 03-04-2007 05:37:02 8.9 C 5.43 g/m*3 8.9 C 0 km/h
3069 03-04-2007 05:42:03 8.9 C 5.52 g/m*3 8.9 C 0 km/h
3070 03-04-2007 05:47:02 9.1 C 5.06 g/m*3 9.1 C 0 km/h
3071 03-04-2007 05:52:02 9.3 C 4.94 g/m*3 9.3 C 0 km/h
3072 03-04-2007 05:57:02 9.3 C 4.94 g/m*3 9.3 C 0 km/h
3073 03-04-2007 06:02:02 9.4 C 4.7 g/m*3 9.4 C 0 km/h
3074 03-04-2007 06:07:02 9.4 C 4.7 g/m*3 9.4 C 0 km/h
3075 03-04-2007 06:12:02 9.4 C 4.61 g/m*3 9.4 C 0 km/h
Sensor: Nr:Datum:Temp:Abs-Feuchte:Windchill:Wind:
Aussen-T/F 3076 03-04-2007 06:17:02 9.4 C 4.7 g/m*3 9.4 C 0 km/h
3077 03-04-2007 06:22:02 9.3 C 4.67 g/m*3 9.3 C 0 km/h
3078 03-04-2007 06:27:02 9.3 C 4.67 g/m*3 9.3 C 0 km/h
3079 03-04-2007 06:32:03 9.2 C 4.64 g/m*3 9.2 C 0 km/h
3080 03-04-2007 06:37:03 9.1 C 4.53 g/m*3 9.1 C 0 km/h
3081 03-04-2007 06:42:03 9 C 4.58 g/m*3 9 C 0 km/h
3082 03-04-2007 06:47:02 9 C 4.58 g/m*3 9 C 0 km/h
3083 03-04-2007 06:52:02 8.9 C 4.64 g/m*3 8.9 C 0 km/h
3084 03-04-2007 06:57:03 8.7 C 4.67 g/m*3 8.7 C 0 km/h
3085 03-04-2007 07:02:02 8.6 C 4.73 g/m*3 8.6 C 0 km/h
3086 03-04-2007 07:07:02 8.5 C 4.7 g/m*3 8.5 C 0 km/h
3087 03-04-2007 07:12:02 8.4 C 4.75 g/m*3 8.4 C 0 km/h
3088 03-04-2007 07:17:01 8.2 C 4.77 g/m*3 8.2 C 0 km/h
3089 03-04-2007 07:22:01 8.2 C 4.86 g/m*3 8.2 C 0 km/h
3090 03-04-2007 07:27:01 8.1 C 4.91 g/m*3 8.1 C 0 km/h
3091 03-04-2007 07:32:02 7.9 C 4.93 g/m*3 7.9 C 0 km/h
3092 03-04-2007 07:37:02 7.9 C 4.93 g/m*3 7.9 C 0 km/h
3093 03-04-2007 07:42:02 7.7 C 4.95 g/m*3 7.7 C 0 km/h
3094 03-04-2007 07:47:02 7.7 C 5.03 g/m*3 7.7 C 0 km/h
3095 03-04-2007 07:52:02 7.6 C 5.08 g/m*3 7.6 C 0 km/h
3096 03-04-2007 07:57:02 7.5 C 5.04 g/m*3 7.5 C 0 km/h
3097 03-04-2007 08:02:01 7.5 C 5.12 g/m*3 7.5 C 0 km/h
3098 03-04-2007 08:07:01 7.5 C 5.12 g/m*3 7.5 C 0 km/h
3099 03-04-2007 08:12:01 7.5 C 5.12 g/m*3 7.5 C 0 km/h
3100 03-04-2007 08:17:02 7.5 C 5.12 g/m*3 7.5 C 0 km/h
Sensor: Nr:Datum:Temp:Abs-Feuchte:Windchill:Wind:
Aussen-T/F 3101 03-04-2007 08:22:02 7.5 C 5.12 g/m*3 7.5 C 0 km/h
3102 03-04-2007 08:27:02 7.5 C 5.12 g/m*3 7.5 C 0 km/h
3103 03-04-2007 08:32:02 7.5 C 5.12 g/m*3 7.5 C 0 km/h
3104 03-04-2007 08:37:02 7.5 C 5.04 g/m*3 7.5 C 0 km/h
3105 03-04-2007 08:42:02 7.5 C 5.04 g/m*3 7.5 C 0 km/h
3106 03-04-2007 08:47:02 7.5 C 5.04 g/m*3 7.5 C 0 km/h
3107 03-04-2007 08:52:02 7.5 C 4.96 g/m*3 7.5 C 0 km/h
3108 03-04-2007 08:57:02 7.6 C 4.99 g/m*3 7.6 C 0 km/h
3109 03-04-2007 09:02:03 7.6 C 4.83 g/m*3 7.6 C 0 km/h
3110 03-04-2007 09:07:03 7.7 C 4.87 g/m*3 7.7 C 0 km/h
3111 03-04-2007 09:12:03 7.7 C 4.7 g/m*3 7.7 C 0 km/h
3112 03-04-2007 09:17:02 7.7 C 4.7 g/m*3 7.7 C 0 km/h
3113 03-04-2007 09:22:02 7.8 C 4.65 g/m*3 7.8 C 0 km/h
3114 03-04-2007 09:27:02 7.8 C 4.65 g/m*3 7.8 C 0 km/h
3115 03-04-2007 09:32:02 7.9 C 4.6 g/m*3 7.9 C 0 km/h
3116 03-04-2007 09:37:02 7.8 C 4.57 g/m*3 7.8 C 0 km/h
3117 03-04-2007 09:42:02 7.9 C 4.52 g/m*3 7.9 C 0 km/h
3118 03-04-2007 09:47:02 7.9 C 4.52 g/m*3 7.9 C 0 km/h
3119 03-04-2007 09:52:02 8 C 4.55 g/m*3 8 C 0 km/h
3120 03-04-2007 09:57:02 8.1 C 4.58 g/m*3 8.1 C 0 km/h
3121 03-04-2007 10:02:02 8.2 C 4.44 g/m*3 8.2 C 0 km/h
3122 03-04-2007 10:07:02 8.1 C 4.33 g/m*3 8.1 C 0 km/h
3123 03-04-2007 10:12:02 8.2 C 4.44 g/m*3 8.2 C 0 km/h
3124 03-04-2007 10:17:01 8.2 C 4.35 g/m*3 8.2 C 0 km/h
3125 03-04-2007 10:22:01 8.2 C 4.44 g/m*3 8.2 C 0 km/h
Sensor: Nr:Datum:Temp:Abs-Feuchte:Windchill:Wind:
Aussen-T/F 3126 03-04-2007 10:27:01 8.1 C 4.41 g/m*3 8.1 C 0 km/h
3127 03-04-2007 10:32:01 8.2 C 4.52 g/m*3 8.2 C 0 km/h
3128 03-04-2007 10:37:01 8.2 C 4.52 g/m*3 8.2 C 0 km/h
3129 03-04-2007 10:42:01 8.1 C 4.58 g/m*3 8.1 C 0 km/h
3130 03-04-2007 10:47:02 8.1 C 4.66 g/m*3 8.1 C 0 km/h
3131 03-04-2007 10:52:03 8.1 C 4.66 g/m*3 8.1 C 0 km/h
3132 03-04-2007 10:57:03 8 C 4.63 g/m*3 8 C 0 km/h
3133 03-04-2007 11:02:01 8.1 C 4.74 g/m*3 8.1 C 0 km/h
3134 03-04-2007 11:07:01 8.2 C 4.86 g/m*3 8.2 C 0 km/h
3135 03-04-2007 11:12:01 8 C 4.8 g/m*3 8 C 0 km/h
3136 03-04-2007 11:17:01 7.9 C 4.85 g/m*3 7.9 C 0 km/h
3137 03-04-2007 11:22:01 7.9 C 4.93 g/m*3 7.9 C 0 km/h
3138 03-04-2007 11:27:01 7.8 C 4.9 g/m*3 7.8 C 0 km/h
3139 03-04-2007 11:32:02 7.8 C 4.82 g/m*3 7.8 C 0 km/h
3140 03-04-2007 11:37:02 7.9 C 4.93 g/m*3 7.9 C 0 km/h
3141 03-04-2007 11:42:02 7.9 C 4.93 g/m*3 7.9 C 0 km/h
3142 03-04-2007 11:47:02 8 C 4.71 g/m*3 8 C 0 km/h
3143 03-04-2007 11:52:02 8 C 4.71 g/m*3 8 C 0 km/h
3144 03-04-2007 11:57:02 8.1 C 4.74 g/m*3 8.1 C 0 km/h
3145 03-04-2007 12:02:02 8 C 4.63 g/m*3 8 C 0 km/h
3146 03-04-2007 12:07:02 8.2 C 4.77 g/m*3 8.2 C 0 km/h
3147 03-04-2007 12:12:02 8.6 C 4.81 g/m*3 8.6 C 0 km/h
3148 03-04-2007 12:17:03 8.7 C 4.76 g/m*3 8.7 C 0 km/h
3149 03-04-2007 12:22:03 8.8 C 4.7 g/m*3 8.8 C 0 km/h
3150 03-04-2007 12:27:03 9.1 C 4.7 g/m*3 9.1 C 0 km/h
Sensor: Nr:Datum:Temp:Abs-Feuchte:Windchill:Wind:
Aussen-T/F 3151 03-04-2007 12:32:02 9.2 C 4.73 g/m*3 9.2 C 0 km/h
3152 03-04-2007 12:37:02 9.1 C 4.61 g/m*3 9.1 C 0 km/h
3153 03-04-2007 12:42:02 9.1 C 4.61 g/m*3 9.1 C 0 km/h
3154 03-04-2007 12:47:02 9.1 C 4.53 g/m*3 9.1 C 0 km/h
3155 03-04-2007 12:52:02 9.4 C 4.7 g/m*3 9.4 C 0 km/h
3156 03-04-2007 12:57:02 9 C 4.41 g/m*3 9 C 0 km/h
3157 03-04-2007 13:02:02 9.2 C 4.46 g/m*3 9.2 C 0 km/h
3158 03-04-2007 13:07:02 9.5 C 4.64 g/m*3 9.5 C 0 km/h
3159 03-04-2007 13:12:02 8.9 C 4.38 g/m*3 8.9 C 0 km/h
3160 03-04-2007 13:17:02 9 C 4.5 g/m*3 9 C 0 km/h
3161 03-04-2007 13:22:02 9.2 C 4.55 g/m*3 9.2 C 0 km/h
3162 03-04-2007 13:27:02 9.7 C 4.61 g/m*3 9.7 C 0 km/h
3163 03-04-2007 13:32:02 9.5 C 4.55 g/m*3 9.5 C 0 km/h
3164 03-04-2007 13:37:03 9.7 C 4.61 g/m*3 9.7 C 0 km/h
3165 03-04-2007 13:42:03 9.5 C 4.55 g/m*3 9.5 C 0 km/h
3166 03-04-2007 13:47:01 9.6 C 4.58 g/m*3 9.6 C 0 km/h
3167 03-04-2007 13:52:01 10 C 4.6 g/m*3 10 C 0 km/h
3168 03-04-2007 13:57:01 10.1 C 4.54 g/m*3 10.1 C 0 km/h
3169 03-04-2007 14:02:02 9.8 C 4.45 g/m*3 9.8 C 0 km/h
3170 03-04-2007 14:07:02 9.7 C 4.52 g/m*3 9.7 C 0 km/h
3171 03-04-2007 14:12:02 9.8 C 4.55 g/m*3 9.8 C 0 km/h
3172 03-04-2007 14:17:01 9.7 C 4.52 g/m*3 9.7 C 0 km/h
3173 03-04-2007 14:22:01 10.1 C 4.54 g/m*3 10.1 C 0 km/h
3174 03-04-2007 14:27:01 10.4 C 4.53 g/m*3 10.4 C 0 km/h
3175 03-04-2007 14:32:01 10.6 C 4.49 g/m*3 10.6 C 0 km/h
Sensor: Nr:Datum:Temp:Abs-Feuchte:Windchill:Wind:
Aussen-T/F 3176 03-04-2007 14:37:01 10.9 C 4.48 g/m*3 10.9 C 0 km/h
3177 03-04-2007 14:42:01 11.3 C 4.39 g/m*3 11.3 C 0 km/h
3178 03-04-2007 14:47:02 11.4 C 4.11 g/m*3 11.4 C 0 km/h
3179 03-04-2007 14:52:02 11.3 C 4.08 g/m*3 11.3 C 0 km/h
3180 03-04-2007 14:57:02 11.4 C 4 g/m*3 11.4 C 0 km/h
3181 03-04-2007 15:02:01 11.2 C 3.95 g/m*3 11.2 C 0 km/h
3182 03-04-2007 15:07:01 11.3 C 3.98 g/m*3 11.3 C 0 km/h
3183 03-04-2007 15:12:02 11.1 C 3.93 g/m*3 11.1 C 0 km/h
3184 03-04-2007 15:17:01 11.1 C 3.93 g/m*3 11.1 C 0 km/h
3185 03-04-2007 15:22:01 11.7 C 3.97 g/m*3 11.7 C 0 km/h
3186 03-04-2007 15:27:01 11.4 C 3.8 g/m*3 11.4 C 0 km/h
3187 03-04-2007 15:32:01 11.9 C 4.02 g/m*3 11.9 C 0 km/h
3188 03-04-2007 15:37:01 12.1 C 3.97 g/m*3 12.1 C 0 km/h
3189 03-04-2007 15:42:01 12 C 3.94 g/m*3 12 C 0 km/h
3190 03-04-2007 15:47:02 12.1 C 3.97 g/m*3 12.1 C 0 km/h
3191 03-04-2007 15:52:02 11.7 C 4.18 g/m*3 11.7 C 0 km/h
3192 03-04-2007 15:57:03 11.8 C 4.21 g/m*3 11.8 C 0 km/h
3193 03-04-2007 16:02:01 11.3 C 4.08 g/m*3 11.3 C 0 km/h
3194 03-04-2007 16:07:01 10.9 C 4.08 g/m*3 10.9 C 0 km/h
3195 03-04-2007 16:12:01 10.7 C 4.22 g/m*3 10.7 C 0 km/h
3196 03-04-2007 16:17:01 10 C 4.23 g/m*3 10 C 0 km/h
3197 03-04-2007 16:22:01 10 C 4.32 g/m*3 10 C 0 km/h
3198 03-04-2007 16:27:01 9.8 C 4.45 g/m*3 9.8 C 0 km/h
3199 03-04-2007 16:32:02 9.5 C 4.55 g/m*3 9.5 C 0 km/h
3200 03-04-2007 16:37:02 9.5 C 4.64 g/m*3 9.5 C 0 km/h
Sensor: Nr:Datum:Temp:Abs-Feuchte:Windchill:Wind:
Aussen-T/F 3201 03-04-2007 16:42:02 9.2 C 4.82 g/m*3 9.2 C 0 km/h
3202 03-04-2007 16:47:02 8.9 C 5.08 g/m*3 8.9 C 0 km/h
3203 03-04-2007 16:52:02 8.5 C 5.21 g/m*3 8.5 C 0 km/h
3204 03-04-2007 16:57:02 8.4 C 5.26 g/m*3 8.4 C 0 km/h
3205 03-04-2007 17:02:03 8.2 C 5.02 g/m*3 8.2 C 0 km/h
3206 03-04-2007 17:07:04 8.5 C 5.04 g/m*3 8.5 C 0 km/h
3207 03-04-2007 17:12:04 8.6 C 4.98 g/m*3 8.6 C 0 km/h
3208 03-04-2007 17:17:02 8.7 C 4.84 g/m*3 8.7 C 0 km/h
3209 03-04-2007 17:22:02 9 C 4.85 g/m*3 9 C 0 km/h
3210 03-04-2007 17:27:02 9.2 C 4.82 g/m*3 9.2 C 0 km/h
3211 03-04-2007 17:32:02 9.6 C 4.76 g/m*3 9.6 C 0 km/h
3212 03-04-2007 17:37:02 9.7 C 4.61 g/m*3 9.7 C 0 km/h
3213 03-04-2007 17:42:02 9.6 C 4.58 g/m*3 9.6 C 0 km/h
3214 03-04-2007 17:47:02 9.5 C 4.46 g/m*3 9.5 C 0 km/h
3215 03-04-2007 17:52:02 9.3 C 4.4 g/m*3 9.3 C 0 km/h
3216 03-04-2007 17:57:02 9.1 C 4.26 g/m*3 9.1 C 0 km/h
3217 03-04-2007 18:02:02 8.9 C 4.29 g/m*3 8.9 C 0 km/h
3218 03-04-2007 18:07:02 8.7 C 4.24 g/m*3 8.7 C 0 km/h
3219 03-04-2007 18:12:02 8.8 C 4.26 g/m*3 8.8 C 0 km/h
3220 03-04-2007 18:17:02 8.6 C 4.12 g/m*3 8.6 C 0 km/h
3221 03-04-2007 18:22:02 9 C 4.14 g/m*3 9 C 0 km/h
3222 03-04-2007 18:27:02 9.9 C 4.29 g/m*3 9.9 C 0 km/h
3223 03-04-2007 18:32:02 10.2 C 4.28 g/m*3 10.2 C 0 km/h
3224 03-04-2007 18:37:02 10.6 C 4.1 g/m*3 10.6 C 0 km/h
3225 03-04-2007 18:42:02 10.6 C 4 g/m*3 10.6 C 0 km/h
Sensor: Nr:Datum:Temp:Abs-Feuchte:Windchill:Wind:
Aussen-T/F 3226 03-04-2007 18:47:02 10.7 C 4.03 g/m*3 10.7 C 0 km/h
3227 03-04-2007 18:52:02 11.4 C 4 g/m*3 11.4 C 0 km/h
3228 03-04-2007 18:57:02 11.3 C 3.88 g/m*3 11.3 C 0 km/h
3229 03-04-2007 19:02:02 10.1 C 3.78 g/m*3 10.1 C 0 km/h
3230 03-04-2007 19:07:02 9.9 C 3.83 g/m*3 9.9 C 0 km/h
3231 03-04-2007 19:12:02 9.7 C 3.96 g/m*3 9.7 C 0 km/h
3232 03-04-2007 19:17:01 9.4 C 3.89 g/m*3 9.4 C 0 km/h
3233 03-04-2007 19:22:01 9.2 C 3.84 g/m*3 9.2 C 0 km/h
3234 03-04-2007 19:27:01 9.2 C 3.93 g/m*3 9.2 C 0 km/h
3235 03-04-2007 19:32:02 9 C 3.97 g/m*3 9 C 0 km/h
3236 03-04-2007 19:37:02 9 C 3.97 g/m*3 9 C 0 km/h
3237 03-04-2007 19:42:02 9 C 4.06 g/m*3 9 C 0 km/h
3238 03-04-2007 19:47:01 9 C 4.06 g/m*3 9 C 0 km/h
3239 03-04-2007 19:52:01 8.7 C 4.15 g/m*3 8.7 C 0 km/h
3240 03-04-2007 19:57:01 8.6 C 4.21 g/m*3 8.6 C 0 km/h
3241 03-04-2007 20:02:02 8.2 C 4.52 g/m*3 8.2 C 0 km/h
3242 03-04-2007 20:07:02 7.8 C 4.65 g/m*3 7.8 C 0 km/h
3243 03-04-2007 20:12:02 7.8 C 4.65 g/m*3 7.8 C 0 km/h
3244 03-04-2007 20:17:02 8 C 4.71 g/m*3